<?xml version="1.0" encoding="UTF-8" standalone="no" ?>
<gpx xmlns="http://www.topografix.com/GPX/1/1" xmlns:xsi="http://www.w3.org/2001/XMLSchema-instance" xsi:schemaLocation="http://www.topografix.com/GPX/1/1 http://www.topografix.com/GPX/1/1/gpx.xsd" version="1.1" creator="VisuGPX - https://www.visugpx.com">
  <metadata>
    <name>Monistrol sur Loire 22km</name>
    <desc><![CDATA[fait le 13/10/2024 dans le sens des aiguilles d une montre- parcours assez vallonnée]]></desc>
  </metadata>
  <wpt lat="45.30263" lon="4.15052">
    <ele>502.5</ele>
    <name><![CDATA[Chateau de Foletier]]></name>
    <type><![CDATA[patrimoine]]></type>
  </wpt>
  <wpt lat="45.29415" lon="4.1627">
    <ele>568.9</ele>
  </wpt>
  <wpt lat="45.30946" lon="4.19274">
    <ele>585.9</ele>
    <name><![CDATA[Chateau de Martinas]]></name>
    <type><![CDATA[patrimoine]]></type>
  </wpt>
  <wpt lat="45.30263" lon="4.15052">
    <ele>502.5</ele>
    <name><![CDATA[Chateau de Foletier]]></name>
    <type><![CDATA[patrimoine]]></type>
  </wpt>
  <wpt lat="45.29415" lon="4.1627">
    <ele>568.9</ele>
    <name><![CDATA[Chateau du Flachat dit Chateau des Eveques]]></name>
    <type><![CDATA[patrimoine]]></type>
  </wpt>
  <wpt lat="45.30946" lon="4.19274">
    <ele>585.9</ele>
    <name><![CDATA[Chateau de Martinas]]></name>
    <type><![CDATA[patrimoine]]></type>
  </wpt>
  <trk>
    <name><![CDATA[2024-10-13 16:37:06]]></name>
    <extensions>
      <line xmlns="http://www.topografix.com/GPX/gpx_style/0/2">
        <color>ff0026</color>
        <width>4</width>
        <dasharray>20</dasharray>
      </line>
    </extensions>
    <trkseg>
      <trkpt lat="45.31727" lon="4.18766">
        <ele>551.93</ele>
        <time>2024-10-13T07:45:29Z</time>
      </trkpt>
      <trkpt lat="45.31731" lon="4.18764">
        <ele>556.74</ele>
        <time>2024-10-13T07:45:52Z</time>
      </trkpt>
      <trkpt lat="45.31732" lon="4.18763">
        <ele>557.22</ele>
        <time>2024-10-13T07:46:08Z</time>
      </trkpt>
      <trkpt lat="45.31736" lon="4.18763">
        <ele>557.22</ele>
        <time>2024-10-13T07:46:21Z</time>
      </trkpt>
      <trkpt lat="45.31736" lon="4.18768">
        <ele>557.7</ele>
        <time>2024-10-13T07:46:35Z</time>
      </trkpt>
      <trkpt lat="45.31738" lon="4.18769">
        <ele>556.74</ele>
        <time>2024-10-13T07:46:48Z</time>
      </trkpt>
      <trkpt lat="45.3174" lon="4.18764">
        <ele>558.66</ele>
        <time>2024-10-13T07:47:06Z</time>
      </trkpt>
      <trkpt lat="45.31741" lon="4.18762">
        <ele>558.18</ele>
        <time>2024-10-13T07:47:09Z</time>
      </trkpt>
      <trkpt lat="45.31745" lon="4.1875">
        <ele>557.7</ele>
        <time>2024-10-13T07:47:18Z</time>
      </trkpt>
      <trkpt lat="45.31753" lon="4.18752">
        <ele>557.22</ele>
        <time>2024-10-13T07:47:24Z</time>
      </trkpt>
      <trkpt lat="45.31772" lon="4.18769">
        <ele>552.41</ele>
        <time>2024-10-13T07:47:43Z</time>
      </trkpt>
      <trkpt lat="45.3179" lon="4.18786">
        <ele>549.53</ele>
        <time>2024-10-13T07:48:01Z</time>
      </trkpt>
      <trkpt lat="45.31806" lon="4.18799">
        <ele>548.57</ele>
        <time>2024-10-13T07:48:16Z</time>
      </trkpt>
      <trkpt lat="45.31823" lon="4.18817">
        <ele>550.01</ele>
        <time>2024-10-13T07:48:32Z</time>
      </trkpt>
      <trkpt lat="45.3184" lon="4.18831">
        <ele>548.57</ele>
        <time>2024-10-13T07:48:47Z</time>
      </trkpt>
      <trkpt lat="45.31863" lon="4.18846">
        <ele>547.13</ele>
        <time>2024-10-13T07:49:07Z</time>
      </trkpt>
      <trkpt lat="45.31865" lon="4.18847">
        <ele>547.13</ele>
        <time>2024-10-13T07:49:09Z</time>
      </trkpt>
      <trkpt lat="45.31874" lon="4.18838">
        <ele>549.05</ele>
        <time>2024-10-13T07:49:24Z</time>
      </trkpt>
      <trkpt lat="45.31878" lon="4.18835">
        <ele>550.01</ele>
        <time>2024-10-13T07:49:33Z</time>
      </trkpt>
      <trkpt lat="45.31878" lon="4.18829">
        <ele>551.45</ele>
        <time>2024-10-13T07:49:44Z</time>
      </trkpt>
      <trkpt lat="45.31879" lon="4.18826">
        <ele>553.38</ele>
        <time>2024-10-13T07:49:55Z</time>
      </trkpt>
      <trkpt lat="45.31878" lon="4.18824">
        <ele>555.3</ele>
        <time>2024-10-13T07:50:07Z</time>
      </trkpt>
      <trkpt lat="45.31879" lon="4.18824">
        <ele>557.22</ele>
        <time>2024-10-13T07:50:22Z</time>
      </trkpt>
      <trkpt lat="45.31879" lon="4.18811">
        <ele>557.22</ele>
        <time>2024-10-13T07:50:47Z</time>
      </trkpt>
      <trkpt lat="45.3188" lon="4.18808">
        <ele>557.22</ele>
        <time>2024-10-13T07:51:03Z</time>
      </trkpt>
      <trkpt lat="45.31874" lon="4.18782">
        <ele>560.59</ele>
        <time>2024-10-13T07:51:21Z</time>
      </trkpt>
      <trkpt lat="45.3187" lon="4.18758">
        <ele>563.95</ele>
        <time>2024-10-13T07:51:36Z</time>
      </trkpt>
      <trkpt lat="45.31869" lon="4.18731">
        <ele>567.32</ele>
        <time>2024-10-13T07:51:51Z</time>
      </trkpt>
      <trkpt lat="45.31876" lon="4.18695">
        <ele>569.24</ele>
        <time>2024-10-13T07:52:12Z</time>
      </trkpt>
      <trkpt lat="45.31891" lon="4.18676">
        <ele>570.2</ele>
        <time>2024-10-13T07:52:30Z</time>
      </trkpt>
      <trkpt lat="45.31898" lon="4.18663">
        <ele>570.2</ele>
        <time>2024-10-13T07:52:40Z</time>
      </trkpt>
      <trkpt lat="45.31904" lon="4.18662">
        <ele>573.56</ele>
        <time>2024-10-13T07:52:52Z</time>
      </trkpt>
      <trkpt lat="45.31907" lon="4.1866">
        <ele>573.08</ele>
        <time>2024-10-13T07:53:07Z</time>
      </trkpt>
      <trkpt lat="45.31908" lon="4.1866">
        <ele>573.08</ele>
        <time>2024-10-13T07:53:30Z</time>
      </trkpt>
      <trkpt lat="45.31906" lon="4.18658">
        <ele>573.56</ele>
        <time>2024-10-13T07:53:52Z</time>
      </trkpt>
      <trkpt lat="45.31908" lon="4.18655">
        <ele>571.64</ele>
        <time>2024-10-13T07:54:16Z</time>
      </trkpt>
      <trkpt lat="45.31906" lon="4.18649">
        <ele>572.6</ele>
        <time>2024-10-13T07:54:33Z</time>
      </trkpt>
      <trkpt lat="45.31907" lon="4.18648">
        <ele>572.6</ele>
        <time>2024-10-13T07:54:56Z</time>
      </trkpt>
      <trkpt lat="45.31906" lon="4.18648">
        <ele>575.97</ele>
        <time>2024-10-13T07:55:22Z</time>
      </trkpt>
      <trkpt lat="45.31909" lon="4.18649">
        <ele>575.97</ele>
        <time>2024-10-13T07:55:49Z</time>
      </trkpt>
      <trkpt lat="45.31909" lon="4.18644">
        <ele>575.49</ele>
        <time>2024-10-13T07:55:54Z</time>
      </trkpt>
      <trkpt lat="45.31904" lon="4.1861">
        <ele>574.04</ele>
        <time>2024-10-13T07:56:16Z</time>
      </trkpt>
      <trkpt lat="45.31893" lon="4.18571">
        <ele>573.08</ele>
        <time>2024-10-13T07:56:35Z</time>
      </trkpt>
      <trkpt lat="45.3187" lon="4.1854">
        <ele>573.56</ele>
        <time>2024-10-13T07:56:57Z</time>
      </trkpt>
      <trkpt lat="45.31859" lon="4.18513">
        <ele>574.04</ele>
        <time>2024-10-13T07:57:11Z</time>
      </trkpt>
      <trkpt lat="45.31867" lon="4.18481">
        <ele>573.08</ele>
        <time>2024-10-13T07:57:28Z</time>
      </trkpt>
      <trkpt lat="45.31881" lon="4.1845">
        <ele>572.12</ele>
        <time>2024-10-13T07:57:47Z</time>
      </trkpt>
      <trkpt lat="45.31885" lon="4.18445">
        <ele>570.68</ele>
        <time>2024-10-13T07:58:02Z</time>
      </trkpt>
      <trkpt lat="45.31891" lon="4.18431">
        <ele>570.2</ele>
        <time>2024-10-13T07:58:23Z</time>
      </trkpt>
      <trkpt lat="45.31905" lon="4.18398">
        <ele>566.35</ele>
        <time>2024-10-13T07:58:41Z</time>
      </trkpt>
      <trkpt lat="45.31925" lon="4.18365">
        <ele>564.91</ele>
        <time>2024-10-13T07:59:00Z</time>
      </trkpt>
      <trkpt lat="45.31943" lon="4.18337">
        <ele>562.99</ele>
        <time>2024-10-13T07:59:18Z</time>
      </trkpt>
      <trkpt lat="45.31951" lon="4.18313">
        <ele>562.99</ele>
        <time>2024-10-13T07:59:31Z</time>
      </trkpt>
      <trkpt lat="45.31949" lon="4.18284">
        <ele>564.43</ele>
        <time>2024-10-13T07:59:45Z</time>
      </trkpt>
      <trkpt lat="45.31946" lon="4.18243">
        <ele>561.55</ele>
        <time>2024-10-13T08:00:04Z</time>
      </trkpt>
      <trkpt lat="45.3194" lon="4.18212">
        <ele>559.62</ele>
        <time>2024-10-13T08:00:19Z</time>
      </trkpt>
      <trkpt lat="45.31934" lon="4.18177">
        <ele>559.14</ele>
        <time>2024-10-13T08:00:35Z</time>
      </trkpt>
      <trkpt lat="45.31927" lon="4.18149">
        <ele>559.14</ele>
        <time>2024-10-13T08:00:52Z</time>
      </trkpt>
      <trkpt lat="45.31912" lon="4.18126">
        <ele>559.62</ele>
        <time>2024-10-13T08:01:08Z</time>
      </trkpt>
      <trkpt lat="45.3191" lon="4.18125">
        <ele>559.62</ele>
        <time>2024-10-13T08:01:09Z</time>
      </trkpt>
      <trkpt lat="45.31909" lon="4.18123">
        <ele>559.62</ele>
        <time>2024-10-13T08:01:10Z</time>
      </trkpt>
      <trkpt lat="45.31893" lon="4.18097">
        <ele>561.55</ele>
        <time>2024-10-13T08:01:27Z</time>
      </trkpt>
      <trkpt lat="45.31882" lon="4.18064">
        <ele>564.43</ele>
        <time>2024-10-13T08:01:42Z</time>
      </trkpt>
      <trkpt lat="45.31879" lon="4.18036">
        <ele>565.39</ele>
        <time>2024-10-13T08:01:54Z</time>
      </trkpt>
      <trkpt lat="45.31879" lon="4.18033">
        <ele>565.39</ele>
        <time>2024-10-13T08:01:55Z</time>
      </trkpt>
      <trkpt lat="45.31869" lon="4.17996">
        <ele>563.47</ele>
        <time>2024-10-13T08:02:13Z</time>
      </trkpt>
      <trkpt lat="45.31869" lon="4.17942">
        <ele>562.99</ele>
        <time>2024-10-13T08:02:33Z</time>
      </trkpt>
      <trkpt lat="45.31872" lon="4.17892">
        <ele>562.99</ele>
        <time>2024-10-13T08:02:54Z</time>
      </trkpt>
      <trkpt lat="45.31876" lon="4.17855">
        <ele>562.03</ele>
        <time>2024-10-13T08:03:12Z</time>
      </trkpt>
      <trkpt lat="45.31867" lon="4.17828">
        <ele>560.11</ele>
        <time>2024-10-13T08:03:29Z</time>
      </trkpt>
      <trkpt lat="45.31862" lon="4.17798">
        <ele>558.66</ele>
        <time>2024-10-13T08:03:44Z</time>
      </trkpt>
      <trkpt lat="45.31864" lon="4.17769">
        <ele>557.7</ele>
        <time>2024-10-13T08:03:59Z</time>
      </trkpt>
      <trkpt lat="45.31871" lon="4.17734">
        <ele>558.18</ele>
        <time>2024-10-13T08:04:18Z</time>
      </trkpt>
      <trkpt lat="45.31879" lon="4.17704">
        <ele>558.66</ele>
        <time>2024-10-13T08:04:35Z</time>
      </trkpt>
      <trkpt lat="45.31885" lon="4.17683">
        <ele>559.62</ele>
        <time>2024-10-13T08:04:47Z</time>
      </trkpt>
      <trkpt lat="45.31886" lon="4.17681">
        <ele>559.62</ele>
        <time>2024-10-13T08:04:48Z</time>
      </trkpt>
      <trkpt lat="45.31886" lon="4.1768">
        <ele>559.62</ele>
        <time>2024-10-13T08:04:49Z</time>
      </trkpt>
      <trkpt lat="45.31883" lon="4.17657">
        <ele>560.59</ele>
        <time>2024-10-13T08:05:01Z</time>
      </trkpt>
      <trkpt lat="45.31874" lon="4.17643">
        <ele>561.55</ele>
        <time>2024-10-13T08:05:10Z</time>
      </trkpt>
      <trkpt lat="45.31877" lon="4.17603">
        <ele>560.11</ele>
        <time>2024-10-13T08:05:28Z</time>
      </trkpt>
      <trkpt lat="45.31891" lon="4.17571">
        <ele>559.62</ele>
        <time>2024-10-13T08:05:46Z</time>
      </trkpt>
      <trkpt lat="45.31894" lon="4.1753">
        <ele>560.11</ele>
        <time>2024-10-13T08:06:04Z</time>
      </trkpt>
      <trkpt lat="45.31896" lon="4.17483">
        <ele>561.07</ele>
        <time>2024-10-13T08:06:27Z</time>
      </trkpt>
      <trkpt lat="45.31894" lon="4.1745">
        <ele>562.99</ele>
        <time>2024-10-13T08:06:45Z</time>
      </trkpt>
      <trkpt lat="45.3189" lon="4.17412">
        <ele>563.95</ele>
        <time>2024-10-13T08:07:04Z</time>
      </trkpt>
      <trkpt lat="45.31877" lon="4.17378">
        <ele>563.95</ele>
        <time>2024-10-13T08:07:22Z</time>
      </trkpt>
      <trkpt lat="45.31862" lon="4.1734">
        <ele>559.14</ele>
        <time>2024-10-13T08:07:40Z</time>
      </trkpt>
      <trkpt lat="45.31868" lon="4.17312">
        <ele>555.78</ele>
        <time>2024-10-13T08:07:54Z</time>
      </trkpt>
      <trkpt lat="45.31883" lon="4.17287">
        <ele>554.34</ele>
        <time>2024-10-13T08:08:09Z</time>
      </trkpt>
      <trkpt lat="45.31895" lon="4.17265">
        <ele>559.14</ele>
        <time>2024-10-13T08:08:24Z</time>
      </trkpt>
      <trkpt lat="45.31915" lon="4.17253">
        <ele>564.91</ele>
        <time>2024-10-13T08:08:40Z</time>
      </trkpt>
      <trkpt lat="45.31914" lon="4.17253">
        <ele>565.39</ele>
        <time>2024-10-13T08:08:41Z</time>
      </trkpt>
      <trkpt lat="45.31913" lon="4.17253">
        <ele>565.87</ele>
        <time>2024-10-13T08:08:42Z</time>
      </trkpt>
      <trkpt lat="45.31912" lon="4.17254">
        <ele>566.35</ele>
        <time>2024-10-13T08:08:43Z</time>
      </trkpt>
      <trkpt lat="45.31911" lon="4.17254">
        <ele>566.35</ele>
        <time>2024-10-13T08:08:44Z</time>
      </trkpt>
      <trkpt lat="45.3191" lon="4.17255">
        <ele>566.83</ele>
        <time>2024-10-13T08:08:45Z</time>
      </trkpt>
      <trkpt lat="45.31896" lon="4.17258">
        <ele>569.72</ele>
        <time>2024-10-13T08:09:01Z</time>
      </trkpt>
      <trkpt lat="45.31875" lon="4.17261">
        <ele>573.56</ele>
        <time>2024-10-13T08:09:19Z</time>
      </trkpt>
      <trkpt lat="45.3185" lon="4.17256">
        <ele>578.37</ele>
        <time>2024-10-13T08:09:35Z</time>
      </trkpt>
      <trkpt lat="45.31835" lon="4.17252">
        <ele>579.81</ele>
        <time>2024-10-13T08:09:48Z</time>
      </trkpt>
      <trkpt lat="45.3181" lon="4.17257">
        <ele>579.33</ele>
        <time>2024-10-13T08:10:02Z</time>
      </trkpt>
      <trkpt lat="45.31783" lon="4.17257">
        <ele>582.7</ele>
        <time>2024-10-13T08:10:19Z</time>
      </trkpt>
      <trkpt lat="45.31766" lon="4.17256">
        <ele>580.77</ele>
        <time>2024-10-13T08:10:28Z</time>
      </trkpt>
      <trkpt lat="45.31764" lon="4.17256">
        <ele>580.77</ele>
        <time>2024-10-13T08:10:29Z</time>
      </trkpt>
      <trkpt lat="45.31762" lon="4.17256">
        <ele>580.77</ele>
        <time>2024-10-13T08:10:30Z</time>
      </trkpt>
      <trkpt lat="45.31761" lon="4.17256">
        <ele>580.77</ele>
        <time>2024-10-13T08:10:31Z</time>
      </trkpt>
      <trkpt lat="45.31759" lon="4.17257">
        <ele>580.77</ele>
        <time>2024-10-13T08:10:32Z</time>
      </trkpt>
      <trkpt lat="45.31731" lon="4.17245">
        <ele>581.25</ele>
        <time>2024-10-13T08:10:49Z</time>
      </trkpt>
      <trkpt lat="45.31716" lon="4.17239">
        <ele>582.22</ele>
        <time>2024-10-13T08:10:59Z</time>
      </trkpt>
      <trkpt lat="45.31715" lon="4.17237">
        <ele>582.22</ele>
        <time>2024-10-13T08:11:00Z</time>
      </trkpt>
      <trkpt lat="45.31712" lon="4.17235">
        <ele>582.7</ele>
        <time>2024-10-13T08:11:02Z</time>
      </trkpt>
      <trkpt lat="45.3171" lon="4.17234">
        <ele>582.7</ele>
        <time>2024-10-13T08:11:03Z</time>
      </trkpt>
      <trkpt lat="45.31708" lon="4.17234">
        <ele>582.7</ele>
        <time>2024-10-13T08:11:04Z</time>
      </trkpt>
      <trkpt lat="45.31678" lon="4.17227">
        <ele>584.62</ele>
        <time>2024-10-13T08:11:22Z</time>
      </trkpt>
      <trkpt lat="45.31657" lon="4.17227">
        <ele>587.5</ele>
        <time>2024-10-13T08:11:38Z</time>
      </trkpt>
      <trkpt lat="45.31637" lon="4.17223">
        <ele>590.39</ele>
        <time>2024-10-13T08:11:53Z</time>
      </trkpt>
      <trkpt lat="45.31631" lon="4.17222">
        <ele>591.35</ele>
        <time>2024-10-13T08:11:58Z</time>
      </trkpt>
      <trkpt lat="45.31629" lon="4.17223">
        <ele>591.83</ele>
        <time>2024-10-13T08:11:59Z</time>
      </trkpt>
      <trkpt lat="45.31627" lon="4.17223">
        <ele>591.83</ele>
        <time>2024-10-13T08:12:00Z</time>
      </trkpt>
      <trkpt lat="45.31605" lon="4.17216">
        <ele>595.67</ele>
        <time>2024-10-13T08:12:15Z</time>
      </trkpt>
      <trkpt lat="45.31574" lon="4.17213">
        <ele>598.08</ele>
        <time>2024-10-13T08:12:34Z</time>
      </trkpt>
      <trkpt lat="45.31551" lon="4.17204">
        <ele>597.12</ele>
        <time>2024-10-13T08:12:52Z</time>
      </trkpt>
      <trkpt lat="45.31548" lon="4.17204">
        <ele>597.12</ele>
        <time>2024-10-13T08:12:55Z</time>
      </trkpt>
      <trkpt lat="45.31525" lon="4.172">
        <ele>597.6</ele>
        <time>2024-10-13T08:13:09Z</time>
      </trkpt>
      <trkpt lat="45.315" lon="4.17197">
        <ele>597.6</ele>
        <time>2024-10-13T08:13:25Z</time>
      </trkpt>
      <trkpt lat="45.31479" lon="4.17176">
        <ele>598.56</ele>
        <time>2024-10-13T08:13:41Z</time>
      </trkpt>
      <trkpt lat="45.31477" lon="4.17176">
        <ele>599.04</ele>
        <time>2024-10-13T08:13:42Z</time>
      </trkpt>
      <trkpt lat="45.31456" lon="4.17166">
        <ele>603.36</ele>
        <time>2024-10-13T08:13:57Z</time>
      </trkpt>
      <trkpt lat="45.31442" lon="4.17156">
        <ele>607.21</ele>
        <time>2024-10-13T08:14:12Z</time>
      </trkpt>
      <trkpt lat="45.3142" lon="4.17162">
        <ele>610.57</ele>
        <time>2024-10-13T08:14:28Z</time>
      </trkpt>
      <trkpt lat="45.31395" lon="4.17159">
        <ele>614.42</ele>
        <time>2024-10-13T08:14:47Z</time>
      </trkpt>
      <trkpt lat="45.31375" lon="4.17156">
        <ele>618.75</ele>
        <time>2024-10-13T08:15:02Z</time>
      </trkpt>
      <trkpt lat="45.31356" lon="4.17133">
        <ele>620.67</ele>
        <time>2024-10-13T08:15:19Z</time>
      </trkpt>
      <trkpt lat="45.31353" lon="4.17126">
        <ele>619.71</ele>
        <time>2024-10-13T08:15:21Z</time>
      </trkpt>
      <trkpt lat="45.31322" lon="4.1712">
        <ele>614.42</ele>
        <time>2024-10-13T08:15:37Z</time>
      </trkpt>
      <trkpt lat="45.31307" lon="4.17107">
        <ele>610.09</ele>
        <time>2024-10-13T08:15:50Z</time>
      </trkpt>
      <trkpt lat="45.31309" lon="4.17068">
        <ele>607.69</ele>
        <time>2024-10-13T08:16:07Z</time>
      </trkpt>
      <trkpt lat="45.31318" lon="4.17054">
        <ele>608.65</ele>
        <time>2024-10-13T08:16:19Z</time>
      </trkpt>
      <trkpt lat="45.31327" lon="4.17034">
        <ele>609.13</ele>
        <time>2024-10-13T08:16:34Z</time>
      </trkpt>
      <trkpt lat="45.31346" lon="4.1701">
        <ele>611.54</ele>
        <time>2024-10-13T08:16:51Z</time>
      </trkpt>
      <trkpt lat="45.31369" lon="4.1699">
        <ele>613.46</ele>
        <time>2024-10-13T08:17:09Z</time>
      </trkpt>
      <trkpt lat="45.31389" lon="4.16979">
        <ele>617.3</ele>
        <time>2024-10-13T08:17:28Z</time>
      </trkpt>
      <trkpt lat="45.3142" lon="4.16965">
        <ele>616.82</ele>
        <time>2024-10-13T08:17:44Z</time>
      </trkpt>
      <trkpt lat="45.31441" lon="4.1695">
        <ele>616.34</ele>
        <time>2024-10-13T08:17:58Z</time>
      </trkpt>
      <trkpt lat="45.31462" lon="4.16933">
        <ele>616.82</ele>
        <time>2024-10-13T08:18:17Z</time>
      </trkpt>
      <trkpt lat="45.3149" lon="4.16915">
        <ele>620.67</ele>
        <time>2024-10-13T08:18:37Z</time>
      </trkpt>
      <trkpt lat="45.31517" lon="4.16895">
        <ele>619.23</ele>
        <time>2024-10-13T08:18:56Z</time>
      </trkpt>
      <trkpt lat="45.31547" lon="4.1688">
        <ele>612.02</ele>
        <time>2024-10-13T08:19:12Z</time>
      </trkpt>
      <trkpt lat="45.31549" lon="4.16878">
        <ele>611.06</ele>
        <time>2024-10-13T08:19:14Z</time>
      </trkpt>
      <trkpt lat="45.31553" lon="4.16868">
        <ele>609.13</ele>
        <time>2024-10-13T08:19:19Z</time>
      </trkpt>
      <trkpt lat="45.31569" lon="4.16846">
        <ele>605.77</ele>
        <time>2024-10-13T08:19:33Z</time>
      </trkpt>
      <trkpt lat="45.31584" lon="4.16832">
        <ele>601.92</ele>
        <time>2024-10-13T08:19:47Z</time>
      </trkpt>
      <trkpt lat="45.31585" lon="4.16831">
        <ele>601.92</ele>
        <time>2024-10-13T08:19:48Z</time>
      </trkpt>
      <trkpt lat="45.31599" lon="4.16819">
        <ele>598.08</ele>
        <time>2024-10-13T08:20:03Z</time>
      </trkpt>
      <trkpt lat="45.3161" lon="4.16807">
        <ele>595.67</ele>
        <time>2024-10-13T08:20:20Z</time>
      </trkpt>
      <trkpt lat="45.31626" lon="4.16786">
        <ele>595.19</ele>
        <time>2024-10-13T08:20:40Z</time>
      </trkpt>
      <trkpt lat="45.31653" lon="4.16758">
        <ele>594.23</ele>
        <time>2024-10-13T08:21:02Z</time>
      </trkpt>
      <trkpt lat="45.31677" lon="4.16738">
        <ele>595.67</ele>
        <time>2024-10-13T08:21:16Z</time>
      </trkpt>
      <trkpt lat="45.31691" lon="4.16734">
        <ele>595.19</ele>
        <time>2024-10-13T08:21:29Z</time>
      </trkpt>
      <trkpt lat="45.31695" lon="4.16733">
        <ele>593.75</ele>
        <time>2024-10-13T08:21:32Z</time>
      </trkpt>
      <trkpt lat="45.31718" lon="4.16738">
        <ele>588.46</ele>
        <time>2024-10-13T08:21:49Z</time>
      </trkpt>
      <trkpt lat="45.31719" lon="4.16737">
        <ele>588.46</ele>
        <time>2024-10-13T08:21:50Z</time>
      </trkpt>
      <trkpt lat="45.31728" lon="4.16736">
        <ele>587.98</ele>
        <time>2024-10-13T08:21:57Z</time>
      </trkpt>
      <trkpt lat="45.31745" lon="4.16732">
        <ele>585.58</ele>
        <time>2024-10-13T08:22:12Z</time>
      </trkpt>
      <trkpt lat="45.31763" lon="4.16729">
        <ele>586.54</ele>
        <time>2024-10-13T08:22:25Z</time>
      </trkpt>
      <trkpt lat="45.31771" lon="4.16725">
        <ele>587.02</ele>
        <time>2024-10-13T08:22:38Z</time>
      </trkpt>
      <trkpt lat="45.31775" lon="4.16716">
        <ele>587.5</ele>
        <time>2024-10-13T08:22:43Z</time>
      </trkpt>
      <trkpt lat="45.31782" lon="4.1671">
        <ele>587.02</ele>
        <time>2024-10-13T08:22:58Z</time>
      </trkpt>
      <trkpt lat="45.31783" lon="4.1671">
        <ele>584.62</ele>
        <time>2024-10-13T08:23:20Z</time>
      </trkpt>
      <trkpt lat="45.31782" lon="4.16709">
        <ele>583.18</ele>
        <time>2024-10-13T08:23:42Z</time>
      </trkpt>
      <trkpt lat="45.31789" lon="4.167">
        <ele>583.18</ele>
        <time>2024-10-13T08:24:03Z</time>
      </trkpt>
      <trkpt lat="45.31801" lon="4.16681">
        <ele>585.1</ele>
        <time>2024-10-13T08:24:18Z</time>
      </trkpt>
      <trkpt lat="45.31809" lon="4.16681">
        <ele>580.77</ele>
        <time>2024-10-13T08:24:34Z</time>
      </trkpt>
      <trkpt lat="45.31813" lon="4.16686">
        <ele>579.81</ele>
        <time>2024-10-13T08:24:40Z</time>
      </trkpt>
      <trkpt lat="45.31822" lon="4.16703">
        <ele>578.85</ele>
        <time>2024-10-13T08:24:53Z</time>
      </trkpt>
      <trkpt lat="45.31824" lon="4.16704">
        <ele>579.33</ele>
        <time>2024-10-13T08:24:58Z</time>
      </trkpt>
      <trkpt lat="45.31856" lon="4.16701">
        <ele>578.85</ele>
        <time>2024-10-13T08:25:16Z</time>
      </trkpt>
      <trkpt lat="45.31879" lon="4.16711">
        <ele>580.29</ele>
        <time>2024-10-13T08:25:31Z</time>
      </trkpt>
      <trkpt lat="45.31901" lon="4.1673">
        <ele>579.81</ele>
        <time>2024-10-13T08:25:46Z</time>
      </trkpt>
      <trkpt lat="45.31922" lon="4.16754">
        <ele>578.85</ele>
        <time>2024-10-13T08:26:01Z</time>
      </trkpt>
      <trkpt lat="45.31939" lon="4.16766">
        <ele>575.97</ele>
        <time>2024-10-13T08:26:14Z</time>
      </trkpt>
      <trkpt lat="45.31959" lon="4.16783">
        <ele>576.93</ele>
        <time>2024-10-13T08:26:31Z</time>
      </trkpt>
      <trkpt lat="45.31981" lon="4.168">
        <ele>577.41</ele>
        <time>2024-10-13T08:26:48Z</time>
      </trkpt>
      <trkpt lat="45.32003" lon="4.16802">
        <ele>579.33</ele>
        <time>2024-10-13T08:27:03Z</time>
      </trkpt>
      <trkpt lat="45.32026" lon="4.16781">
        <ele>579.33</ele>
        <time>2024-10-13T08:27:20Z</time>
      </trkpt>
      <trkpt lat="45.32049" lon="4.1677">
        <ele>576.45</ele>
        <time>2024-10-13T08:27:38Z</time>
      </trkpt>
      <trkpt lat="45.32073" lon="4.16786">
        <ele>577.41</ele>
        <time>2024-10-13T08:27:54Z</time>
      </trkpt>
      <trkpt lat="45.32096" lon="4.16796">
        <ele>579.81</ele>
        <time>2024-10-13T08:28:11Z</time>
      </trkpt>
      <trkpt lat="45.32118" lon="4.16802">
        <ele>583.66</ele>
        <time>2024-10-13T08:28:27Z</time>
      </trkpt>
      <trkpt lat="45.3214" lon="4.16815">
        <ele>584.14</ele>
        <time>2024-10-13T08:28:43Z</time>
      </trkpt>
      <trkpt lat="45.32145" lon="4.16813">
        <ele>579.81</ele>
        <time>2024-10-13T08:28:46Z</time>
      </trkpt>
      <trkpt lat="45.32151" lon="4.16786">
        <ele>572.6</ele>
        <time>2024-10-13T08:29:00Z</time>
      </trkpt>
      <trkpt lat="45.32165" lon="4.16762">
        <ele>566.83</ele>
        <time>2024-10-13T08:29:15Z</time>
      </trkpt>
      <trkpt lat="45.32176" lon="4.16746">
        <ele>566.35</ele>
        <time>2024-10-13T08:29:26Z</time>
      </trkpt>
      <trkpt lat="45.3219" lon="4.16718">
        <ele>567.32</ele>
        <time>2024-10-13T08:29:42Z</time>
      </trkpt>
      <trkpt lat="45.32213" lon="4.16692">
        <ele>562.03</ele>
        <time>2024-10-13T08:29:58Z</time>
      </trkpt>
      <trkpt lat="45.32232" lon="4.16677">
        <ele>560.11</ele>
        <time>2024-10-13T08:30:12Z</time>
      </trkpt>
      <trkpt lat="45.32232" lon="4.16676">
        <ele>560.11</ele>
        <time>2024-10-13T08:30:13Z</time>
      </trkpt>
      <trkpt lat="45.32233" lon="4.16674">
        <ele>560.11</ele>
        <time>2024-10-13T08:30:14Z</time>
      </trkpt>
      <trkpt lat="45.32234" lon="4.16673">
        <ele>560.11</ele>
        <time>2024-10-13T08:30:15Z</time>
      </trkpt>
      <trkpt lat="45.32234" lon="4.16671">
        <ele>560.11</ele>
        <time>2024-10-13T08:30:16Z</time>
      </trkpt>
      <trkpt lat="45.32235" lon="4.16668">
        <ele>560.11</ele>
        <time>2024-10-13T08:30:17Z</time>
      </trkpt>
      <trkpt lat="45.32235" lon="4.16666">
        <ele>559.62</ele>
        <time>2024-10-13T08:30:18Z</time>
      </trkpt>
      <trkpt lat="45.32236" lon="4.16664">
        <ele>559.62</ele>
        <time>2024-10-13T08:30:19Z</time>
      </trkpt>
      <trkpt lat="45.32236" lon="4.16662">
        <ele>559.62</ele>
        <time>2024-10-13T08:30:20Z</time>
      </trkpt>
      <trkpt lat="45.32253" lon="4.16647">
        <ele>556.74</ele>
        <time>2024-10-13T08:30:34Z</time>
      </trkpt>
      <trkpt lat="45.32256" lon="4.16645">
        <ele>553.86</ele>
        <time>2024-10-13T08:30:50Z</time>
      </trkpt>
      <trkpt lat="45.32262" lon="4.16636">
        <ele>552.9</ele>
        <time>2024-10-13T08:31:04Z</time>
      </trkpt>
      <trkpt lat="45.32263" lon="4.16634">
        <ele>552.9</ele>
        <time>2024-10-13T08:31:05Z</time>
      </trkpt>
      <trkpt lat="45.32275" lon="4.16622">
        <ele>552.9</ele>
        <time>2024-10-13T08:31:16Z</time>
      </trkpt>
      <trkpt lat="45.32278" lon="4.16619">
        <ele>552.9</ele>
        <time>2024-10-13T08:31:19Z</time>
      </trkpt>
      <trkpt lat="45.3228" lon="4.16618">
        <ele>552.9</ele>
        <time>2024-10-13T08:31:20Z</time>
      </trkpt>
      <trkpt lat="45.32282" lon="4.16618">
        <ele>552.9</ele>
        <time>2024-10-13T08:31:21Z</time>
      </trkpt>
      <trkpt lat="45.32283" lon="4.16618">
        <ele>552.9</ele>
        <time>2024-10-13T08:31:22Z</time>
      </trkpt>
      <trkpt lat="45.32285" lon="4.16617">
        <ele>552.41</ele>
        <time>2024-10-13T08:31:23Z</time>
      </trkpt>
      <trkpt lat="45.32293" lon="4.16612">
        <ele>552.9</ele>
        <time>2024-10-13T08:31:30Z</time>
      </trkpt>
      <trkpt lat="45.32306" lon="4.16602">
        <ele>552.41</ele>
        <time>2024-10-13T08:31:42Z</time>
      </trkpt>
      <trkpt lat="45.32328" lon="4.16587">
        <ele>550.97</ele>
        <time>2024-10-13T08:31:58Z</time>
      </trkpt>
      <trkpt lat="45.32351" lon="4.1657">
        <ele>547.13</ele>
        <time>2024-10-13T08:32:13Z</time>
      </trkpt>
      <trkpt lat="45.3237" lon="4.16554">
        <ele>544.24</ele>
        <time>2024-10-13T08:32:29Z</time>
      </trkpt>
      <trkpt lat="45.32389" lon="4.1654">
        <ele>541.36</ele>
        <time>2024-10-13T08:32:45Z</time>
      </trkpt>
      <trkpt lat="45.32406" lon="4.16524">
        <ele>540.4</ele>
        <time>2024-10-13T08:33:01Z</time>
      </trkpt>
      <trkpt lat="45.32421" lon="4.16505">
        <ele>541.84</ele>
        <time>2024-10-13T08:33:19Z</time>
      </trkpt>
      <trkpt lat="45.32439" lon="4.16492">
        <ele>541.84</ele>
        <time>2024-10-13T08:33:30Z</time>
      </trkpt>
      <trkpt lat="45.32441" lon="4.1649">
        <ele>541.84</ele>
        <time>2024-10-13T08:33:31Z</time>
      </trkpt>
      <trkpt lat="45.32443" lon="4.16489">
        <ele>541.36</ele>
        <time>2024-10-13T08:33:32Z</time>
      </trkpt>
      <trkpt lat="45.32461" lon="4.16469">
        <ele>537.51</ele>
        <time>2024-10-13T08:33:45Z</time>
      </trkpt>
      <trkpt lat="45.32462" lon="4.16466">
        <ele>537.03</ele>
        <time>2024-10-13T08:33:48Z</time>
      </trkpt>
      <trkpt lat="45.32466" lon="4.16445">
        <ele>536.07</ele>
        <time>2024-10-13T08:34:01Z</time>
      </trkpt>
      <trkpt lat="45.32466" lon="4.1643">
        <ele>537.03</ele>
        <time>2024-10-13T08:34:15Z</time>
      </trkpt>
      <trkpt lat="45.3247" lon="4.164">
        <ele>537.99</ele>
        <time>2024-10-13T08:34:28Z</time>
      </trkpt>
      <trkpt lat="45.32476" lon="4.16366">
        <ele>536.07</ele>
        <time>2024-10-13T08:34:42Z</time>
      </trkpt>
      <trkpt lat="45.3248" lon="4.16345">
        <ele>535.59</ele>
        <time>2024-10-13T08:34:57Z</time>
      </trkpt>
      <trkpt lat="45.32483" lon="4.16334">
        <ele>537.03</ele>
        <time>2024-10-13T08:35:03Z</time>
      </trkpt>
      <trkpt lat="45.32485" lon="4.16309">
        <ele>538.48</ele>
        <time>2024-10-13T08:35:16Z</time>
      </trkpt>
      <trkpt lat="45.32491" lon="4.16296">
        <ele>531.27</ele>
        <time>2024-10-13T08:35:35Z</time>
      </trkpt>
      <trkpt lat="45.32495" lon="4.16293">
        <ele>526.46</ele>
        <time>2024-10-13T08:35:54Z</time>
      </trkpt>
      <trkpt lat="45.32496" lon="4.16292">
        <ele>525.98</ele>
        <time>2024-10-13T08:35:55Z</time>
      </trkpt>
      <trkpt lat="45.32511" lon="4.16269">
        <ele>521.65</ele>
        <time>2024-10-13T08:36:10Z</time>
      </trkpt>
      <trkpt lat="45.32521" lon="4.16244">
        <ele>517.33</ele>
        <time>2024-10-13T08:36:23Z</time>
      </trkpt>
      <trkpt lat="45.32524" lon="4.16236">
        <ele>517.33</ele>
        <time>2024-10-13T08:36:29Z</time>
      </trkpt>
      <trkpt lat="45.32524" lon="4.16234">
        <ele>517.33</ele>
        <time>2024-10-13T08:36:30Z</time>
      </trkpt>
      <trkpt lat="45.32538" lon="4.16206">
        <ele>515.88</ele>
        <time>2024-10-13T08:36:46Z</time>
      </trkpt>
      <trkpt lat="45.32553" lon="4.16182">
        <ele>515.88</ele>
        <time>2024-10-13T08:37:01Z</time>
      </trkpt>
      <trkpt lat="45.32572" lon="4.16152">
        <ele>511.08</ele>
        <time>2024-10-13T08:37:17Z</time>
      </trkpt>
      <trkpt lat="45.32582" lon="4.16138">
        <ele>506.75</ele>
        <time>2024-10-13T08:37:30Z</time>
      </trkpt>
      <trkpt lat="45.32593" lon="4.16115">
        <ele>506.75</ele>
        <time>2024-10-13T08:37:45Z</time>
      </trkpt>
      <trkpt lat="45.32611" lon="4.16094">
        <ele>503.87</ele>
        <time>2024-10-13T08:37:59Z</time>
      </trkpt>
      <trkpt lat="45.32618" lon="4.1608">
        <ele>502.91</ele>
        <time>2024-10-13T08:38:12Z</time>
      </trkpt>
      <trkpt lat="45.32617" lon="4.16078">
        <ele>502.91</ele>
        <time>2024-10-13T08:38:13Z</time>
      </trkpt>
      <trkpt lat="45.32604" lon="4.16042">
        <ele>502.91</ele>
        <time>2024-10-13T08:38:33Z</time>
      </trkpt>
      <trkpt lat="45.32599" lon="4.16016">
        <ele>499.06</ele>
        <time>2024-10-13T08:38:47Z</time>
      </trkpt>
      <trkpt lat="45.32595" lon="4.15995">
        <ele>497.14</ele>
        <time>2024-10-13T08:38:58Z</time>
      </trkpt>
      <trkpt lat="45.32597" lon="4.15993">
        <ele>496.66</ele>
        <time>2024-10-13T08:38:59Z</time>
      </trkpt>
      <trkpt lat="45.32606" lon="4.15969">
        <ele>494.74</ele>
        <time>2024-10-13T08:39:12Z</time>
      </trkpt>
      <trkpt lat="45.32611" lon="4.15963">
        <ele>490.41</ele>
        <time>2024-10-13T08:39:35Z</time>
      </trkpt>
      <trkpt lat="45.32611" lon="4.15962">
        <ele>490.41</ele>
        <time>2024-10-13T08:39:36Z</time>
      </trkpt>
      <trkpt lat="45.32618" lon="4.15947">
        <ele>489.93</ele>
        <time>2024-10-13T08:39:48Z</time>
      </trkpt>
      <trkpt lat="45.32633" lon="4.15916">
        <ele>482.24</ele>
        <time>2024-10-13T08:40:08Z</time>
      </trkpt>
      <trkpt lat="45.32637" lon="4.15891">
        <ele>478.39</ele>
        <time>2024-10-13T08:40:24Z</time>
      </trkpt>
      <trkpt lat="45.32647" lon="4.15874">
        <ele>473.59</ele>
        <time>2024-10-13T08:40:41Z</time>
      </trkpt>
      <trkpt lat="45.32646" lon="4.15873">
        <ele>472.14</ele>
        <time>2024-10-13T08:40:52Z</time>
      </trkpt>
      <trkpt lat="45.32646" lon="4.15873">
        <ele>471.18</ele>
        <time>2024-10-13T08:41:20Z</time>
      </trkpt>
      <trkpt lat="45.32647" lon="4.15872">
        <ele>471.18</ele>
        <time>2024-10-13T08:41:51Z</time>
      </trkpt>
      <trkpt lat="45.32646" lon="4.15873">
        <ele>472.14</ele>
        <time>2024-10-13T08:42:15Z</time>
      </trkpt>
      <trkpt lat="45.32647" lon="4.15873">
        <ele>470.22</ele>
        <time>2024-10-13T08:42:39Z</time>
      </trkpt>
      <trkpt lat="45.32647" lon="4.15874">
        <ele>471.66</ele>
        <time>2024-10-13T08:42:59Z</time>
      </trkpt>
      <trkpt lat="45.32646" lon="4.15874">
        <ele>471.66</ele>
        <time>2024-10-13T08:43:27Z</time>
      </trkpt>
      <trkpt lat="45.32647" lon="4.15875">
        <ele>472.14</ele>
        <time>2024-10-13T08:43:58Z</time>
      </trkpt>
      <trkpt lat="45.32646" lon="4.15873">
        <ele>472.14</ele>
        <time>2024-10-13T08:44:18Z</time>
      </trkpt>
      <trkpt lat="45.32646" lon="4.15873">
        <ele>471.66</ele>
        <time>2024-10-13T08:44:43Z</time>
      </trkpt>
      <trkpt lat="45.32647" lon="4.15873">
        <ele>471.66</ele>
        <time>2024-10-13T08:45:00Z</time>
      </trkpt>
      <trkpt lat="45.32649" lon="4.15871">
        <ele>470.22</ele>
        <time>2024-10-13T08:45:18Z</time>
      </trkpt>
      <trkpt lat="45.32664" lon="4.15868">
        <ele>469.74</ele>
        <time>2024-10-13T08:45:29Z</time>
      </trkpt>
      <trkpt lat="45.32665" lon="4.15867">
        <ele>469.74</ele>
        <time>2024-10-13T08:45:30Z</time>
      </trkpt>
      <trkpt lat="45.32667" lon="4.15867">
        <ele>469.74</ele>
        <time>2024-10-13T08:45:31Z</time>
      </trkpt>
      <trkpt lat="45.32689" lon="4.15866">
        <ele>468.3</ele>
        <time>2024-10-13T08:45:47Z</time>
      </trkpt>
      <trkpt lat="45.32714" lon="4.1586">
        <ele>464.93</ele>
        <time>2024-10-13T08:46:02Z</time>
      </trkpt>
      <trkpt lat="45.32735" lon="4.1586">
        <ele>464.45</ele>
        <time>2024-10-13T08:46:15Z</time>
      </trkpt>
      <trkpt lat="45.32762" lon="4.15871">
        <ele>459.17</ele>
        <time>2024-10-13T08:46:31Z</time>
      </trkpt>
      <trkpt lat="45.32779" lon="4.15878">
        <ele>455.32</ele>
        <time>2024-10-13T08:46:43Z</time>
      </trkpt>
      <trkpt lat="45.3279" lon="4.15884">
        <ele>454.84</ele>
        <time>2024-10-13T08:46:51Z</time>
      </trkpt>
      <trkpt lat="45.32792" lon="4.15885">
        <ele>455.32</ele>
        <time>2024-10-13T08:46:52Z</time>
      </trkpt>
      <trkpt lat="45.32798" lon="4.15887">
        <ele>456.28</ele>
        <time>2024-10-13T08:46:57Z</time>
      </trkpt>
      <trkpt lat="45.32802" lon="4.15885">
        <ele>456.76</ele>
        <time>2024-10-13T08:47:00Z</time>
      </trkpt>
      <trkpt lat="45.32802" lon="4.15883">
        <ele>456.76</ele>
        <time>2024-10-13T08:47:01Z</time>
      </trkpt>
      <trkpt lat="45.32812" lon="4.1585">
        <ele>455.32</ele>
        <time>2024-10-13T08:47:17Z</time>
      </trkpt>
      <trkpt lat="45.32828" lon="4.15821">
        <ele>455.32</ele>
        <time>2024-10-13T08:47:36Z</time>
      </trkpt>
      <trkpt lat="45.32829" lon="4.1582">
        <ele>455.32</ele>
        <time>2024-10-13T08:47:37Z</time>
      </trkpt>
      <trkpt lat="45.32842" lon="4.15805">
        <ele>452.92</ele>
        <time>2024-10-13T08:47:54Z</time>
      </trkpt>
      <trkpt lat="45.3286" lon="4.15797">
        <ele>452.92</ele>
        <time>2024-10-13T08:48:09Z</time>
      </trkpt>
      <trkpt lat="45.3288" lon="4.15816">
        <ele>451</ele>
        <time>2024-10-13T08:48:22Z</time>
      </trkpt>
      <trkpt lat="45.32892" lon="4.15829">
        <ele>448.11</ele>
        <time>2024-10-13T08:48:33Z</time>
      </trkpt>
      <trkpt lat="45.32901" lon="4.15818">
        <ele>447.63</ele>
        <time>2024-10-13T08:48:40Z</time>
      </trkpt>
      <trkpt lat="45.32913" lon="4.15791">
        <ele>447.63</ele>
        <time>2024-10-13T08:48:57Z</time>
      </trkpt>
      <trkpt lat="45.32911" lon="4.15793">
        <ele>447.63</ele>
        <time>2024-10-13T08:49:04Z</time>
      </trkpt>
      <trkpt lat="45.32905" lon="4.15811">
        <ele>447.63</ele>
        <time>2024-10-13T08:49:13Z</time>
      </trkpt>
      <trkpt lat="45.32894" lon="4.1583">
        <ele>447.63</ele>
        <time>2024-10-13T08:49:24Z</time>
      </trkpt>
      <trkpt lat="45.32873" lon="4.15807">
        <ele>448.59</ele>
        <time>2024-10-13T08:49:40Z</time>
      </trkpt>
      <trkpt lat="45.32857" lon="4.15792">
        <ele>450.52</ele>
        <time>2024-10-13T08:49:56Z</time>
      </trkpt>
      <trkpt lat="45.32853" lon="4.15779">
        <ele>448.59</ele>
        <time>2024-10-13T08:50:02Z</time>
      </trkpt>
      <trkpt lat="45.32849" lon="4.15769">
        <ele>447.15</ele>
        <time>2024-10-13T08:50:07Z</time>
      </trkpt>
      <trkpt lat="45.32843" lon="4.15757">
        <ele>447.15</ele>
        <time>2024-10-13T08:50:14Z</time>
      </trkpt>
      <trkpt lat="45.32834" lon="4.15742">
        <ele>446.19</ele>
        <time>2024-10-13T08:50:22Z</time>
      </trkpt>
      <trkpt lat="45.32827" lon="4.15722">
        <ele>448.11</ele>
        <time>2024-10-13T08:50:34Z</time>
      </trkpt>
      <trkpt lat="45.32826" lon="4.15714">
        <ele>448.59</ele>
        <time>2024-10-13T08:50:38Z</time>
      </trkpt>
      <trkpt lat="45.32826" lon="4.15705">
        <ele>449.07</ele>
        <time>2024-10-13T08:50:43Z</time>
      </trkpt>
      <trkpt lat="45.32825" lon="4.15695">
        <ele>450.03</ele>
        <time>2024-10-13T08:50:47Z</time>
      </trkpt>
      <trkpt lat="45.32828" lon="4.15676">
        <ele>448.59</ele>
        <time>2024-10-13T08:50:55Z</time>
      </trkpt>
      <trkpt lat="45.32831" lon="4.15645">
        <ele>444.27</ele>
        <time>2024-10-13T08:51:10Z</time>
      </trkpt>
      <trkpt lat="45.32834" lon="4.1561">
        <ele>442.34</ele>
        <time>2024-10-13T08:51:26Z</time>
      </trkpt>
      <trkpt lat="45.32846" lon="4.15581">
        <ele>439.94</ele>
        <time>2024-10-13T08:51:42Z</time>
      </trkpt>
      <trkpt lat="45.32865" lon="4.15567">
        <ele>439.94</ele>
        <time>2024-10-13T08:51:57Z</time>
      </trkpt>
      <trkpt lat="45.32872" lon="4.15561">
        <ele>439.94</ele>
        <time>2024-10-13T08:52:10Z</time>
      </trkpt>
      <trkpt lat="45.32873" lon="4.15561">
        <ele>440.42</ele>
        <time>2024-10-13T08:52:15Z</time>
      </trkpt>
      <trkpt lat="45.32892" lon="4.15541">
        <ele>439.46</ele>
        <time>2024-10-13T08:52:32Z</time>
      </trkpt>
      <trkpt lat="45.32909" lon="4.15528">
        <ele>440.9</ele>
        <time>2024-10-13T08:52:45Z</time>
      </trkpt>
      <trkpt lat="45.32932" lon="4.15515">
        <ele>438.98</ele>
        <time>2024-10-13T08:52:58Z</time>
      </trkpt>
      <trkpt lat="45.32948" lon="4.15511">
        <ele>438.02</ele>
        <time>2024-10-13T08:53:13Z</time>
      </trkpt>
      <trkpt lat="45.3295" lon="4.15511">
        <ele>438.02</ele>
        <time>2024-10-13T08:53:21Z</time>
      </trkpt>
      <trkpt lat="45.32951" lon="4.15512">
        <ele>438.02</ele>
        <time>2024-10-13T08:53:22Z</time>
      </trkpt>
      <trkpt lat="45.32971" lon="4.1552">
        <ele>438.5</ele>
        <time>2024-10-13T08:53:36Z</time>
      </trkpt>
      <trkpt lat="45.32988" lon="4.15533">
        <ele>439.46</ele>
        <time>2024-10-13T08:53:50Z</time>
      </trkpt>
      <trkpt lat="45.33004" lon="4.15558">
        <ele>440.9</ele>
        <time>2024-10-13T08:54:07Z</time>
      </trkpt>
      <trkpt lat="45.33004" lon="4.1556">
        <ele>440.42</ele>
        <time>2024-10-13T08:54:08Z</time>
      </trkpt>
      <trkpt lat="45.33005" lon="4.15563">
        <ele>440.42</ele>
        <time>2024-10-13T08:54:09Z</time>
      </trkpt>
      <trkpt lat="45.33005" lon="4.15566">
        <ele>440.42</ele>
        <time>2024-10-13T08:54:11Z</time>
      </trkpt>
      <trkpt lat="45.33004" lon="4.15568">
        <ele>440.42</ele>
        <time>2024-10-13T08:54:12Z</time>
      </trkpt>
      <trkpt lat="45.33003" lon="4.15571">
        <ele>440.42</ele>
        <time>2024-10-13T08:54:13Z</time>
      </trkpt>
      <trkpt lat="45.33002" lon="4.15572">
        <ele>440.42</ele>
        <time>2024-10-13T08:54:14Z</time>
      </trkpt>
      <trkpt lat="45.33002" lon="4.15573">
        <ele>440.42</ele>
        <time>2024-10-13T08:54:15Z</time>
      </trkpt>
      <trkpt lat="45.33001" lon="4.15575">
        <ele>440.42</ele>
        <time>2024-10-13T08:54:16Z</time>
      </trkpt>
      <trkpt lat="45.32993" lon="4.15596">
        <ele>440.9</ele>
        <time>2024-10-13T08:54:28Z</time>
      </trkpt>
      <trkpt lat="45.32998" lon="4.15623">
        <ele>442.34</ele>
        <time>2024-10-13T08:54:41Z</time>
      </trkpt>
      <trkpt lat="45.33003" lon="4.15657">
        <ele>443.31</ele>
        <time>2024-10-13T08:54:56Z</time>
      </trkpt>
      <trkpt lat="45.33005" lon="4.15691">
        <ele>444.27</ele>
        <time>2024-10-13T08:55:08Z</time>
      </trkpt>
      <trkpt lat="45.33003" lon="4.15722">
        <ele>444.75</ele>
        <time>2024-10-13T08:55:21Z</time>
      </trkpt>
      <trkpt lat="45.32998" lon="4.15744">
        <ele>447.15</ele>
        <time>2024-10-13T08:55:32Z</time>
      </trkpt>
      <trkpt lat="45.32997" lon="4.15747">
        <ele>447.15</ele>
        <time>2024-10-13T08:55:33Z</time>
      </trkpt>
      <trkpt lat="45.32996" lon="4.1575">
        <ele>447.63</ele>
        <time>2024-10-13T08:55:34Z</time>
      </trkpt>
      <trkpt lat="45.32996" lon="4.15753">
        <ele>448.11</ele>
        <time>2024-10-13T08:55:35Z</time>
      </trkpt>
      <trkpt lat="45.32996" lon="4.15755">
        <ele>448.11</ele>
        <time>2024-10-13T08:55:36Z</time>
      </trkpt>
      <trkpt lat="45.32995" lon="4.15757">
        <ele>448.59</ele>
        <time>2024-10-13T08:55:37Z</time>
      </trkpt>
      <trkpt lat="45.32995" lon="4.15759">
        <ele>449.07</ele>
        <time>2024-10-13T08:55:38Z</time>
      </trkpt>
      <trkpt lat="45.32989" lon="4.15778">
        <ele>451</ele>
        <time>2024-10-13T08:55:47Z</time>
      </trkpt>
      <trkpt lat="45.32989" lon="4.1578">
        <ele>451</ele>
        <time>2024-10-13T08:55:48Z</time>
      </trkpt>
      <trkpt lat="45.32988" lon="4.15782">
        <ele>451</ele>
        <time>2024-10-13T08:55:49Z</time>
      </trkpt>
      <trkpt lat="45.32977" lon="4.15813">
        <ele>452.44</ele>
        <time>2024-10-13T08:56:04Z</time>
      </trkpt>
      <trkpt lat="45.32967" lon="4.15849">
        <ele>451</ele>
        <time>2024-10-13T08:56:19Z</time>
      </trkpt>
      <trkpt lat="45.32968" lon="4.15887">
        <ele>451</ele>
        <time>2024-10-13T08:56:35Z</time>
      </trkpt>
      <trkpt lat="45.32964" lon="4.15923">
        <ele>451.48</ele>
        <time>2024-10-13T08:56:50Z</time>
      </trkpt>
      <trkpt lat="45.32958" lon="4.15955">
        <ele>453.4</ele>
        <time>2024-10-13T08:57:04Z</time>
      </trkpt>
      <trkpt lat="45.32957" lon="4.15973">
        <ele>454.36</ele>
        <time>2024-10-13T08:57:13Z</time>
      </trkpt>
      <trkpt lat="45.32957" lon="4.15975">
        <ele>454.36</ele>
        <time>2024-10-13T08:57:14Z</time>
      </trkpt>
      <trkpt lat="45.32957" lon="4.15977">
        <ele>454.36</ele>
        <time>2024-10-13T08:57:15Z</time>
      </trkpt>
      <trkpt lat="45.32961" lon="4.1601">
        <ele>459.65</ele>
        <time>2024-10-13T08:57:31Z</time>
      </trkpt>
      <trkpt lat="45.32969" lon="4.16039">
        <ele>461.09</ele>
        <time>2024-10-13T08:57:44Z</time>
      </trkpt>
      <trkpt lat="45.3298" lon="4.1607">
        <ele>463.49</ele>
        <time>2024-10-13T08:57:59Z</time>
      </trkpt>
      <trkpt lat="45.32982" lon="4.16104">
        <ele>464.93</ele>
        <time>2024-10-13T08:58:14Z</time>
      </trkpt>
      <trkpt lat="45.3298" lon="4.16145">
        <ele>466.86</ele>
        <time>2024-10-13T08:58:32Z</time>
      </trkpt>
      <trkpt lat="45.3298" lon="4.16147">
        <ele>466.86</ele>
        <time>2024-10-13T08:58:33Z</time>
      </trkpt>
      <trkpt lat="45.3298" lon="4.16149">
        <ele>466.86</ele>
        <time>2024-10-13T08:58:34Z</time>
      </trkpt>
      <trkpt lat="45.32979" lon="4.16153">
        <ele>467.34</ele>
        <time>2024-10-13T08:58:36Z</time>
      </trkpt>
      <trkpt lat="45.3298" lon="4.16155">
        <ele>467.34</ele>
        <time>2024-10-13T08:58:37Z</time>
      </trkpt>
      <trkpt lat="45.32981" lon="4.16165">
        <ele>467.82</ele>
        <time>2024-10-13T08:58:50Z</time>
      </trkpt>
      <trkpt lat="45.32983" lon="4.16171">
        <ele>468.78</ele>
        <time>2024-10-13T08:59:05Z</time>
      </trkpt>
      <trkpt lat="45.32984" lon="4.16173">
        <ele>469.26</ele>
        <time>2024-10-13T08:59:10Z</time>
      </trkpt>
      <trkpt lat="45.32999" lon="4.16195">
        <ele>471.18</ele>
        <time>2024-10-13T08:59:24Z</time>
      </trkpt>
      <trkpt lat="45.33017" lon="4.16223">
        <ele>473.59</ele>
        <time>2024-10-13T08:59:42Z</time>
      </trkpt>
      <trkpt lat="45.33031" lon="4.16249">
        <ele>475.99</ele>
        <time>2024-10-13T08:59:57Z</time>
      </trkpt>
      <trkpt lat="45.33042" lon="4.1628">
        <ele>478.39</ele>
        <time>2024-10-13T09:00:12Z</time>
      </trkpt>
      <trkpt lat="45.33045" lon="4.16312">
        <ele>480.8</ele>
        <time>2024-10-13T09:00:26Z</time>
      </trkpt>
      <trkpt lat="45.33043" lon="4.16343">
        <ele>482.24</ele>
        <time>2024-10-13T09:00:40Z</time>
      </trkpt>
      <trkpt lat="45.33042" lon="4.16376">
        <ele>485.12</ele>
        <time>2024-10-13T09:00:56Z</time>
      </trkpt>
      <trkpt lat="45.33049" lon="4.16413">
        <ele>487.05</ele>
        <time>2024-10-13T09:01:12Z</time>
      </trkpt>
      <trkpt lat="45.33068" lon="4.16434">
        <ele>488.49</ele>
        <time>2024-10-13T09:01:29Z</time>
      </trkpt>
      <trkpt lat="45.33083" lon="4.16451">
        <ele>491.37</ele>
        <time>2024-10-13T09:01:41Z</time>
      </trkpt>
      <trkpt lat="45.33094" lon="4.16477">
        <ele>492.81</ele>
        <time>2024-10-13T09:01:55Z</time>
      </trkpt>
      <trkpt lat="45.33098" lon="4.16514">
        <ele>494.74</ele>
        <time>2024-10-13T09:02:12Z</time>
      </trkpt>
      <trkpt lat="45.33103" lon="4.16548">
        <ele>498.58</ele>
        <time>2024-10-13T09:02:30Z</time>
      </trkpt>
      <trkpt lat="45.33106" lon="4.16583">
        <ele>503.39</ele>
        <time>2024-10-13T09:02:47Z</time>
      </trkpt>
      <trkpt lat="45.33106" lon="4.16585">
        <ele>503.39</ele>
        <time>2024-10-13T09:02:48Z</time>
      </trkpt>
      <trkpt lat="45.33088" lon="4.16603">
        <ele>507.71</ele>
        <time>2024-10-13T09:03:04Z</time>
      </trkpt>
      <trkpt lat="45.3306" lon="4.16608">
        <ele>513</ele>
        <time>2024-10-13T09:03:23Z</time>
      </trkpt>
      <trkpt lat="45.33034" lon="4.16619">
        <ele>517.33</ele>
        <time>2024-10-13T09:03:41Z</time>
      </trkpt>
      <trkpt lat="45.33006" lon="4.16644">
        <ele>515.4</ele>
        <time>2024-10-13T09:04:00Z</time>
      </trkpt>
      <trkpt lat="45.33007" lon="4.16661">
        <ele>514.92</ele>
        <time>2024-10-13T09:04:10Z</time>
      </trkpt>
      <trkpt lat="45.33018" lon="4.16679">
        <ele>516.37</ele>
        <time>2024-10-13T09:04:25Z</time>
      </trkpt>
      <trkpt lat="45.33018" lon="4.16679">
        <ele>515.88</ele>
        <time>2024-10-13T09:04:50Z</time>
      </trkpt>
      <trkpt lat="45.33037" lon="4.16691">
        <ele>517.81</ele>
        <time>2024-10-13T09:05:05Z</time>
      </trkpt>
      <trkpt lat="45.33056" lon="4.16708">
        <ele>520.69</ele>
        <time>2024-10-13T09:05:20Z</time>
      </trkpt>
      <trkpt lat="45.33078" lon="4.16731">
        <ele>523.09</ele>
        <time>2024-10-13T09:05:38Z</time>
      </trkpt>
      <trkpt lat="45.33081" lon="4.16736">
        <ele>523.09</ele>
        <time>2024-10-13T09:05:42Z</time>
      </trkpt>
      <trkpt lat="45.33082" lon="4.16738">
        <ele>523.58</ele>
        <time>2024-10-13T09:05:43Z</time>
      </trkpt>
      <trkpt lat="45.33083" lon="4.16739">
        <ele>523.58</ele>
        <time>2024-10-13T09:05:44Z</time>
      </trkpt>
      <trkpt lat="45.33084" lon="4.16741">
        <ele>523.58</ele>
        <time>2024-10-13T09:05:46Z</time>
      </trkpt>
      <trkpt lat="45.33087" lon="4.16746">
        <ele>523.58</ele>
        <time>2024-10-13T09:05:49Z</time>
      </trkpt>
      <trkpt lat="45.33087" lon="4.16748">
        <ele>524.06</ele>
        <time>2024-10-13T09:05:50Z</time>
      </trkpt>
      <trkpt lat="45.33087" lon="4.1675">
        <ele>524.06</ele>
        <time>2024-10-13T09:05:51Z</time>
      </trkpt>
      <trkpt lat="45.33087" lon="4.16753">
        <ele>524.06</ele>
        <time>2024-10-13T09:05:52Z</time>
      </trkpt>
      <trkpt lat="45.33087" lon="4.16755">
        <ele>524.06</ele>
        <time>2024-10-13T09:05:53Z</time>
      </trkpt>
      <trkpt lat="45.33087" lon="4.16758">
        <ele>524.06</ele>
        <time>2024-10-13T09:05:54Z</time>
      </trkpt>
      <trkpt lat="45.33086" lon="4.1676">
        <ele>524.06</ele>
        <time>2024-10-13T09:05:55Z</time>
      </trkpt>
      <trkpt lat="45.33085" lon="4.16762">
        <ele>524.06</ele>
        <time>2024-10-13T09:05:56Z</time>
      </trkpt>
      <trkpt lat="45.33084" lon="4.16764">
        <ele>524.06</ele>
        <time>2024-10-13T09:05:57Z</time>
      </trkpt>
      <trkpt lat="45.33083" lon="4.16766">
        <ele>524.54</ele>
        <time>2024-10-13T09:05:58Z</time>
      </trkpt>
      <trkpt lat="45.33082" lon="4.16767">
        <ele>524.54</ele>
        <time>2024-10-13T09:05:59Z</time>
      </trkpt>
      <trkpt lat="45.33081" lon="4.16768">
        <ele>524.54</ele>
        <time>2024-10-13T09:06:00Z</time>
      </trkpt>
      <trkpt lat="45.3308" lon="4.16769">
        <ele>524.54</ele>
        <time>2024-10-13T09:06:01Z</time>
      </trkpt>
      <trkpt lat="45.33078" lon="4.1677">
        <ele>524.54</ele>
        <time>2024-10-13T09:06:02Z</time>
      </trkpt>
      <trkpt lat="45.33077" lon="4.16771">
        <ele>525.02</ele>
        <time>2024-10-13T09:06:03Z</time>
      </trkpt>
      <trkpt lat="45.33062" lon="4.16781">
        <ele>526.94</ele>
        <time>2024-10-13T09:06:18Z</time>
      </trkpt>
      <trkpt lat="45.33031" lon="4.16801">
        <ele>531.27</ele>
        <time>2024-10-13T09:06:37Z</time>
      </trkpt>
      <trkpt lat="45.33018" lon="4.16832">
        <ele>531.75</ele>
        <time>2024-10-13T09:06:53Z</time>
      </trkpt>
      <trkpt lat="45.33021" lon="4.16869">
        <ele>533.67</ele>
        <time>2024-10-13T09:07:11Z</time>
      </trkpt>
      <trkpt lat="45.3302" lon="4.16884">
        <ele>534.63</ele>
        <time>2024-10-13T09:07:26Z</time>
      </trkpt>
      <trkpt lat="45.33016" lon="4.16883">
        <ele>536.07</ele>
        <time>2024-10-13T09:07:37Z</time>
      </trkpt>
      <trkpt lat="45.33004" lon="4.16881">
        <ele>537.03</ele>
        <time>2024-10-13T09:07:54Z</time>
      </trkpt>
      <trkpt lat="45.33005" lon="4.16876">
        <ele>537.51</ele>
        <time>2024-10-13T09:08:12Z</time>
      </trkpt>
      <trkpt lat="45.33006" lon="4.16877">
        <ele>537.03</ele>
        <time>2024-10-13T09:08:40Z</time>
      </trkpt>
      <trkpt lat="45.33007" lon="4.16882">
        <ele>533.19</ele>
        <time>2024-10-13T09:09:12Z</time>
      </trkpt>
      <trkpt lat="45.33006" lon="4.16877">
        <ele>531.75</ele>
        <time>2024-10-13T09:09:39Z</time>
      </trkpt>
      <trkpt lat="45.33005" lon="4.16876">
        <ele>534.63</ele>
        <time>2024-10-13T09:10:00Z</time>
      </trkpt>
      <trkpt lat="45.33004" lon="4.16876">
        <ele>530.79</ele>
        <time>2024-10-13T09:10:14Z</time>
      </trkpt>
      <trkpt lat="45.33005" lon="4.16873">
        <ele>530.3</ele>
        <time>2024-10-13T09:10:33Z</time>
      </trkpt>
      <trkpt lat="45.33006" lon="4.16874">
        <ele>529.34</ele>
        <time>2024-10-13T09:10:50Z</time>
      </trkpt>
      <trkpt lat="45.33006" lon="4.16872">
        <ele>527.9</ele>
        <time>2024-10-13T09:11:12Z</time>
      </trkpt>
      <trkpt lat="45.33005" lon="4.16873">
        <ele>528.38</ele>
        <time>2024-10-13T09:11:29Z</time>
      </trkpt>
      <trkpt lat="45.33004" lon="4.16871">
        <ele>528.86</ele>
        <time>2024-10-13T09:11:52Z</time>
      </trkpt>
      <trkpt lat="45.33005" lon="4.16871">
        <ele>530.3</ele>
        <time>2024-10-13T09:12:16Z</time>
      </trkpt>
      <trkpt lat="45.33004" lon="4.1687">
        <ele>530.79</ele>
        <time>2024-10-13T09:12:36Z</time>
      </trkpt>
      <trkpt lat="45.33007" lon="4.16873">
        <ele>530.3</ele>
        <time>2024-10-13T09:12:54Z</time>
      </trkpt>
      <trkpt lat="45.33009" lon="4.16874">
        <ele>532.23</ele>
        <time>2024-10-13T09:13:15Z</time>
      </trkpt>
      <trkpt lat="45.33007" lon="4.16871">
        <ele>532.71</ele>
        <time>2024-10-13T09:13:28Z</time>
      </trkpt>
      <trkpt lat="45.33008" lon="4.1687">
        <ele>532.71</ele>
        <time>2024-10-13T09:13:45Z</time>
      </trkpt>
      <trkpt lat="45.33007" lon="4.1687">
        <ele>533.67</ele>
        <time>2024-10-13T09:13:57Z</time>
      </trkpt>
      <trkpt lat="45.33005" lon="4.16873">
        <ele>534.63</ele>
        <time>2024-10-13T09:14:12Z</time>
      </trkpt>
      <trkpt lat="45.33006" lon="4.16874">
        <ele>534.63</ele>
        <time>2024-10-13T09:14:27Z</time>
      </trkpt>
      <trkpt lat="45.33007" lon="4.16874">
        <ele>534.15</ele>
        <time>2024-10-13T09:14:50Z</time>
      </trkpt>
      <trkpt lat="45.33007" lon="4.16876">
        <ele>534.15</ele>
        <time>2024-10-13T09:15:07Z</time>
      </trkpt>
      <trkpt lat="45.33007" lon="4.16877">
        <ele>533.67</ele>
        <time>2024-10-13T09:15:29Z</time>
      </trkpt>
      <trkpt lat="45.33008" lon="4.16877">
        <ele>535.59</ele>
        <time>2024-10-13T09:15:47Z</time>
      </trkpt>
      <trkpt lat="45.33008" lon="4.16877">
        <ele>535.11</ele>
        <time>2024-10-13T09:16:11Z</time>
      </trkpt>
      <trkpt lat="45.33008" lon="4.16878">
        <ele>533.19</ele>
        <time>2024-10-13T09:16:41Z</time>
      </trkpt>
      <trkpt lat="45.33007" lon="4.16879">
        <ele>531.75</ele>
        <time>2024-10-13T09:17:07Z</time>
      </trkpt>
      <trkpt lat="45.33007" lon="4.1688">
        <ele>532.71</ele>
        <time>2024-10-13T09:17:32Z</time>
      </trkpt>
      <trkpt lat="45.33008" lon="4.1688">
        <ele>531.27</ele>
        <time>2024-10-13T09:17:52Z</time>
      </trkpt>
      <trkpt lat="45.33008" lon="4.1688">
        <ele>530.3</ele>
        <time>2024-10-13T09:18:09Z</time>
      </trkpt>
      <trkpt lat="45.33009" lon="4.16881">
        <ele>530.3</ele>
        <time>2024-10-13T09:18:43Z</time>
      </trkpt>
      <trkpt lat="45.33008" lon="4.16881">
        <ele>529.82</ele>
        <time>2024-10-13T09:19:09Z</time>
      </trkpt>
      <trkpt lat="45.33008" lon="4.16881">
        <ele>531.27</ele>
        <time>2024-10-13T09:19:29Z</time>
      </trkpt>
      <trkpt lat="45.33008" lon="4.16879">
        <ele>531.27</ele>
        <time>2024-10-13T09:19:55Z</time>
      </trkpt>
      <trkpt lat="45.33008" lon="4.16881">
        <ele>533.19</ele>
        <time>2024-10-13T09:20:11Z</time>
      </trkpt>
      <trkpt lat="45.33005" lon="4.1688">
        <ele>532.71</ele>
        <time>2024-10-13T09:20:37Z</time>
      </trkpt>
      <trkpt lat="45.33003" lon="4.16881">
        <ele>532.23</ele>
        <time>2024-10-13T09:21:02Z</time>
      </trkpt>
      <trkpt lat="45.33003" lon="4.16882">
        <ele>533.19</ele>
        <time>2024-10-13T09:21:16Z</time>
      </trkpt>
      <trkpt lat="45.33005" lon="4.16877">
        <ele>533.19</ele>
        <time>2024-10-13T09:21:35Z</time>
      </trkpt>
      <trkpt lat="45.33005" lon="4.16876">
        <ele>532.71</ele>
        <time>2024-10-13T09:21:37Z</time>
      </trkpt>
      <trkpt lat="45.33008" lon="4.16872">
        <ele>532.71</ele>
        <time>2024-10-13T09:21:52Z</time>
      </trkpt>
      <trkpt lat="45.33007" lon="4.16873">
        <ele>533.19</ele>
        <time>2024-10-13T09:22:06Z</time>
      </trkpt>
      <trkpt lat="45.33009" lon="4.16868">
        <ele>532.71</ele>
        <time>2024-10-13T09:22:29Z</time>
      </trkpt>
      <trkpt lat="45.33009" lon="4.16864">
        <ele>532.71</ele>
        <time>2024-10-13T09:22:32Z</time>
      </trkpt>
      <trkpt lat="45.33009" lon="4.16855">
        <ele>531.75</ele>
        <time>2024-10-13T09:22:47Z</time>
      </trkpt>
      <trkpt lat="45.33006" lon="4.1685">
        <ele>532.23</ele>
        <time>2024-10-13T09:23:01Z</time>
      </trkpt>
      <trkpt lat="45.3301" lon="4.16849">
        <ele>535.11</ele>
        <time>2024-10-13T09:23:25Z</time>
      </trkpt>
      <trkpt lat="45.33007" lon="4.16847">
        <ele>537.51</ele>
        <time>2024-10-13T09:23:50Z</time>
      </trkpt>
      <trkpt lat="45.33007" lon="4.16847">
        <ele>535.59</ele>
        <time>2024-10-13T09:24:09Z</time>
      </trkpt>
      <trkpt lat="45.3301" lon="4.16848">
        <ele>535.59</ele>
        <time>2024-10-13T09:24:20Z</time>
      </trkpt>
      <trkpt lat="45.33009" lon="4.16866">
        <ele>536.55</ele>
        <time>2024-10-13T09:24:36Z</time>
      </trkpt>
      <trkpt lat="45.33008" lon="4.16873">
        <ele>532.71</ele>
        <time>2024-10-13T09:24:56Z</time>
      </trkpt>
      <trkpt lat="45.33006" lon="4.16873">
        <ele>532.71</ele>
        <time>2024-10-13T09:25:12Z</time>
      </trkpt>
      <trkpt lat="45.33009" lon="4.16872">
        <ele>531.27</ele>
        <time>2024-10-13T09:25:26Z</time>
      </trkpt>
      <trkpt lat="45.33008" lon="4.16872">
        <ele>531.27</ele>
        <time>2024-10-13T09:25:47Z</time>
      </trkpt>
      <trkpt lat="45.33008" lon="4.16874">
        <ele>531.75</ele>
        <time>2024-10-13T09:26:05Z</time>
      </trkpt>
      <trkpt lat="45.33007" lon="4.16874">
        <ele>531.75</ele>
        <time>2024-10-13T09:26:21Z</time>
      </trkpt>
      <trkpt lat="45.33007" lon="4.16876">
        <ele>531.75</ele>
        <time>2024-10-13T09:26:37Z</time>
      </trkpt>
      <trkpt lat="45.33006" lon="4.16872">
        <ele>531.75</ele>
        <time>2024-10-13T09:26:49Z</time>
      </trkpt>
      <trkpt lat="45.33006" lon="4.16872">
        <ele>532.71</ele>
        <time>2024-10-13T09:27:06Z</time>
      </trkpt>
      <trkpt lat="45.33006" lon="4.16877">
        <ele>533.19</ele>
        <time>2024-10-13T09:27:19Z</time>
      </trkpt>
      <trkpt lat="45.33002" lon="4.1688">
        <ele>532.23</ele>
        <time>2024-10-13T09:27:37Z</time>
      </trkpt>
      <trkpt lat="45.33005" lon="4.16879">
        <ele>532.71</ele>
        <time>2024-10-13T09:28:07Z</time>
      </trkpt>
      <trkpt lat="45.33006" lon="4.16877">
        <ele>532.71</ele>
        <time>2024-10-13T09:28:25Z</time>
      </trkpt>
      <trkpt lat="45.33007" lon="4.16877">
        <ele>532.71</ele>
        <time>2024-10-13T09:28:27Z</time>
      </trkpt>
      <trkpt lat="45.33021" lon="4.16902">
        <ele>536.07</ele>
        <time>2024-10-13T09:28:41Z</time>
      </trkpt>
      <trkpt lat="45.33018" lon="4.1694">
        <ele>537.99</ele>
        <time>2024-10-13T09:29:00Z</time>
      </trkpt>
      <trkpt lat="45.33017" lon="4.16975">
        <ele>537.99</ele>
        <time>2024-10-13T09:29:14Z</time>
      </trkpt>
      <trkpt lat="45.33017" lon="4.17012">
        <ele>536.55</ele>
        <time>2024-10-13T09:29:30Z</time>
      </trkpt>
      <trkpt lat="45.33017" lon="4.17058">
        <ele>535.11</ele>
        <time>2024-10-13T09:29:50Z</time>
      </trkpt>
      <trkpt lat="45.33009" lon="4.17094">
        <ele>535.59</ele>
        <time>2024-10-13T09:30:08Z</time>
      </trkpt>
      <trkpt lat="45.33" lon="4.17126">
        <ele>534.63</ele>
        <time>2024-10-13T09:30:23Z</time>
      </trkpt>
      <trkpt lat="45.32987" lon="4.17168">
        <ele>535.11</ele>
        <time>2024-10-13T09:30:42Z</time>
      </trkpt>
      <trkpt lat="45.32975" lon="4.17206">
        <ele>536.07</ele>
        <time>2024-10-13T09:31:02Z</time>
      </trkpt>
      <trkpt lat="45.32961" lon="4.17246">
        <ele>536.55</ele>
        <time>2024-10-13T09:31:21Z</time>
      </trkpt>
      <trkpt lat="45.32953" lon="4.17278">
        <ele>536.55</ele>
        <time>2024-10-13T09:31:34Z</time>
      </trkpt>
      <trkpt lat="45.32946" lon="4.17311">
        <ele>537.03</ele>
        <time>2024-10-13T09:31:48Z</time>
      </trkpt>
      <trkpt lat="45.32938" lon="4.17344">
        <ele>537.03</ele>
        <time>2024-10-13T09:32:04Z</time>
      </trkpt>
      <trkpt lat="45.32927" lon="4.17389">
        <ele>536.07</ele>
        <time>2024-10-13T09:32:24Z</time>
      </trkpt>
      <trkpt lat="45.32921" lon="4.17424">
        <ele>536.55</ele>
        <time>2024-10-13T09:32:39Z</time>
      </trkpt>
      <trkpt lat="45.32914" lon="4.17454">
        <ele>535.59</ele>
        <time>2024-10-13T09:32:53Z</time>
      </trkpt>
      <trkpt lat="45.32906" lon="4.17494">
        <ele>535.59</ele>
        <time>2024-10-13T09:33:11Z</time>
      </trkpt>
      <trkpt lat="45.329" lon="4.17527">
        <ele>537.51</ele>
        <time>2024-10-13T09:33:29Z</time>
      </trkpt>
      <trkpt lat="45.32877" lon="4.1755">
        <ele>537.51</ele>
        <time>2024-10-13T09:33:46Z</time>
      </trkpt>
      <trkpt lat="45.32871" lon="4.17579">
        <ele>539.92</ele>
        <time>2024-10-13T09:34:00Z</time>
      </trkpt>
      <trkpt lat="45.32874" lon="4.17617">
        <ele>542.32</ele>
        <time>2024-10-13T09:34:14Z</time>
      </trkpt>
      <trkpt lat="45.32855" lon="4.17639">
        <ele>544.24</ele>
        <time>2024-10-13T09:34:29Z</time>
      </trkpt>
      <trkpt lat="45.32853" lon="4.17639">
        <ele>543.76</ele>
        <time>2024-10-13T09:34:31Z</time>
      </trkpt>
      <trkpt lat="45.32852" lon="4.17641">
        <ele>544.24</ele>
        <time>2024-10-13T09:34:32Z</time>
      </trkpt>
      <trkpt lat="45.32852" lon="4.17642">
        <ele>544.24</ele>
        <time>2024-10-13T09:34:33Z</time>
      </trkpt>
      <trkpt lat="45.32852" lon="4.17643">
        <ele>544.24</ele>
        <time>2024-10-13T09:34:34Z</time>
      </trkpt>
      <trkpt lat="45.32851" lon="4.17644">
        <ele>544.24</ele>
        <time>2024-10-13T09:34:35Z</time>
      </trkpt>
      <trkpt lat="45.32851" lon="4.17646">
        <ele>544.24</ele>
        <time>2024-10-13T09:34:36Z</time>
      </trkpt>
      <trkpt lat="45.32852" lon="4.17648">
        <ele>544.72</ele>
        <time>2024-10-13T09:34:37Z</time>
      </trkpt>
      <trkpt lat="45.32847" lon="4.17678">
        <ele>550.49</ele>
        <time>2024-10-13T09:34:53Z</time>
      </trkpt>
      <trkpt lat="45.32825" lon="4.1771">
        <ele>555.78</ele>
        <time>2024-10-13T09:35:14Z</time>
      </trkpt>
      <trkpt lat="45.32813" lon="4.17745">
        <ele>560.11</ele>
        <time>2024-10-13T09:35:33Z</time>
      </trkpt>
      <trkpt lat="45.32793" lon="4.17773">
        <ele>563.47</ele>
        <time>2024-10-13T09:35:56Z</time>
      </trkpt>
      <trkpt lat="45.32788" lon="4.17776">
        <ele>563.95</ele>
        <time>2024-10-13T09:35:59Z</time>
      </trkpt>
      <trkpt lat="45.32786" lon="4.17777">
        <ele>562.99</ele>
        <time>2024-10-13T09:36:00Z</time>
      </trkpt>
      <trkpt lat="45.32784" lon="4.17779">
        <ele>562.99</ele>
        <time>2024-10-13T09:36:01Z</time>
      </trkpt>
      <trkpt lat="45.32782" lon="4.1778">
        <ele>562.99</ele>
        <time>2024-10-13T09:36:02Z</time>
      </trkpt>
      <trkpt lat="45.32779" lon="4.17781">
        <ele>562.03</ele>
        <time>2024-10-13T09:36:04Z</time>
      </trkpt>
      <trkpt lat="45.32769" lon="4.17796">
        <ele>557.7</ele>
        <time>2024-10-13T09:36:14Z</time>
      </trkpt>
      <trkpt lat="45.32768" lon="4.17798">
        <ele>557.22</ele>
        <time>2024-10-13T09:36:15Z</time>
      </trkpt>
      <trkpt lat="45.32768" lon="4.17801">
        <ele>556.74</ele>
        <time>2024-10-13T09:36:16Z</time>
      </trkpt>
      <trkpt lat="45.32767" lon="4.17803">
        <ele>555.78</ele>
        <time>2024-10-13T09:36:17Z</time>
      </trkpt>
      <trkpt lat="45.32766" lon="4.17805">
        <ele>555.3</ele>
        <time>2024-10-13T09:36:18Z</time>
      </trkpt>
      <trkpt lat="45.32765" lon="4.17807">
        <ele>555.3</ele>
        <time>2024-10-13T09:36:19Z</time>
      </trkpt>
      <trkpt lat="45.32764" lon="4.17808">
        <ele>555.3</ele>
        <time>2024-10-13T09:36:20Z</time>
      </trkpt>
      <trkpt lat="45.32749" lon="4.17832">
        <ele>555.3</ele>
        <time>2024-10-13T09:36:36Z</time>
      </trkpt>
      <trkpt lat="45.3274" lon="4.17856">
        <ele>558.66</ele>
        <time>2024-10-13T09:36:49Z</time>
      </trkpt>
      <trkpt lat="45.32739" lon="4.17859">
        <ele>559.62</ele>
        <time>2024-10-13T09:36:51Z</time>
      </trkpt>
      <trkpt lat="45.32738" lon="4.17861">
        <ele>559.14</ele>
        <time>2024-10-13T09:36:52Z</time>
      </trkpt>
      <trkpt lat="45.32735" lon="4.17874">
        <ele>560.59</ele>
        <time>2024-10-13T09:36:59Z</time>
      </trkpt>
      <trkpt lat="45.32734" lon="4.17876">
        <ele>560.59</ele>
        <time>2024-10-13T09:37:00Z</time>
      </trkpt>
      <trkpt lat="45.32721" lon="4.17906">
        <ele>562.03</ele>
        <time>2024-10-13T09:37:16Z</time>
      </trkpt>
      <trkpt lat="45.32716" lon="4.17937">
        <ele>562.03</ele>
        <time>2024-10-13T09:37:33Z</time>
      </trkpt>
      <trkpt lat="45.32709" lon="4.17965">
        <ele>562.51</ele>
        <time>2024-10-13T09:37:46Z</time>
      </trkpt>
      <trkpt lat="45.32695" lon="4.1799">
        <ele>562.03</ele>
        <time>2024-10-13T09:38:01Z</time>
      </trkpt>
      <trkpt lat="45.32687" lon="4.17998">
        <ele>562.03</ele>
        <time>2024-10-13T09:38:06Z</time>
      </trkpt>
      <trkpt lat="45.32677" lon="4.18008">
        <ele>561.55</ele>
        <time>2024-10-13T09:38:14Z</time>
      </trkpt>
      <trkpt lat="45.32675" lon="4.18009">
        <ele>562.03</ele>
        <time>2024-10-13T09:38:15Z</time>
      </trkpt>
      <trkpt lat="45.32674" lon="4.18011">
        <ele>562.51</ele>
        <time>2024-10-13T09:38:16Z</time>
      </trkpt>
      <trkpt lat="45.32674" lon="4.18012">
        <ele>562.99</ele>
        <time>2024-10-13T09:38:17Z</time>
      </trkpt>
      <trkpt lat="45.32672" lon="4.18017">
        <ele>564.43</ele>
        <time>2024-10-13T09:38:21Z</time>
      </trkpt>
      <trkpt lat="45.32672" lon="4.18019">
        <ele>564.91</ele>
        <time>2024-10-13T09:38:22Z</time>
      </trkpt>
      <trkpt lat="45.32671" lon="4.18021">
        <ele>564.91</ele>
        <time>2024-10-13T09:38:23Z</time>
      </trkpt>
      <trkpt lat="45.32671" lon="4.18023">
        <ele>565.39</ele>
        <time>2024-10-13T09:38:24Z</time>
      </trkpt>
      <trkpt lat="45.32671" lon="4.18025">
        <ele>565.39</ele>
        <time>2024-10-13T09:38:25Z</time>
      </trkpt>
      <trkpt lat="45.32671" lon="4.18027">
        <ele>565.87</ele>
        <time>2024-10-13T09:38:26Z</time>
      </trkpt>
      <trkpt lat="45.32666" lon="4.1806">
        <ele>568.28</ele>
        <time>2024-10-13T09:38:42Z</time>
      </trkpt>
      <trkpt lat="45.32666" lon="4.18061">
        <ele>568.76</ele>
        <time>2024-10-13T09:38:43Z</time>
      </trkpt>
      <trkpt lat="45.32652" lon="4.18093">
        <ele>565.87</ele>
        <time>2024-10-13T09:39:00Z</time>
      </trkpt>
      <trkpt lat="45.32642" lon="4.1811">
        <ele>563.47</ele>
        <time>2024-10-13T09:39:13Z</time>
      </trkpt>
      <trkpt lat="45.32636" lon="4.18117">
        <ele>563.47</ele>
        <time>2024-10-13T09:39:25Z</time>
      </trkpt>
      <trkpt lat="45.3263" lon="4.1815">
        <ele>564.91</ele>
        <time>2024-10-13T09:39:40Z</time>
      </trkpt>
      <trkpt lat="45.32615" lon="4.18178">
        <ele>565.87</ele>
        <time>2024-10-13T09:39:56Z</time>
      </trkpt>
      <trkpt lat="45.32592" lon="4.18189">
        <ele>564.91</ele>
        <time>2024-10-13T09:40:09Z</time>
      </trkpt>
      <trkpt lat="45.3256" lon="4.18193">
        <ele>563.95</ele>
        <time>2024-10-13T09:40:29Z</time>
      </trkpt>
      <trkpt lat="45.32539" lon="4.18201">
        <ele>564.43</ele>
        <time>2024-10-13T09:40:43Z</time>
      </trkpt>
      <trkpt lat="45.32523" lon="4.18225">
        <ele>565.39</ele>
        <time>2024-10-13T09:41:01Z</time>
      </trkpt>
      <trkpt lat="45.32517" lon="4.18259">
        <ele>567.32</ele>
        <time>2024-10-13T09:41:18Z</time>
      </trkpt>
      <trkpt lat="45.32514" lon="4.18288">
        <ele>568.76</ele>
        <time>2024-10-13T09:41:30Z</time>
      </trkpt>
      <trkpt lat="45.32513" lon="4.1829">
        <ele>569.24</ele>
        <time>2024-10-13T09:41:31Z</time>
      </trkpt>
      <trkpt lat="45.32513" lon="4.18292">
        <ele>569.24</ele>
        <time>2024-10-13T09:41:32Z</time>
      </trkpt>
      <trkpt lat="45.32512" lon="4.18293">
        <ele>569.72</ele>
        <time>2024-10-13T09:41:33Z</time>
      </trkpt>
      <trkpt lat="45.32512" lon="4.18296">
        <ele>569.72</ele>
        <time>2024-10-13T09:41:34Z</time>
      </trkpt>
      <trkpt lat="45.32512" lon="4.18297">
        <ele>570.2</ele>
        <time>2024-10-13T09:41:35Z</time>
      </trkpt>
      <trkpt lat="45.32511" lon="4.18308">
        <ele>572.12</ele>
        <time>2024-10-13T09:41:41Z</time>
      </trkpt>
      <trkpt lat="45.32512" lon="4.18311">
        <ele>572.6</ele>
        <time>2024-10-13T09:41:42Z</time>
      </trkpt>
      <trkpt lat="45.32512" lon="4.18313">
        <ele>573.08</ele>
        <time>2024-10-13T09:41:43Z</time>
      </trkpt>
      <trkpt lat="45.32513" lon="4.18315">
        <ele>574.04</ele>
        <time>2024-10-13T09:41:44Z</time>
      </trkpt>
      <trkpt lat="45.32513" lon="4.18317">
        <ele>574.53</ele>
        <time>2024-10-13T09:41:45Z</time>
      </trkpt>
      <trkpt lat="45.32513" lon="4.18319">
        <ele>575.01</ele>
        <time>2024-10-13T09:41:46Z</time>
      </trkpt>
      <trkpt lat="45.32499" lon="4.18355">
        <ele>579.81</ele>
        <time>2024-10-13T09:42:05Z</time>
      </trkpt>
      <trkpt lat="45.32481" lon="4.1837">
        <ele>578.37</ele>
        <time>2024-10-13T09:42:18Z</time>
      </trkpt>
      <trkpt lat="45.32461" lon="4.18385">
        <ele>576.45</ele>
        <time>2024-10-13T09:42:32Z</time>
      </trkpt>
      <trkpt lat="45.32444" lon="4.18407">
        <ele>575.97</ele>
        <time>2024-10-13T09:42:46Z</time>
      </trkpt>
      <trkpt lat="45.32439" lon="4.1842">
        <ele>572.6</ele>
        <time>2024-10-13T09:42:57Z</time>
      </trkpt>
      <trkpt lat="45.32439" lon="4.18422">
        <ele>574.04</ele>
        <time>2024-10-13T09:43:11Z</time>
      </trkpt>
      <trkpt lat="45.32434" lon="4.18418">
        <ele>572.6</ele>
        <time>2024-10-13T09:43:16Z</time>
      </trkpt>
      <trkpt lat="45.32434" lon="4.18416">
        <ele>572.6</ele>
        <time>2024-10-13T09:43:18Z</time>
      </trkpt>
      <trkpt lat="45.32445" lon="4.18392">
        <ele>570.2</ele>
        <time>2024-10-13T09:43:32Z</time>
      </trkpt>
      <trkpt lat="45.32456" lon="4.18383">
        <ele>570.2</ele>
        <time>2024-10-13T09:43:40Z</time>
      </trkpt>
      <trkpt lat="45.32457" lon="4.18381">
        <ele>570.2</ele>
        <time>2024-10-13T09:43:41Z</time>
      </trkpt>
      <trkpt lat="45.32458" lon="4.1838">
        <ele>570.2</ele>
        <time>2024-10-13T09:43:42Z</time>
      </trkpt>
      <trkpt lat="45.32475" lon="4.18366">
        <ele>572.12</ele>
        <time>2024-10-13T09:43:56Z</time>
      </trkpt>
      <trkpt lat="45.32496" lon="4.18346">
        <ele>574.04</ele>
        <time>2024-10-13T09:44:08Z</time>
      </trkpt>
      <trkpt lat="45.32517" lon="4.1835">
        <ele>576.93</ele>
        <time>2024-10-13T09:44:23Z</time>
      </trkpt>
      <trkpt lat="45.32508" lon="4.18374">
        <ele>581.25</ele>
        <time>2024-10-13T09:44:35Z</time>
      </trkpt>
      <trkpt lat="45.32508" lon="4.18377">
        <ele>581.25</ele>
        <time>2024-10-13T09:44:37Z</time>
      </trkpt>
      <trkpt lat="45.32512" lon="4.18398">
        <ele>584.14</ele>
        <time>2024-10-13T09:44:50Z</time>
      </trkpt>
      <trkpt lat="45.32514" lon="4.18399">
        <ele>585.1</ele>
        <time>2024-10-13T09:44:52Z</time>
      </trkpt>
      <trkpt lat="45.32516" lon="4.184">
        <ele>585.1</ele>
        <time>2024-10-13T09:44:53Z</time>
      </trkpt>
      <trkpt lat="45.32525" lon="4.18406">
        <ele>586.54</ele>
        <time>2024-10-13T09:45:00Z</time>
      </trkpt>
      <trkpt lat="45.32526" lon="4.18407">
        <ele>586.54</ele>
        <time>2024-10-13T09:45:01Z</time>
      </trkpt>
      <trkpt lat="45.32526" lon="4.18408">
        <ele>586.54</ele>
        <time>2024-10-13T09:45:02Z</time>
      </trkpt>
      <trkpt lat="45.32528" lon="4.18409">
        <ele>587.02</ele>
        <time>2024-10-13T09:45:03Z</time>
      </trkpt>
      <trkpt lat="45.32529" lon="4.18409">
        <ele>587.02</ele>
        <time>2024-10-13T09:45:04Z</time>
      </trkpt>
      <trkpt lat="45.32541" lon="4.1843">
        <ele>586.54</ele>
        <time>2024-10-13T09:45:16Z</time>
      </trkpt>
      <trkpt lat="45.32551" lon="4.18458">
        <ele>584.14</ele>
        <time>2024-10-13T09:45:31Z</time>
      </trkpt>
      <trkpt lat="45.32566" lon="4.18482">
        <ele>585.58</ele>
        <time>2024-10-13T09:45:45Z</time>
      </trkpt>
      <trkpt lat="45.32576" lon="4.18507">
        <ele>585.1</ele>
        <time>2024-10-13T09:45:58Z</time>
      </trkpt>
      <trkpt lat="45.32593" lon="4.1853">
        <ele>588.46</ele>
        <time>2024-10-13T09:46:13Z</time>
      </trkpt>
      <trkpt lat="45.32601" lon="4.1855">
        <ele>588.95</ele>
        <time>2024-10-13T09:46:25Z</time>
      </trkpt>
      <trkpt lat="45.32602" lon="4.18551">
        <ele>588.95</ele>
        <time>2024-10-13T09:46:26Z</time>
      </trkpt>
      <trkpt lat="45.32604" lon="4.18553">
        <ele>588.95</ele>
        <time>2024-10-13T09:46:27Z</time>
      </trkpt>
      <trkpt lat="45.32604" lon="4.18555">
        <ele>588.95</ele>
        <time>2024-10-13T09:46:28Z</time>
      </trkpt>
      <trkpt lat="45.32605" lon="4.18556">
        <ele>588.95</ele>
        <time>2024-10-13T09:46:29Z</time>
      </trkpt>
      <trkpt lat="45.32607" lon="4.18558">
        <ele>589.43</ele>
        <time>2024-10-13T09:46:30Z</time>
      </trkpt>
      <trkpt lat="45.32613" lon="4.18566">
        <ele>590.39</ele>
        <time>2024-10-13T09:46:37Z</time>
      </trkpt>
      <trkpt lat="45.32614" lon="4.18567">
        <ele>590.39</ele>
        <time>2024-10-13T09:46:38Z</time>
      </trkpt>
      <trkpt lat="45.32615" lon="4.18569">
        <ele>590.87</ele>
        <time>2024-10-13T09:46:39Z</time>
      </trkpt>
      <trkpt lat="45.32616" lon="4.1857">
        <ele>591.35</ele>
        <time>2024-10-13T09:46:40Z</time>
      </trkpt>
      <trkpt lat="45.32617" lon="4.18571">
        <ele>591.35</ele>
        <time>2024-10-13T09:46:41Z</time>
      </trkpt>
      <trkpt lat="45.32618" lon="4.18572">
        <ele>591.35</ele>
        <time>2024-10-13T09:46:42Z</time>
      </trkpt>
      <trkpt lat="45.32619" lon="4.18574">
        <ele>591.83</ele>
        <time>2024-10-13T09:46:43Z</time>
      </trkpt>
      <trkpt lat="45.32635" lon="4.18602">
        <ele>592.31</ele>
        <time>2024-10-13T09:46:57Z</time>
      </trkpt>
      <trkpt lat="45.32651" lon="4.186">
        <ele>593.27</ele>
        <time>2024-10-13T09:47:08Z</time>
      </trkpt>
      <trkpt lat="45.32673" lon="4.18606">
        <ele>595.19</ele>
        <time>2024-10-13T09:47:24Z</time>
      </trkpt>
      <trkpt lat="45.32674" lon="4.18605">
        <ele>595.19</ele>
        <time>2024-10-13T09:47:25Z</time>
      </trkpt>
      <trkpt lat="45.32676" lon="4.18605">
        <ele>595.67</ele>
        <time>2024-10-13T09:47:26Z</time>
      </trkpt>
      <trkpt lat="45.32696" lon="4.18609">
        <ele>599.04</ele>
        <time>2024-10-13T09:47:41Z</time>
      </trkpt>
      <trkpt lat="45.32716" lon="4.18623">
        <ele>600.96</ele>
        <time>2024-10-13T09:47:55Z</time>
      </trkpt>
      <trkpt lat="45.32727" lon="4.18649">
        <ele>600.48</ele>
        <time>2024-10-13T09:48:08Z</time>
      </trkpt>
      <trkpt lat="45.32728" lon="4.18658">
        <ele>600.96</ele>
        <time>2024-10-13T09:48:12Z</time>
      </trkpt>
      <trkpt lat="45.32729" lon="4.18659">
        <ele>600.96</ele>
        <time>2024-10-13T09:48:13Z</time>
      </trkpt>
      <trkpt lat="45.3273" lon="4.18661">
        <ele>601.44</ele>
        <time>2024-10-13T09:48:14Z</time>
      </trkpt>
      <trkpt lat="45.32735" lon="4.18682">
        <ele>604.33</ele>
        <time>2024-10-13T09:48:25Z</time>
      </trkpt>
      <trkpt lat="45.32735" lon="4.18688">
        <ele>604.33</ele>
        <time>2024-10-13T09:48:28Z</time>
      </trkpt>
      <trkpt lat="45.32734" lon="4.1869">
        <ele>604.33</ele>
        <time>2024-10-13T09:48:29Z</time>
      </trkpt>
      <trkpt lat="45.32734" lon="4.18692">
        <ele>604.33</ele>
        <time>2024-10-13T09:48:30Z</time>
      </trkpt>
      <trkpt lat="45.32735" lon="4.18694">
        <ele>604.81</ele>
        <time>2024-10-13T09:48:31Z</time>
      </trkpt>
      <trkpt lat="45.32735" lon="4.18697">
        <ele>604.81</ele>
        <time>2024-10-13T09:48:32Z</time>
      </trkpt>
      <trkpt lat="45.32737" lon="4.18702">
        <ele>606.25</ele>
        <time>2024-10-13T09:48:36Z</time>
      </trkpt>
      <trkpt lat="45.32738" lon="4.18704">
        <ele>606.73</ele>
        <time>2024-10-13T09:48:37Z</time>
      </trkpt>
      <trkpt lat="45.32741" lon="4.18719">
        <ele>614.42</ele>
        <time>2024-10-13T09:48:47Z</time>
      </trkpt>
      <trkpt lat="45.32742" lon="4.18721">
        <ele>615.38</ele>
        <time>2024-10-13T09:48:48Z</time>
      </trkpt>
      <trkpt lat="45.32742" lon="4.18723">
        <ele>615.86</ele>
        <time>2024-10-13T09:48:49Z</time>
      </trkpt>
      <trkpt lat="45.32743" lon="4.1873">
        <ele>621.63</ele>
        <time>2024-10-13T09:49:03Z</time>
      </trkpt>
      <trkpt lat="45.32744" lon="4.18735">
        <ele>622.11</ele>
        <time>2024-10-13T09:49:21Z</time>
      </trkpt>
      <trkpt lat="45.32741" lon="4.18744">
        <ele>621.15</ele>
        <time>2024-10-13T09:49:33Z</time>
      </trkpt>
      <trkpt lat="45.32742" lon="4.18746">
        <ele>621.63</ele>
        <time>2024-10-13T09:49:34Z</time>
      </trkpt>
      <trkpt lat="45.32742" lon="4.18748">
        <ele>622.11</ele>
        <time>2024-10-13T09:49:36Z</time>
      </trkpt>
      <trkpt lat="45.32743" lon="4.1875">
        <ele>622.11</ele>
        <time>2024-10-13T09:49:37Z</time>
      </trkpt>
      <trkpt lat="45.32744" lon="4.18767">
        <ele>624.03</ele>
        <time>2024-10-13T09:49:46Z</time>
      </trkpt>
      <trkpt lat="45.32741" lon="4.18781">
        <ele>625.96</ele>
        <time>2024-10-13T09:49:53Z</time>
      </trkpt>
      <trkpt lat="45.32741" lon="4.18783">
        <ele>626.44</ele>
        <time>2024-10-13T09:49:54Z</time>
      </trkpt>
      <trkpt lat="45.32741" lon="4.18785">
        <ele>626.92</ele>
        <time>2024-10-13T09:49:55Z</time>
      </trkpt>
      <trkpt lat="45.32741" lon="4.18787">
        <ele>627.4</ele>
        <time>2024-10-13T09:49:56Z</time>
      </trkpt>
      <trkpt lat="45.32741" lon="4.18794">
        <ele>630.28</ele>
        <time>2024-10-13T09:50:00Z</time>
      </trkpt>
      <trkpt lat="45.3274" lon="4.18811">
        <ele>637.01</ele>
        <time>2024-10-13T09:50:12Z</time>
      </trkpt>
      <trkpt lat="45.32739" lon="4.18814">
        <ele>638.93</ele>
        <time>2024-10-13T09:50:15Z</time>
      </trkpt>
      <trkpt lat="45.32741" lon="4.18832">
        <ele>647.59</ele>
        <time>2024-10-13T09:50:26Z</time>
      </trkpt>
      <trkpt lat="45.32742" lon="4.18868">
        <ele>649.03</ele>
        <time>2024-10-13T09:50:38Z</time>
      </trkpt>
      <trkpt lat="45.32739" lon="4.1888">
        <ele>649.99</ele>
        <time>2024-10-13T09:50:45Z</time>
      </trkpt>
      <trkpt lat="45.3274" lon="4.189">
        <ele>650.47</ele>
        <time>2024-10-13T09:50:54Z</time>
      </trkpt>
      <trkpt lat="45.32738" lon="4.18929">
        <ele>650.47</ele>
        <time>2024-10-13T09:51:07Z</time>
      </trkpt>
      <trkpt lat="45.32738" lon="4.18932">
        <ele>650.47</ele>
        <time>2024-10-13T09:51:08Z</time>
      </trkpt>
      <trkpt lat="45.32739" lon="4.18934">
        <ele>650.47</ele>
        <time>2024-10-13T09:51:09Z</time>
      </trkpt>
      <trkpt lat="45.32739" lon="4.18936">
        <ele>650.47</ele>
        <time>2024-10-13T09:51:10Z</time>
      </trkpt>
      <trkpt lat="45.3274" lon="4.18938">
        <ele>650.95</ele>
        <time>2024-10-13T09:51:11Z</time>
      </trkpt>
      <trkpt lat="45.3274" lon="4.18941">
        <ele>650.95</ele>
        <time>2024-10-13T09:51:12Z</time>
      </trkpt>
      <trkpt lat="45.3274" lon="4.18945">
        <ele>649.99</ele>
        <time>2024-10-13T09:51:14Z</time>
      </trkpt>
      <trkpt lat="45.3274" lon="4.18948">
        <ele>649.51</ele>
        <time>2024-10-13T09:51:15Z</time>
      </trkpt>
      <trkpt lat="45.3274" lon="4.1895">
        <ele>649.03</ele>
        <time>2024-10-13T09:51:16Z</time>
      </trkpt>
      <trkpt lat="45.3274" lon="4.18952">
        <ele>648.55</ele>
        <time>2024-10-13T09:51:17Z</time>
      </trkpt>
      <trkpt lat="45.32739" lon="4.18955">
        <ele>648.55</ele>
        <time>2024-10-13T09:51:18Z</time>
      </trkpt>
      <trkpt lat="45.32739" lon="4.18957">
        <ele>647.59</ele>
        <time>2024-10-13T09:51:19Z</time>
      </trkpt>
      <trkpt lat="45.32739" lon="4.18959">
        <ele>647.1</ele>
        <time>2024-10-13T09:51:20Z</time>
      </trkpt>
      <trkpt lat="45.32739" lon="4.18961">
        <ele>646.62</ele>
        <time>2024-10-13T09:51:21Z</time>
      </trkpt>
      <trkpt lat="45.32739" lon="4.18964">
        <ele>646.62</ele>
        <time>2024-10-13T09:51:22Z</time>
      </trkpt>
      <trkpt lat="45.32739" lon="4.18967">
        <ele>646.14</ele>
        <time>2024-10-13T09:51:23Z</time>
      </trkpt>
      <trkpt lat="45.32739" lon="4.18969">
        <ele>645.66</ele>
        <time>2024-10-13T09:51:24Z</time>
      </trkpt>
      <trkpt lat="45.32737" lon="4.19006">
        <ele>639.89</ele>
        <time>2024-10-13T09:51:39Z</time>
      </trkpt>
      <trkpt lat="45.32737" lon="4.1904">
        <ele>636.05</ele>
        <time>2024-10-13T09:51:54Z</time>
      </trkpt>
      <trkpt lat="45.32737" lon="4.19042">
        <ele>635.57</ele>
        <time>2024-10-13T09:51:55Z</time>
      </trkpt>
      <trkpt lat="45.32736" lon="4.19078">
        <ele>632.2</ele>
        <time>2024-10-13T09:52:10Z</time>
      </trkpt>
      <trkpt lat="45.32733" lon="4.1911">
        <ele>630.28</ele>
        <time>2024-10-13T09:52:24Z</time>
      </trkpt>
      <trkpt lat="45.3273" lon="4.19146">
        <ele>632.68</ele>
        <time>2024-10-13T09:52:40Z</time>
      </trkpt>
      <trkpt lat="45.32728" lon="4.19161">
        <ele>632.68</ele>
        <time>2024-10-13T09:52:46Z</time>
      </trkpt>
      <trkpt lat="45.32728" lon="4.19163">
        <ele>632.68</ele>
        <time>2024-10-13T09:52:47Z</time>
      </trkpt>
      <trkpt lat="45.32728" lon="4.19166">
        <ele>632.68</ele>
        <time>2024-10-13T09:52:48Z</time>
      </trkpt>
      <trkpt lat="45.32728" lon="4.19168">
        <ele>632.2</ele>
        <time>2024-10-13T09:52:49Z</time>
      </trkpt>
      <trkpt lat="45.32727" lon="4.19171">
        <ele>632.2</ele>
        <time>2024-10-13T09:52:50Z</time>
      </trkpt>
      <trkpt lat="45.32715" lon="4.19201">
        <ele>629.32</ele>
        <time>2024-10-13T09:53:05Z</time>
      </trkpt>
      <trkpt lat="45.32715" lon="4.19204">
        <ele>629.32</ele>
        <time>2024-10-13T09:53:06Z</time>
      </trkpt>
      <trkpt lat="45.32714" lon="4.19206">
        <ele>628.84</ele>
        <time>2024-10-13T09:53:07Z</time>
      </trkpt>
      <trkpt lat="45.32714" lon="4.19209">
        <ele>628.84</ele>
        <time>2024-10-13T09:53:08Z</time>
      </trkpt>
      <trkpt lat="45.32714" lon="4.19212">
        <ele>628.36</ele>
        <time>2024-10-13T09:53:09Z</time>
      </trkpt>
      <trkpt lat="45.32708" lon="4.19246">
        <ele>627.88</ele>
        <time>2024-10-13T09:53:22Z</time>
      </trkpt>
      <trkpt lat="45.32709" lon="4.19258">
        <ele>628.36</ele>
        <time>2024-10-13T09:53:27Z</time>
      </trkpt>
      <trkpt lat="45.32709" lon="4.1926">
        <ele>628.36</ele>
        <time>2024-10-13T09:53:28Z</time>
      </trkpt>
      <trkpt lat="45.32708" lon="4.19263">
        <ele>628.36</ele>
        <time>2024-10-13T09:53:29Z</time>
      </trkpt>
      <trkpt lat="45.32708" lon="4.19265">
        <ele>628.36</ele>
        <time>2024-10-13T09:53:30Z</time>
      </trkpt>
      <trkpt lat="45.32708" lon="4.19267">
        <ele>627.88</ele>
        <time>2024-10-13T09:53:31Z</time>
      </trkpt>
      <trkpt lat="45.32707" lon="4.19294">
        <ele>627.4</ele>
        <time>2024-10-13T09:53:44Z</time>
      </trkpt>
      <trkpt lat="45.32707" lon="4.19296">
        <ele>627.4</ele>
        <time>2024-10-13T09:53:45Z</time>
      </trkpt>
      <trkpt lat="45.32707" lon="4.19299">
        <ele>627.4</ele>
        <time>2024-10-13T09:53:46Z</time>
      </trkpt>
      <trkpt lat="45.32707" lon="4.19301">
        <ele>627.4</ele>
        <time>2024-10-13T09:53:47Z</time>
      </trkpt>
      <trkpt lat="45.32708" lon="4.19303">
        <ele>627.4</ele>
        <time>2024-10-13T09:53:48Z</time>
      </trkpt>
      <trkpt lat="45.32707" lon="4.19334">
        <ele>627.88</ele>
        <time>2024-10-13T09:54:02Z</time>
      </trkpt>
      <trkpt lat="45.32704" lon="4.19369">
        <ele>625.47</ele>
        <time>2024-10-13T09:54:15Z</time>
      </trkpt>
      <trkpt lat="45.32702" lon="4.19399">
        <ele>627.4</ele>
        <time>2024-10-13T09:54:28Z</time>
      </trkpt>
      <trkpt lat="45.32702" lon="4.19402">
        <ele>627.88</ele>
        <time>2024-10-13T09:54:29Z</time>
      </trkpt>
      <trkpt lat="45.32701" lon="4.19439">
        <ele>630.28</ele>
        <time>2024-10-13T09:54:45Z</time>
      </trkpt>
      <trkpt lat="45.327" lon="4.19475">
        <ele>631.72</ele>
        <time>2024-10-13T09:55:00Z</time>
      </trkpt>
      <trkpt lat="45.32697" lon="4.1951">
        <ele>633.17</ele>
        <time>2024-10-13T09:55:15Z</time>
      </trkpt>
      <trkpt lat="45.32695" lon="4.19536">
        <ele>633.65</ele>
        <time>2024-10-13T09:55:27Z</time>
      </trkpt>
      <trkpt lat="45.32693" lon="4.19569">
        <ele>636.53</ele>
        <time>2024-10-13T09:55:42Z</time>
      </trkpt>
      <trkpt lat="45.32692" lon="4.19613">
        <ele>637.49</ele>
        <time>2024-10-13T09:56:04Z</time>
      </trkpt>
      <trkpt lat="45.32694" lon="4.19639">
        <ele>637.97</ele>
        <time>2024-10-13T09:56:19Z</time>
      </trkpt>
      <trkpt lat="45.32693" lon="4.1964">
        <ele>637.97</ele>
        <time>2024-10-13T09:56:20Z</time>
      </trkpt>
      <trkpt lat="45.32691" lon="4.1964">
        <ele>637.97</ele>
        <time>2024-10-13T09:56:21Z</time>
      </trkpt>
      <trkpt lat="45.32685" lon="4.19637">
        <ele>637.01</ele>
        <time>2024-10-13T09:56:26Z</time>
      </trkpt>
      <trkpt lat="45.32684" lon="4.19638">
        <ele>636.53</ele>
        <time>2024-10-13T09:56:27Z</time>
      </trkpt>
      <trkpt lat="45.32683" lon="4.19639">
        <ele>636.53</ele>
        <time>2024-10-13T09:56:28Z</time>
      </trkpt>
      <trkpt lat="45.32682" lon="4.19639">
        <ele>636.05</ele>
        <time>2024-10-13T09:56:29Z</time>
      </trkpt>
      <trkpt lat="45.3268" lon="4.1964">
        <ele>636.05</ele>
        <time>2024-10-13T09:56:30Z</time>
      </trkpt>
      <trkpt lat="45.32679" lon="4.19641">
        <ele>635.57</ele>
        <time>2024-10-13T09:56:31Z</time>
      </trkpt>
      <trkpt lat="45.32678" lon="4.19642">
        <ele>635.57</ele>
        <time>2024-10-13T09:56:32Z</time>
      </trkpt>
      <trkpt lat="45.32677" lon="4.19643">
        <ele>635.57</ele>
        <time>2024-10-13T09:56:33Z</time>
      </trkpt>
      <trkpt lat="45.32676" lon="4.19645">
        <ele>635.57</ele>
        <time>2024-10-13T09:56:34Z</time>
      </trkpt>
      <trkpt lat="45.32675" lon="4.19647">
        <ele>635.57</ele>
        <time>2024-10-13T09:56:35Z</time>
      </trkpt>
      <trkpt lat="45.32662" lon="4.19677">
        <ele>635.09</ele>
        <time>2024-10-13T09:56:50Z</time>
      </trkpt>
      <trkpt lat="45.32649" lon="4.19713">
        <ele>633.65</ele>
        <time>2024-10-13T09:57:09Z</time>
      </trkpt>
      <trkpt lat="45.32644" lon="4.19745">
        <ele>632.68</ele>
        <time>2024-10-13T09:57:24Z</time>
      </trkpt>
      <trkpt lat="45.3265" lon="4.19779">
        <ele>632.68</ele>
        <time>2024-10-13T09:57:41Z</time>
      </trkpt>
      <trkpt lat="45.32654" lon="4.19803">
        <ele>632.68</ele>
        <time>2024-10-13T09:57:54Z</time>
      </trkpt>
      <trkpt lat="45.3265" lon="4.19825">
        <ele>634.61</ele>
        <time>2024-10-13T09:58:08Z</time>
      </trkpt>
      <trkpt lat="45.32649" lon="4.19839">
        <ele>635.57</ele>
        <time>2024-10-13T09:58:15Z</time>
      </trkpt>
      <trkpt lat="45.32641" lon="4.1987">
        <ele>638.45</ele>
        <time>2024-10-13T09:58:30Z</time>
      </trkpt>
      <trkpt lat="45.32641" lon="4.19894">
        <ele>641.82</ele>
        <time>2024-10-13T09:58:45Z</time>
      </trkpt>
      <trkpt lat="45.32636" lon="4.19918">
        <ele>645.18</ele>
        <time>2024-10-13T09:58:58Z</time>
      </trkpt>
      <trkpt lat="45.32631" lon="4.1994">
        <ele>649.99</ele>
        <time>2024-10-13T09:59:14Z</time>
      </trkpt>
      <trkpt lat="45.32633" lon="4.19956">
        <ele>653.83</ele>
        <time>2024-10-13T09:59:21Z</time>
      </trkpt>
      <trkpt lat="45.32635" lon="4.1998">
        <ele>661.52</ele>
        <time>2024-10-13T09:59:37Z</time>
      </trkpt>
      <trkpt lat="45.3263" lon="4.20001">
        <ele>670.66</ele>
        <time>2024-10-13T09:59:53Z</time>
      </trkpt>
      <trkpt lat="45.32629" lon="4.20013">
        <ele>675.94</ele>
        <time>2024-10-13T09:59:59Z</time>
      </trkpt>
      <trkpt lat="45.32628" lon="4.20044">
        <ele>688.44</ele>
        <time>2024-10-13T10:00:16Z</time>
      </trkpt>
      <trkpt lat="45.32628" lon="4.2007">
        <ele>699.5</ele>
        <time>2024-10-13T10:00:34Z</time>
      </trkpt>
      <trkpt lat="45.32632" lon="4.20101">
        <ele>708.63</ele>
        <time>2024-10-13T10:00:51Z</time>
      </trkpt>
      <trkpt lat="45.32633" lon="4.20103">
        <ele>709.11</ele>
        <time>2024-10-13T10:00:52Z</time>
      </trkpt>
      <trkpt lat="45.32644" lon="4.2014">
        <ele>721.61</ele>
        <time>2024-10-13T10:01:10Z</time>
      </trkpt>
      <trkpt lat="45.32641" lon="4.20162">
        <ele>724.97</ele>
        <time>2024-10-13T10:01:24Z</time>
      </trkpt>
      <trkpt lat="45.32643" lon="4.20176">
        <ele>727.37</ele>
        <time>2024-10-13T10:01:40Z</time>
      </trkpt>
      <trkpt lat="45.32638" lon="4.20193">
        <ele>721.13</ele>
        <time>2024-10-13T10:02:04Z</time>
      </trkpt>
      <trkpt lat="45.32642" lon="4.20193">
        <ele>710.55</ele>
        <time>2024-10-13T10:02:20Z</time>
      </trkpt>
      <trkpt lat="45.32641" lon="4.20202">
        <ele>686.04</ele>
        <time>2024-10-13T10:02:41Z</time>
      </trkpt>
      <trkpt lat="45.32647" lon="4.20205">
        <ele>684.12</ele>
        <time>2024-10-13T10:02:59Z</time>
      </trkpt>
      <trkpt lat="45.32642" lon="4.20208">
        <ele>682.19</ele>
        <time>2024-10-13T10:03:18Z</time>
      </trkpt>
      <trkpt lat="45.32634" lon="4.20166">
        <ele>676.42</ele>
        <time>2024-10-13T10:03:46Z</time>
      </trkpt>
      <trkpt lat="45.32635" lon="4.20178">
        <ele>670.18</ele>
        <time>2024-10-13T10:04:14Z</time>
      </trkpt>
      <trkpt lat="45.32653" lon="4.20206">
        <ele>671.14</ele>
        <time>2024-10-13T10:04:37Z</time>
      </trkpt>
      <trkpt lat="45.32653" lon="4.20202">
        <ele>672.58</ele>
        <time>2024-10-13T10:05:07Z</time>
      </trkpt>
      <trkpt lat="45.32657" lon="4.20199">
        <ele>672.58</ele>
        <time>2024-10-13T10:05:25Z</time>
      </trkpt>
      <trkpt lat="45.3265" lon="4.20211">
        <ele>673.06</ele>
        <time>2024-10-13T10:05:50Z</time>
      </trkpt>
      <trkpt lat="45.32653" lon="4.20206">
        <ele>671.62</ele>
        <time>2024-10-13T10:06:22Z</time>
      </trkpt>
      <trkpt lat="45.32657" lon="4.20211">
        <ele>672.58</ele>
        <time>2024-10-13T10:06:40Z</time>
      </trkpt>
      <trkpt lat="45.32648" lon="4.20209">
        <ele>673.06</ele>
        <time>2024-10-13T10:06:58Z</time>
      </trkpt>
      <trkpt lat="45.32642" lon="4.20204">
        <ele>668.73</ele>
        <time>2024-10-13T10:07:34Z</time>
      </trkpt>
      <trkpt lat="45.32645" lon="4.20205">
        <ele>675.46</ele>
        <time>2024-10-13T10:08:15Z</time>
      </trkpt>
      <trkpt lat="45.32633" lon="4.20204">
        <ele>671.14</ele>
        <time>2024-10-13T10:08:36Z</time>
      </trkpt>
      <trkpt lat="45.32624" lon="4.20205">
        <ele>677.39</ele>
        <time>2024-10-13T10:09:16Z</time>
      </trkpt>
      <trkpt lat="45.32627" lon="4.20202">
        <ele>688.92</ele>
        <time>2024-10-13T10:09:45Z</time>
      </trkpt>
      <trkpt lat="45.32634" lon="4.20213">
        <ele>683.63</ele>
        <time>2024-10-13T10:10:15Z</time>
      </trkpt>
      <trkpt lat="45.32634" lon="4.20206">
        <ele>681.71</ele>
        <time>2024-10-13T10:10:38Z</time>
      </trkpt>
      <trkpt lat="45.32634" lon="4.20209">
        <ele>677.39</ele>
        <time>2024-10-13T10:10:55Z</time>
      </trkpt>
      <trkpt lat="45.32643" lon="4.2021">
        <ele>676.91</ele>
        <time>2024-10-13T10:11:09Z</time>
      </trkpt>
      <trkpt lat="45.3264" lon="4.20214">
        <ele>680.27</ele>
        <time>2024-10-13T10:11:32Z</time>
      </trkpt>
      <trkpt lat="45.32635" lon="4.20206">
        <ele>683.15</ele>
        <time>2024-10-13T10:11:45Z</time>
      </trkpt>
      <trkpt lat="45.32637" lon="4.20203">
        <ele>681.23</ele>
        <time>2024-10-13T10:12:02Z</time>
      </trkpt>
      <trkpt lat="45.32637" lon="4.20203">
        <ele>681.71</ele>
        <time>2024-10-13T10:12:09Z</time>
      </trkpt>
      <trkpt lat="45.32642" lon="4.20206">
        <ele>680.75</ele>
        <time>2024-10-13T10:12:23Z</time>
      </trkpt>
      <trkpt lat="45.32645" lon="4.20209">
        <ele>681.23</ele>
        <time>2024-10-13T10:12:36Z</time>
      </trkpt>
      <trkpt lat="45.32645" lon="4.20213">
        <ele>681.71</ele>
        <time>2024-10-13T10:12:53Z</time>
      </trkpt>
      <trkpt lat="45.3265" lon="4.20217">
        <ele>679.31</ele>
        <time>2024-10-13T10:13:09Z</time>
      </trkpt>
      <trkpt lat="45.32648" lon="4.20214">
        <ele>678.35</ele>
        <time>2024-10-13T10:13:25Z</time>
      </trkpt>
      <trkpt lat="45.32636" lon="4.20193">
        <ele>674.5</ele>
        <time>2024-10-13T10:13:46Z</time>
      </trkpt>
      <trkpt lat="45.32639" lon="4.20198">
        <ele>676.91</ele>
        <time>2024-10-13T10:14:01Z</time>
      </trkpt>
      <trkpt lat="45.3264" lon="4.202">
        <ele>677.87</ele>
        <time>2024-10-13T10:14:19Z</time>
      </trkpt>
      <trkpt lat="45.32645" lon="4.20211">
        <ele>675.94</ele>
        <time>2024-10-13T10:14:39Z</time>
      </trkpt>
      <trkpt lat="45.32647" lon="4.20217">
        <ele>676.91</ele>
        <time>2024-10-13T10:15:00Z</time>
      </trkpt>
      <trkpt lat="45.32641" lon="4.20211">
        <ele>679.31</ele>
        <time>2024-10-13T10:15:17Z</time>
      </trkpt>
      <trkpt lat="45.3264" lon="4.20214">
        <ele>678.83</ele>
        <time>2024-10-13T10:15:22Z</time>
      </trkpt>
      <trkpt lat="45.32645" lon="4.20218">
        <ele>677.87</ele>
        <time>2024-10-13T10:15:34Z</time>
      </trkpt>
      <trkpt lat="45.32645" lon="4.20218">
        <ele>676.91</ele>
        <time>2024-10-13T10:16:00Z</time>
      </trkpt>
      <trkpt lat="45.32638" lon="4.20217">
        <ele>674.02</ele>
        <time>2024-10-13T10:16:13Z</time>
      </trkpt>
      <trkpt lat="45.32643" lon="4.20217">
        <ele>670.18</ele>
        <time>2024-10-13T10:16:26Z</time>
      </trkpt>
      <trkpt lat="45.32638" lon="4.20219">
        <ele>673.54</ele>
        <time>2024-10-13T10:16:47Z</time>
      </trkpt>
      <trkpt lat="45.32634" lon="4.20206">
        <ele>669.7</ele>
        <time>2024-10-13T10:17:03Z</time>
      </trkpt>
      <trkpt lat="45.32636" lon="4.202">
        <ele>674.98</ele>
        <time>2024-10-13T10:17:21Z</time>
      </trkpt>
      <trkpt lat="45.32637" lon="4.20206">
        <ele>675.46</ele>
        <time>2024-10-13T10:17:32Z</time>
      </trkpt>
      <trkpt lat="45.32681" lon="4.20158">
        <ele>657.68</ele>
        <time>2024-10-13T12:03:00Z</time>
      </trkpt>
      <trkpt lat="45.32662" lon="4.20167">
        <ele>668.25</ele>
        <time>2024-10-13T12:03:11Z</time>
      </trkpt>
      <trkpt lat="45.32649" lon="4.20181">
        <ele>674.98</ele>
        <time>2024-10-13T12:03:34Z</time>
      </trkpt>
      <trkpt lat="45.32642" lon="4.20176">
        <ele>677.87</ele>
        <time>2024-10-13T12:03:54Z</time>
      </trkpt>
      <trkpt lat="45.32628" lon="4.2019">
        <ele>681.71</ele>
        <time>2024-10-13T12:04:16Z</time>
      </trkpt>
      <trkpt lat="45.32625" lon="4.20196">
        <ele>682.67</ele>
        <time>2024-10-13T12:04:38Z</time>
      </trkpt>
      <trkpt lat="45.32623" lon="4.20203">
        <ele>681.23</ele>
        <time>2024-10-13T12:05:13Z</time>
      </trkpt>
      <trkpt lat="45.32615" lon="4.20219">
        <ele>688.44</ele>
        <time>2024-10-13T12:05:30Z</time>
      </trkpt>
      <trkpt lat="45.32597" lon="4.20229">
        <ele>684.12</ele>
        <time>2024-10-13T12:05:46Z</time>
      </trkpt>
      <trkpt lat="45.32583" lon="4.20248">
        <ele>681.71</ele>
        <time>2024-10-13T12:06:04Z</time>
      </trkpt>
      <trkpt lat="45.32569" lon="4.20268">
        <ele>676.91</ele>
        <time>2024-10-13T12:06:21Z</time>
      </trkpt>
      <trkpt lat="45.32549" lon="4.20292">
        <ele>673.06</ele>
        <time>2024-10-13T12:06:43Z</time>
      </trkpt>
      <trkpt lat="45.32527" lon="4.20314">
        <ele>672.1</ele>
        <time>2024-10-13T12:07:03Z</time>
      </trkpt>
      <trkpt lat="45.32524" lon="4.20317">
        <ele>672.1</ele>
        <time>2024-10-13T12:07:06Z</time>
      </trkpt>
      <trkpt lat="45.32515" lon="4.20325">
        <ele>668.73</ele>
        <time>2024-10-13T12:07:22Z</time>
      </trkpt>
      <trkpt lat="45.32514" lon="4.20325">
        <ele>664.41</ele>
        <time>2024-10-13T12:07:51Z</time>
      </trkpt>
      <trkpt lat="45.32505" lon="4.20327">
        <ele>667.77</ele>
        <time>2024-10-13T12:08:07Z</time>
      </trkpt>
      <trkpt lat="45.32497" lon="4.2034">
        <ele>671.14</ele>
        <time>2024-10-13T12:08:18Z</time>
      </trkpt>
      <trkpt lat="45.32471" lon="4.20363">
        <ele>669.22</ele>
        <time>2024-10-13T12:08:39Z</time>
      </trkpt>
      <trkpt lat="45.32448" lon="4.2038">
        <ele>669.7</ele>
        <time>2024-10-13T12:08:56Z</time>
      </trkpt>
      <trkpt lat="45.32428" lon="4.20411">
        <ele>669.7</ele>
        <time>2024-10-13T12:09:18Z</time>
      </trkpt>
      <trkpt lat="45.32421" lon="4.20419">
        <ele>669.22</ele>
        <time>2024-10-13T12:09:32Z</time>
      </trkpt>
      <trkpt lat="45.32414" lon="4.2043">
        <ele>673.06</ele>
        <time>2024-10-13T12:09:59Z</time>
      </trkpt>
      <trkpt lat="45.32403" lon="4.20438">
        <ele>674.5</ele>
        <time>2024-10-13T12:10:14Z</time>
      </trkpt>
      <trkpt lat="45.324" lon="4.20445">
        <ele>672.58</ele>
        <time>2024-10-13T12:10:35Z</time>
      </trkpt>
      <trkpt lat="45.32379" lon="4.20465">
        <ele>670.18</ele>
        <time>2024-10-13T12:10:54Z</time>
      </trkpt>
      <trkpt lat="45.32365" lon="4.20482">
        <ele>668.73</ele>
        <time>2024-10-13T12:11:09Z</time>
      </trkpt>
      <trkpt lat="45.32352" lon="4.20492">
        <ele>671.14</ele>
        <time>2024-10-13T12:11:24Z</time>
      </trkpt>
      <trkpt lat="45.32333" lon="4.20521">
        <ele>669.7</ele>
        <time>2024-10-13T12:11:41Z</time>
      </trkpt>
      <trkpt lat="45.32317" lon="4.20546">
        <ele>667.29</ele>
        <time>2024-10-13T12:11:57Z</time>
      </trkpt>
      <trkpt lat="45.32309" lon="4.20561">
        <ele>665.37</ele>
        <time>2024-10-13T12:12:05Z</time>
      </trkpt>
      <trkpt lat="45.323" lon="4.20577">
        <ele>664.41</ele>
        <time>2024-10-13T12:12:14Z</time>
      </trkpt>
      <trkpt lat="45.32296" lon="4.20583">
        <ele>663.45</ele>
        <time>2024-10-13T12:12:18Z</time>
      </trkpt>
      <trkpt lat="45.32278" lon="4.20611">
        <ele>660.56</ele>
        <time>2024-10-13T12:12:37Z</time>
      </trkpt>
      <trkpt lat="45.32273" lon="4.20617">
        <ele>658.64</ele>
        <time>2024-10-13T12:12:42Z</time>
      </trkpt>
      <trkpt lat="45.32259" lon="4.20649">
        <ele>657.2</ele>
        <time>2024-10-13T12:12:58Z</time>
      </trkpt>
      <trkpt lat="45.32246" lon="4.20671">
        <ele>654.8</ele>
        <time>2024-10-13T12:13:14Z</time>
      </trkpt>
      <trkpt lat="45.32232" lon="4.20696">
        <ele>654.8</ele>
        <time>2024-10-13T12:13:29Z</time>
      </trkpt>
      <trkpt lat="45.32222" lon="4.20723">
        <ele>650.95</ele>
        <time>2024-10-13T12:13:45Z</time>
      </trkpt>
      <trkpt lat="45.32212" lon="4.20756">
        <ele>645.66</ele>
        <time>2024-10-13T12:14:04Z</time>
      </trkpt>
      <trkpt lat="45.32202" lon="4.20774">
        <ele>649.03</ele>
        <time>2024-10-13T12:14:12Z</time>
      </trkpt>
      <trkpt lat="45.32182" lon="4.20791">
        <ele>653.83</ele>
        <time>2024-10-13T12:14:26Z</time>
      </trkpt>
      <trkpt lat="45.32164" lon="4.20817">
        <ele>660.08</ele>
        <time>2024-10-13T12:14:45Z</time>
      </trkpt>
      <trkpt lat="45.32153" lon="4.20834">
        <ele>663.93</ele>
        <time>2024-10-13T12:15:02Z</time>
      </trkpt>
      <trkpt lat="45.32151" lon="4.20825">
        <ele>668.25</ele>
        <time>2024-10-13T12:15:14Z</time>
      </trkpt>
      <trkpt lat="45.32158" lon="4.2085">
        <ele>672.58</ele>
        <time>2024-10-13T12:15:32Z</time>
      </trkpt>
      <trkpt lat="45.3217" lon="4.20867">
        <ele>674.02</ele>
        <time>2024-10-13T12:15:48Z</time>
      </trkpt>
      <trkpt lat="45.32187" lon="4.20881">
        <ele>682.19</ele>
        <time>2024-10-13T12:16:06Z</time>
      </trkpt>
      <trkpt lat="45.32189" lon="4.20887">
        <ele>683.15</ele>
        <time>2024-10-13T12:16:09Z</time>
      </trkpt>
      <trkpt lat="45.32201" lon="4.20924">
        <ele>685.08</ele>
        <time>2024-10-13T12:16:25Z</time>
      </trkpt>
      <trkpt lat="45.32202" lon="4.20928">
        <ele>685.08</ele>
        <time>2024-10-13T12:16:28Z</time>
      </trkpt>
      <trkpt lat="45.32189" lon="4.20966">
        <ele>689.4</ele>
        <time>2024-10-13T12:16:48Z</time>
      </trkpt>
      <trkpt lat="45.32179" lon="4.20995">
        <ele>691.33</ele>
        <time>2024-10-13T12:17:06Z</time>
      </trkpt>
      <trkpt lat="45.32177" lon="4.21007">
        <ele>692.29</ele>
        <time>2024-10-13T12:17:23Z</time>
      </trkpt>
      <trkpt lat="45.32177" lon="4.21006">
        <ele>690.84</ele>
        <time>2024-10-13T12:17:55Z</time>
      </trkpt>
      <trkpt lat="45.32176" lon="4.21005">
        <ele>691.33</ele>
        <time>2024-10-13T12:18:22Z</time>
      </trkpt>
      <trkpt lat="45.32175" lon="4.21013">
        <ele>693.73</ele>
        <time>2024-10-13T12:18:37Z</time>
      </trkpt>
      <trkpt lat="45.32177" lon="4.21017">
        <ele>695.65</ele>
        <time>2024-10-13T12:18:51Z</time>
      </trkpt>
      <trkpt lat="45.32176" lon="4.21018">
        <ele>696.13</ele>
        <time>2024-10-13T12:19:17Z</time>
      </trkpt>
      <trkpt lat="45.32177" lon="4.2102">
        <ele>695.65</ele>
        <time>2024-10-13T12:19:21Z</time>
      </trkpt>
      <trkpt lat="45.32178" lon="4.21022">
        <ele>695.65</ele>
        <time>2024-10-13T12:19:23Z</time>
      </trkpt>
      <trkpt lat="45.32199" lon="4.21038">
        <ele>698.53</ele>
        <time>2024-10-13T12:19:40Z</time>
      </trkpt>
      <trkpt lat="45.32221" lon="4.21058">
        <ele>700.94</ele>
        <time>2024-10-13T12:20:00Z</time>
      </trkpt>
      <trkpt lat="45.32237" lon="4.21087">
        <ele>703.82</ele>
        <time>2024-10-13T12:20:20Z</time>
      </trkpt>
      <trkpt lat="45.32257" lon="4.21115">
        <ele>707.19</ele>
        <time>2024-10-13T12:20:39Z</time>
      </trkpt>
      <trkpt lat="45.32272" lon="4.21141">
        <ele>710.07</ele>
        <time>2024-10-13T12:20:57Z</time>
      </trkpt>
      <trkpt lat="45.32285" lon="4.21163">
        <ele>714.4</ele>
        <time>2024-10-13T12:21:13Z</time>
      </trkpt>
      <trkpt lat="45.32303" lon="4.2119">
        <ele>718.24</ele>
        <time>2024-10-13T12:21:31Z</time>
      </trkpt>
      <trkpt lat="45.32319" lon="4.21215">
        <ele>722.57</ele>
        <time>2024-10-13T12:21:50Z</time>
      </trkpt>
      <trkpt lat="45.32321" lon="4.21249">
        <ele>726.89</ele>
        <time>2024-10-13T12:22:11Z</time>
      </trkpt>
      <trkpt lat="45.32321" lon="4.21258">
        <ele>727.86</ele>
        <time>2024-10-13T12:22:16Z</time>
      </trkpt>
      <trkpt lat="45.32312" lon="4.21288">
        <ele>732.18</ele>
        <time>2024-10-13T12:22:31Z</time>
      </trkpt>
      <trkpt lat="45.32316" lon="4.21319">
        <ele>735.55</ele>
        <time>2024-10-13T12:22:47Z</time>
      </trkpt>
      <trkpt lat="45.32341" lon="4.21329">
        <ele>735.55</ele>
        <time>2024-10-13T12:23:06Z</time>
      </trkpt>
      <trkpt lat="45.32364" lon="4.21327">
        <ele>735.07</ele>
        <time>2024-10-13T12:23:23Z</time>
      </trkpt>
      <trkpt lat="45.32387" lon="4.21316">
        <ele>732.18</ele>
        <time>2024-10-13T12:23:39Z</time>
      </trkpt>
      <trkpt lat="45.3242" lon="4.21299">
        <ele>731.22</ele>
        <time>2024-10-13T12:24:02Z</time>
      </trkpt>
      <trkpt lat="45.32447" lon="4.21304">
        <ele>731.22</ele>
        <time>2024-10-13T12:24:20Z</time>
      </trkpt>
      <trkpt lat="45.32477" lon="4.21315">
        <ele>732.66</ele>
        <time>2024-10-13T12:24:40Z</time>
      </trkpt>
      <trkpt lat="45.32502" lon="4.2132">
        <ele>732.66</ele>
        <time>2024-10-13T12:24:58Z</time>
      </trkpt>
      <trkpt lat="45.32529" lon="4.2133">
        <ele>733.62</ele>
        <time>2024-10-13T12:25:17Z</time>
      </trkpt>
      <trkpt lat="45.32556" lon="4.21335">
        <ele>734.1</ele>
        <time>2024-10-13T12:25:35Z</time>
      </trkpt>
      <trkpt lat="45.32588" lon="4.2134">
        <ele>734.1</ele>
        <time>2024-10-13T12:25:56Z</time>
      </trkpt>
      <trkpt lat="45.3261" lon="4.21341">
        <ele>728.82</ele>
        <time>2024-10-13T12:26:11Z</time>
      </trkpt>
      <trkpt lat="45.32634" lon="4.21352">
        <ele>724.01</ele>
        <time>2024-10-13T12:26:27Z</time>
      </trkpt>
      <trkpt lat="45.32658" lon="4.21382">
        <ele>723.05</ele>
        <time>2024-10-13T12:26:46Z</time>
      </trkpt>
      <trkpt lat="45.32681" lon="4.21403">
        <ele>722.09</ele>
        <time>2024-10-13T12:27:04Z</time>
      </trkpt>
      <trkpt lat="45.32702" lon="4.2142">
        <ele>722.09</ele>
        <time>2024-10-13T12:27:17Z</time>
      </trkpt>
      <trkpt lat="45.32731" lon="4.21422">
        <ele>723.05</ele>
        <time>2024-10-13T12:27:35Z</time>
      </trkpt>
      <trkpt lat="45.32759" lon="4.2143">
        <ele>722.57</ele>
        <time>2024-10-13T12:27:54Z</time>
      </trkpt>
      <trkpt lat="45.32787" lon="4.21437">
        <ele>722.57</ele>
        <time>2024-10-13T12:28:11Z</time>
      </trkpt>
      <trkpt lat="45.32818" lon="4.21444">
        <ele>720.65</ele>
        <time>2024-10-13T12:28:31Z</time>
      </trkpt>
      <trkpt lat="45.3284" lon="4.21458">
        <ele>719.68</ele>
        <time>2024-10-13T12:28:49Z</time>
      </trkpt>
      <trkpt lat="45.32842" lon="4.21458">
        <ele>719.68</ele>
        <time>2024-10-13T12:28:50Z</time>
      </trkpt>
      <trkpt lat="45.32843" lon="4.21459">
        <ele>719.68</ele>
        <time>2024-10-13T12:28:51Z</time>
      </trkpt>
      <trkpt lat="45.3285" lon="4.21463">
        <ele>720.65</ele>
        <time>2024-10-13T12:29:04Z</time>
      </trkpt>
      <trkpt lat="45.32863" lon="4.21469">
        <ele>720.65</ele>
        <time>2024-10-13T12:29:15Z</time>
      </trkpt>
      <trkpt lat="45.3289" lon="4.21474">
        <ele>722.57</ele>
        <time>2024-10-13T12:29:31Z</time>
      </trkpt>
      <trkpt lat="45.32902" lon="4.21474">
        <ele>723.05</ele>
        <time>2024-10-13T12:29:43Z</time>
      </trkpt>
      <trkpt lat="45.32927" lon="4.21474">
        <ele>723.05</ele>
        <time>2024-10-13T12:29:59Z</time>
      </trkpt>
      <trkpt lat="45.32958" lon="4.21473">
        <ele>724.97</ele>
        <time>2024-10-13T12:30:19Z</time>
      </trkpt>
      <trkpt lat="45.32988" lon="4.21478">
        <ele>726.41</ele>
        <time>2024-10-13T12:30:38Z</time>
      </trkpt>
      <trkpt lat="45.33013" lon="4.21487">
        <ele>729.3</ele>
        <time>2024-10-13T12:30:55Z</time>
      </trkpt>
      <trkpt lat="45.33037" lon="4.21494">
        <ele>728.82</ele>
        <time>2024-10-13T12:31:13Z</time>
      </trkpt>
      <trkpt lat="45.33064" lon="4.2149">
        <ele>726.89</ele>
        <time>2024-10-13T12:31:30Z</time>
      </trkpt>
      <trkpt lat="45.33096" lon="4.21497">
        <ele>724.97</ele>
        <time>2024-10-13T12:31:49Z</time>
      </trkpt>
      <trkpt lat="45.33125" lon="4.21502">
        <ele>723.05</ele>
        <time>2024-10-13T12:32:07Z</time>
      </trkpt>
      <trkpt lat="45.33156" lon="4.21508">
        <ele>722.57</ele>
        <time>2024-10-13T12:32:25Z</time>
      </trkpt>
      <trkpt lat="45.33182" lon="4.21513">
        <ele>721.61</ele>
        <time>2024-10-13T12:32:40Z</time>
      </trkpt>
      <trkpt lat="45.33214" lon="4.21509">
        <ele>719.68</ele>
        <time>2024-10-13T12:32:59Z</time>
      </trkpt>
      <trkpt lat="45.33246" lon="4.21495">
        <ele>718.24</ele>
        <time>2024-10-13T12:33:19Z</time>
      </trkpt>
      <trkpt lat="45.33278" lon="4.21483">
        <ele>717.76</ele>
        <time>2024-10-13T12:33:38Z</time>
      </trkpt>
      <trkpt lat="45.33307" lon="4.21473">
        <ele>716.32</ele>
        <time>2024-10-13T12:33:55Z</time>
      </trkpt>
      <trkpt lat="45.33338" lon="4.21466">
        <ele>716.32</ele>
        <time>2024-10-13T12:34:14Z</time>
      </trkpt>
      <trkpt lat="45.33343" lon="4.21472">
        <ele>716.32</ele>
        <time>2024-10-13T12:34:19Z</time>
      </trkpt>
      <trkpt lat="45.33343" lon="4.21473">
        <ele>716.32</ele>
        <time>2024-10-13T12:34:20Z</time>
      </trkpt>
      <trkpt lat="45.33342" lon="4.21475">
        <ele>716.32</ele>
        <time>2024-10-13T12:34:21Z</time>
      </trkpt>
      <trkpt lat="45.33342" lon="4.21477">
        <ele>716.32</ele>
        <time>2024-10-13T12:34:22Z</time>
      </trkpt>
      <trkpt lat="45.33341" lon="4.21478">
        <ele>716.32</ele>
        <time>2024-10-13T12:34:23Z</time>
      </trkpt>
      <trkpt lat="45.33323" lon="4.21515">
        <ele>717.28</ele>
        <time>2024-10-13T12:34:42Z</time>
      </trkpt>
      <trkpt lat="45.33313" lon="4.21537">
        <ele>717.76</ele>
        <time>2024-10-13T12:34:55Z</time>
      </trkpt>
      <trkpt lat="45.33299" lon="4.21573">
        <ele>718.72</ele>
        <time>2024-10-13T12:35:13Z</time>
      </trkpt>
      <trkpt lat="45.33293" lon="4.21604">
        <ele>721.61</ele>
        <time>2024-10-13T12:35:30Z</time>
      </trkpt>
      <trkpt lat="45.3329" lon="4.21643">
        <ele>724.49</ele>
        <time>2024-10-13T12:35:50Z</time>
      </trkpt>
      <trkpt lat="45.33285" lon="4.21695">
        <ele>728.82</ele>
        <time>2024-10-13T12:36:16Z</time>
      </trkpt>
      <trkpt lat="45.33275" lon="4.21735">
        <ele>725.93</ele>
        <time>2024-10-13T12:36:35Z</time>
      </trkpt>
      <trkpt lat="45.33247" lon="4.2177">
        <ele>721.61</ele>
        <time>2024-10-13T12:36:58Z</time>
      </trkpt>
      <trkpt lat="45.33222" lon="4.2179">
        <ele>716.32</ele>
        <time>2024-10-13T12:37:19Z</time>
      </trkpt>
      <trkpt lat="45.33208" lon="4.21799">
        <ele>711.99</ele>
        <time>2024-10-13T12:37:33Z</time>
      </trkpt>
      <trkpt lat="45.33199" lon="4.21805">
        <ele>707.67</ele>
        <time>2024-10-13T12:37:49Z</time>
      </trkpt>
      <trkpt lat="45.33179" lon="4.21824">
        <ele>708.15</ele>
        <time>2024-10-13T12:38:04Z</time>
      </trkpt>
      <trkpt lat="45.3316" lon="4.21851">
        <ele>705.75</ele>
        <time>2024-10-13T12:38:22Z</time>
      </trkpt>
      <trkpt lat="45.33158" lon="4.2186">
        <ele>706.71</ele>
        <time>2024-10-13T12:38:34Z</time>
      </trkpt>
      <trkpt lat="45.3316" lon="4.21848">
        <ele>708.63</ele>
        <time>2024-10-13T12:38:49Z</time>
      </trkpt>
      <trkpt lat="45.33157" lon="4.21845">
        <ele>711.03</ele>
        <time>2024-10-13T12:39:08Z</time>
      </trkpt>
      <trkpt lat="45.33157" lon="4.21862">
        <ele>711.51</ele>
        <time>2024-10-13T12:39:15Z</time>
      </trkpt>
      <trkpt lat="45.33156" lon="4.21866">
        <ele>711.51</ele>
        <time>2024-10-13T12:39:16Z</time>
      </trkpt>
      <trkpt lat="45.33155" lon="4.21883">
        <ele>712.47</ele>
        <time>2024-10-13T12:39:28Z</time>
      </trkpt>
      <trkpt lat="45.33155" lon="4.21888">
        <ele>712.95</ele>
        <time>2024-10-13T12:39:38Z</time>
      </trkpt>
      <trkpt lat="45.33153" lon="4.21888">
        <ele>712.95</ele>
        <time>2024-10-13T12:39:39Z</time>
      </trkpt>
      <trkpt lat="45.33152" lon="4.21889">
        <ele>712.95</ele>
        <time>2024-10-13T12:39:40Z</time>
      </trkpt>
      <trkpt lat="45.33138" lon="4.21899">
        <ele>714.4</ele>
        <time>2024-10-13T12:39:52Z</time>
      </trkpt>
      <trkpt lat="45.33137" lon="4.21901">
        <ele>714.88</ele>
        <time>2024-10-13T12:39:53Z</time>
      </trkpt>
      <trkpt lat="45.33122" lon="4.21935">
        <ele>715.36</ele>
        <time>2024-10-13T12:40:11Z</time>
      </trkpt>
      <trkpt lat="45.33121" lon="4.21979">
        <ele>720.16</ele>
        <time>2024-10-13T12:40:30Z</time>
      </trkpt>
      <trkpt lat="45.33116" lon="4.22019">
        <ele>721.61</ele>
        <time>2024-10-13T12:40:52Z</time>
      </trkpt>
      <trkpt lat="45.33113" lon="4.22055">
        <ele>724.01</ele>
        <time>2024-10-13T12:41:09Z</time>
      </trkpt>
      <trkpt lat="45.33103" lon="4.22095">
        <ele>724.97</ele>
        <time>2024-10-13T12:41:30Z</time>
      </trkpt>
      <trkpt lat="45.3309" lon="4.22138">
        <ele>726.41</ele>
        <time>2024-10-13T12:41:52Z</time>
      </trkpt>
      <trkpt lat="45.33083" lon="4.22183">
        <ele>728.34</ele>
        <time>2024-10-13T12:42:13Z</time>
      </trkpt>
      <trkpt lat="45.33077" lon="4.2222">
        <ele>729.78</ele>
        <time>2024-10-13T12:42:32Z</time>
      </trkpt>
      <trkpt lat="45.33066" lon="4.22264">
        <ele>733.14</ele>
        <time>2024-10-13T12:42:56Z</time>
      </trkpt>
      <trkpt lat="45.3305" lon="4.22298">
        <ele>734.58</ele>
        <time>2024-10-13T12:43:16Z</time>
      </trkpt>
      <trkpt lat="45.33039" lon="4.22332">
        <ele>738.43</ele>
        <time>2024-10-13T12:43:34Z</time>
      </trkpt>
      <trkpt lat="45.3303" lon="4.22372">
        <ele>743.24</ele>
        <time>2024-10-13T12:43:53Z</time>
      </trkpt>
      <trkpt lat="45.33024" lon="4.22407">
        <ele>746.6</ele>
        <time>2024-10-13T12:44:10Z</time>
      </trkpt>
      <trkpt lat="45.33039" lon="4.22438">
        <ele>749</ele>
        <time>2024-10-13T12:44:28Z</time>
      </trkpt>
      <trkpt lat="45.33057" lon="4.22464">
        <ele>749</ele>
        <time>2024-10-13T12:44:46Z</time>
      </trkpt>
      <trkpt lat="45.3306" lon="4.22477">
        <ele>749.49</ele>
        <time>2024-10-13T12:45:02Z</time>
      </trkpt>
      <trkpt lat="45.33061" lon="4.22477">
        <ele>749.97</ele>
        <time>2024-10-13T12:45:23Z</time>
      </trkpt>
      <trkpt lat="45.3306" lon="4.22479">
        <ele>750.45</ele>
        <time>2024-10-13T12:45:45Z</time>
      </trkpt>
      <trkpt lat="45.33061" lon="4.22479">
        <ele>748.04</ele>
        <time>2024-10-13T12:46:13Z</time>
      </trkpt>
      <trkpt lat="45.33063" lon="4.22484">
        <ele>749</ele>
        <time>2024-10-13T12:46:31Z</time>
      </trkpt>
      <trkpt lat="45.33064" lon="4.22521">
        <ele>750.93</ele>
        <time>2024-10-13T12:46:50Z</time>
      </trkpt>
      <trkpt lat="45.3305" lon="4.2256">
        <ele>752.37</ele>
        <time>2024-10-13T12:47:12Z</time>
      </trkpt>
      <trkpt lat="45.33031" lon="4.22582">
        <ele>753.81</ele>
        <time>2024-10-13T12:47:29Z</time>
      </trkpt>
      <trkpt lat="45.33019" lon="4.22616">
        <ele>751.89</ele>
        <time>2024-10-13T12:47:46Z</time>
      </trkpt>
      <trkpt lat="45.33019" lon="4.22633">
        <ele>752.37</ele>
        <time>2024-10-13T12:47:55Z</time>
      </trkpt>
      <trkpt lat="45.33023" lon="4.22676">
        <ele>755.73</ele>
        <time>2024-10-13T12:48:14Z</time>
      </trkpt>
      <trkpt lat="45.33024" lon="4.22708">
        <ele>756.69</ele>
        <time>2024-10-13T12:48:31Z</time>
      </trkpt>
      <trkpt lat="45.33025" lon="4.22735">
        <ele>757.66</ele>
        <time>2024-10-13T12:48:45Z</time>
      </trkpt>
      <trkpt lat="45.3303" lon="4.22769">
        <ele>758.14</ele>
        <time>2024-10-13T12:48:59Z</time>
      </trkpt>
      <trkpt lat="45.3304" lon="4.22796">
        <ele>759.1</ele>
        <time>2024-10-13T12:49:13Z</time>
      </trkpt>
      <trkpt lat="45.33045" lon="4.22823">
        <ele>763.42</ele>
        <time>2024-10-13T12:49:28Z</time>
      </trkpt>
      <trkpt lat="45.3305" lon="4.22861">
        <ele>763.42</ele>
        <time>2024-10-13T12:49:48Z</time>
      </trkpt>
      <trkpt lat="45.3305" lon="4.22875">
        <ele>763.9</ele>
        <time>2024-10-13T12:50:02Z</time>
      </trkpt>
      <trkpt lat="45.33052" lon="4.22914">
        <ele>766.31</ele>
        <time>2024-10-13T12:50:22Z</time>
      </trkpt>
      <trkpt lat="45.33045" lon="4.22954">
        <ele>765.35</ele>
        <time>2024-10-13T12:50:42Z</time>
      </trkpt>
      <trkpt lat="45.33033" lon="4.22996">
        <ele>762.94</ele>
        <time>2024-10-13T12:51:01Z</time>
      </trkpt>
      <trkpt lat="45.33023" lon="4.23032">
        <ele>763.42</ele>
        <time>2024-10-13T12:51:19Z</time>
      </trkpt>
      <trkpt lat="45.33019" lon="4.23044">
        <ele>765.83</ele>
        <time>2024-10-13T12:51:38Z</time>
      </trkpt>
      <trkpt lat="45.33015" lon="4.23054">
        <ele>771.11</ele>
        <time>2024-10-13T12:52:05Z</time>
      </trkpt>
      <trkpt lat="45.33022" lon="4.23044">
        <ele>768.71</ele>
        <time>2024-10-13T12:52:27Z</time>
      </trkpt>
      <trkpt lat="45.33028" lon="4.23047">
        <ele>769.19</ele>
        <time>2024-10-13T12:52:53Z</time>
      </trkpt>
      <trkpt lat="45.33023" lon="4.23044">
        <ele>774.48</ele>
        <time>2024-10-13T12:53:13Z</time>
      </trkpt>
      <trkpt lat="45.33021" lon="4.23044">
        <ele>772.56</ele>
        <time>2024-10-13T12:53:31Z</time>
      </trkpt>
      <trkpt lat="45.33015" lon="4.23039">
        <ele>772.08</ele>
        <time>2024-10-13T12:53:47Z</time>
      </trkpt>
      <trkpt lat="45.33014" lon="4.2304">
        <ele>771.6</ele>
        <time>2024-10-13T12:53:48Z</time>
      </trkpt>
      <trkpt lat="45.33012" lon="4.2304">
        <ele>771.6</ele>
        <time>2024-10-13T12:53:49Z</time>
      </trkpt>
      <trkpt lat="45.33008" lon="4.23041">
        <ele>771.6</ele>
        <time>2024-10-13T12:53:52Z</time>
      </trkpt>
      <trkpt lat="45.3299" lon="4.23052">
        <ele>768.23</ele>
        <time>2024-10-13T12:54:07Z</time>
      </trkpt>
      <trkpt lat="45.3297" lon="4.2306">
        <ele>768.71</ele>
        <time>2024-10-13T12:54:21Z</time>
      </trkpt>
      <trkpt lat="45.32949" lon="4.23069">
        <ele>769.19</ele>
        <time>2024-10-13T12:54:36Z</time>
      </trkpt>
      <trkpt lat="45.32931" lon="4.23082">
        <ele>769.67</ele>
        <time>2024-10-13T12:54:50Z</time>
      </trkpt>
      <trkpt lat="45.32915" lon="4.23098">
        <ele>770.63</ele>
        <time>2024-10-13T12:55:05Z</time>
      </trkpt>
      <trkpt lat="45.32908" lon="4.23109">
        <ele>768.23</ele>
        <time>2024-10-13T12:55:18Z</time>
      </trkpt>
      <trkpt lat="45.32888" lon="4.23125">
        <ele>767.75</ele>
        <time>2024-10-13T12:55:28Z</time>
      </trkpt>
      <trkpt lat="45.32864" lon="4.23137">
        <ele>766.79</ele>
        <time>2024-10-13T12:55:39Z</time>
      </trkpt>
      <trkpt lat="45.32857" lon="4.23137">
        <ele>767.75</ele>
        <time>2024-10-13T12:55:43Z</time>
      </trkpt>
      <trkpt lat="45.32833" lon="4.23114">
        <ele>772.56</ele>
        <time>2024-10-13T12:55:59Z</time>
      </trkpt>
      <trkpt lat="45.3282" lon="4.23085">
        <ele>778.32</ele>
        <time>2024-10-13T12:56:14Z</time>
      </trkpt>
      <trkpt lat="45.32812" lon="4.23071">
        <ele>780.25</ele>
        <time>2024-10-13T12:56:23Z</time>
      </trkpt>
      <trkpt lat="45.32806" lon="4.23042">
        <ele>779.29</ele>
        <time>2024-10-13T12:56:36Z</time>
      </trkpt>
      <trkpt lat="45.32797" lon="4.23021">
        <ele>782.17</ele>
        <time>2024-10-13T12:56:49Z</time>
      </trkpt>
      <trkpt lat="45.32789" lon="4.23002">
        <ele>781.69</ele>
        <time>2024-10-13T12:56:59Z</time>
      </trkpt>
      <trkpt lat="45.32788" lon="4.23">
        <ele>781.69</ele>
        <time>2024-10-13T12:57:00Z</time>
      </trkpt>
      <trkpt lat="45.32788" lon="4.22999">
        <ele>781.69</ele>
        <time>2024-10-13T12:57:01Z</time>
      </trkpt>
      <trkpt lat="45.32773" lon="4.22979">
        <ele>783.13</ele>
        <time>2024-10-13T12:57:15Z</time>
      </trkpt>
      <trkpt lat="45.3276" lon="4.22956">
        <ele>784.57</ele>
        <time>2024-10-13T12:57:30Z</time>
      </trkpt>
      <trkpt lat="45.32761" lon="4.22949">
        <ele>786.02</ele>
        <time>2024-10-13T12:57:50Z</time>
      </trkpt>
      <trkpt lat="45.32761" lon="4.22945">
        <ele>782.65</ele>
        <time>2024-10-13T12:58:04Z</time>
      </trkpt>
      <trkpt lat="45.3276" lon="4.22948">
        <ele>781.69</ele>
        <time>2024-10-13T12:58:22Z</time>
      </trkpt>
      <trkpt lat="45.32761" lon="4.22949">
        <ele>780.73</ele>
        <time>2024-10-13T12:58:45Z</time>
      </trkpt>
      <trkpt lat="45.32755" lon="4.22939">
        <ele>779.77</ele>
        <time>2024-10-13T12:59:08Z</time>
      </trkpt>
      <trkpt lat="45.32744" lon="4.22907">
        <ele>779.29</ele>
        <time>2024-10-13T12:59:25Z</time>
      </trkpt>
      <trkpt lat="45.32732" lon="4.22875">
        <ele>780.73</ele>
        <time>2024-10-13T12:59:43Z</time>
      </trkpt>
      <trkpt lat="45.32722" lon="4.22852">
        <ele>781.69</ele>
        <time>2024-10-13T12:59:56Z</time>
      </trkpt>
      <trkpt lat="45.32715" lon="4.2283">
        <ele>786.5</ele>
        <time>2024-10-13T13:00:10Z</time>
      </trkpt>
      <trkpt lat="45.32702" lon="4.22797">
        <ele>793.22</ele>
        <time>2024-10-13T13:00:29Z</time>
      </trkpt>
      <trkpt lat="45.32701" lon="4.22793">
        <ele>794.19</ele>
        <time>2024-10-13T13:00:31Z</time>
      </trkpt>
      <trkpt lat="45.327" lon="4.22791">
        <ele>794.67</ele>
        <time>2024-10-13T13:00:32Z</time>
      </trkpt>
      <trkpt lat="45.32686" lon="4.22763">
        <ele>798.99</ele>
        <time>2024-10-13T13:00:47Z</time>
      </trkpt>
      <trkpt lat="45.3267" lon="4.22737">
        <ele>801.88</ele>
        <time>2024-10-13T13:01:03Z</time>
      </trkpt>
      <trkpt lat="45.32643" lon="4.22692">
        <ele>792.26</ele>
        <time>2024-10-13T13:01:21Z</time>
      </trkpt>
      <trkpt lat="45.32624" lon="4.22668">
        <ele>784.57</ele>
        <time>2024-10-13T13:01:36Z</time>
      </trkpt>
      <trkpt lat="45.32613" lon="4.22633">
        <ele>777.84</ele>
        <time>2024-10-13T13:01:54Z</time>
      </trkpt>
      <trkpt lat="45.32615" lon="4.22633">
        <ele>775.44</ele>
        <time>2024-10-13T13:02:20Z</time>
      </trkpt>
      <trkpt lat="45.32614" lon="4.22627">
        <ele>775.92</ele>
        <time>2024-10-13T13:02:33Z</time>
      </trkpt>
      <trkpt lat="45.32613" lon="4.22621">
        <ele>775.44</ele>
        <time>2024-10-13T13:02:39Z</time>
      </trkpt>
      <trkpt lat="45.32613" lon="4.2262">
        <ele>775.44</ele>
        <time>2024-10-13T13:02:40Z</time>
      </trkpt>
      <trkpt lat="45.32609" lon="4.22585">
        <ele>774</ele>
        <time>2024-10-13T13:02:56Z</time>
      </trkpt>
      <trkpt lat="45.32603" lon="4.2254">
        <ele>772.56</ele>
        <time>2024-10-13T13:03:15Z</time>
      </trkpt>
      <trkpt lat="45.32593" lon="4.22499">
        <ele>771.11</ele>
        <time>2024-10-13T13:03:34Z</time>
      </trkpt>
      <trkpt lat="45.32585" lon="4.2245">
        <ele>769.67</ele>
        <time>2024-10-13T13:03:56Z</time>
      </trkpt>
      <trkpt lat="45.32585" lon="4.22415">
        <ele>769.19</ele>
        <time>2024-10-13T13:04:12Z</time>
      </trkpt>
      <trkpt lat="45.32585" lon="4.22386">
        <ele>769.67</ele>
        <time>2024-10-13T13:04:25Z</time>
      </trkpt>
      <trkpt lat="45.32585" lon="4.22341">
        <ele>768.71</ele>
        <time>2024-10-13T13:04:44Z</time>
      </trkpt>
      <trkpt lat="45.32586" lon="4.223">
        <ele>766.79</ele>
        <time>2024-10-13T13:05:01Z</time>
      </trkpt>
      <trkpt lat="45.32582" lon="4.22265">
        <ele>764.39</ele>
        <time>2024-10-13T13:05:16Z</time>
      </trkpt>
      <trkpt lat="45.32569" lon="4.22226">
        <ele>761.98</ele>
        <time>2024-10-13T13:05:36Z</time>
      </trkpt>
      <trkpt lat="45.32557" lon="4.22195">
        <ele>763.9</ele>
        <time>2024-10-13T13:05:53Z</time>
      </trkpt>
      <trkpt lat="45.32543" lon="4.22143">
        <ele>762.46</ele>
        <time>2024-10-13T13:06:14Z</time>
      </trkpt>
      <trkpt lat="45.32535" lon="4.22102">
        <ele>760.54</ele>
        <time>2024-10-13T13:06:31Z</time>
      </trkpt>
      <trkpt lat="45.32536" lon="4.22063">
        <ele>760.54</ele>
        <time>2024-10-13T13:06:48Z</time>
      </trkpt>
      <trkpt lat="45.32546" lon="4.22034">
        <ele>759.1</ele>
        <time>2024-10-13T13:07:02Z</time>
      </trkpt>
      <trkpt lat="45.32559" lon="4.22">
        <ele>754.77</ele>
        <time>2024-10-13T13:07:17Z</time>
      </trkpt>
      <trkpt lat="45.3257" lon="4.21963">
        <ele>752.85</ele>
        <time>2024-10-13T13:07:32Z</time>
      </trkpt>
      <trkpt lat="45.32578" lon="4.21938">
        <ele>757.18</ele>
        <time>2024-10-13T13:07:47Z</time>
      </trkpt>
      <trkpt lat="45.32577" lon="4.21933">
        <ele>758.14</ele>
        <time>2024-10-13T13:07:50Z</time>
      </trkpt>
      <trkpt lat="45.32577" lon="4.21932">
        <ele>758.14</ele>
        <time>2024-10-13T13:07:51Z</time>
      </trkpt>
      <trkpt lat="45.32577" lon="4.2193">
        <ele>758.62</ele>
        <time>2024-10-13T13:07:52Z</time>
      </trkpt>
      <trkpt lat="45.32577" lon="4.21928">
        <ele>758.14</ele>
        <time>2024-10-13T13:07:53Z</time>
      </trkpt>
      <trkpt lat="45.32577" lon="4.21927">
        <ele>758.62</ele>
        <time>2024-10-13T13:07:54Z</time>
      </trkpt>
      <trkpt lat="45.32576" lon="4.21925">
        <ele>758.62</ele>
        <time>2024-10-13T13:07:55Z</time>
      </trkpt>
      <trkpt lat="45.32576" lon="4.21923">
        <ele>759.1</ele>
        <time>2024-10-13T13:07:56Z</time>
      </trkpt>
      <trkpt lat="45.32575" lon="4.21922">
        <ele>759.58</ele>
        <time>2024-10-13T13:07:57Z</time>
      </trkpt>
      <trkpt lat="45.32575" lon="4.2192">
        <ele>759.58</ele>
        <time>2024-10-13T13:07:58Z</time>
      </trkpt>
      <trkpt lat="45.32574" lon="4.21918">
        <ele>759.58</ele>
        <time>2024-10-13T13:07:59Z</time>
      </trkpt>
      <trkpt lat="45.32574" lon="4.21917">
        <ele>760.06</ele>
        <time>2024-10-13T13:08:00Z</time>
      </trkpt>
      <trkpt lat="45.32573" lon="4.21915">
        <ele>760.06</ele>
        <time>2024-10-13T13:08:01Z</time>
      </trkpt>
      <trkpt lat="45.32573" lon="4.21913">
        <ele>760.54</ele>
        <time>2024-10-13T13:08:02Z</time>
      </trkpt>
      <trkpt lat="45.32563" lon="4.21879">
        <ele>764.39</ele>
        <time>2024-10-13T13:08:20Z</time>
      </trkpt>
      <trkpt lat="45.32549" lon="4.21845">
        <ele>761.98</ele>
        <time>2024-10-13T13:08:38Z</time>
      </trkpt>
      <trkpt lat="45.32542" lon="4.21835">
        <ele>761.5</ele>
        <time>2024-10-13T13:08:44Z</time>
      </trkpt>
      <trkpt lat="45.3253" lon="4.21821">
        <ele>761.02</ele>
        <time>2024-10-13T13:08:57Z</time>
      </trkpt>
      <trkpt lat="45.32509" lon="4.21799">
        <ele>757.18</ele>
        <time>2024-10-13T13:09:14Z</time>
      </trkpt>
      <trkpt lat="45.32485" lon="4.21772">
        <ele>753.81</ele>
        <time>2024-10-13T13:09:34Z</time>
      </trkpt>
      <trkpt lat="45.32465" lon="4.21753">
        <ele>750.45</ele>
        <time>2024-10-13T13:09:47Z</time>
      </trkpt>
      <trkpt lat="45.32459" lon="4.21737">
        <ele>746.12</ele>
        <time>2024-10-13T13:09:56Z</time>
      </trkpt>
      <trkpt lat="45.3246" lon="4.21735">
        <ele>745.64</ele>
        <time>2024-10-13T13:09:57Z</time>
      </trkpt>
      <trkpt lat="45.32461" lon="4.21733">
        <ele>745.16</ele>
        <time>2024-10-13T13:09:58Z</time>
      </trkpt>
      <trkpt lat="45.32462" lon="4.21731">
        <ele>744.68</ele>
        <time>2024-10-13T13:09:59Z</time>
      </trkpt>
      <trkpt lat="45.32463" lon="4.21729">
        <ele>744.2</ele>
        <time>2024-10-13T13:10:00Z</time>
      </trkpt>
      <trkpt lat="45.32464" lon="4.21727">
        <ele>744.2</ele>
        <time>2024-10-13T13:10:01Z</time>
      </trkpt>
      <trkpt lat="45.32466" lon="4.21726">
        <ele>743.72</ele>
        <time>2024-10-13T13:10:02Z</time>
      </trkpt>
      <trkpt lat="45.32467" lon="4.21725">
        <ele>743.24</ele>
        <time>2024-10-13T13:10:03Z</time>
      </trkpt>
      <trkpt lat="45.32484" lon="4.21691">
        <ele>738.91</ele>
        <time>2024-10-13T13:10:22Z</time>
      </trkpt>
      <trkpt lat="45.32485" lon="4.21652">
        <ele>736.03</ele>
        <time>2024-10-13T13:10:41Z</time>
      </trkpt>
      <trkpt lat="45.32485" lon="4.21639">
        <ele>737.95</ele>
        <time>2024-10-13T13:10:55Z</time>
      </trkpt>
      <trkpt lat="45.32485" lon="4.21631">
        <ele>737.47</ele>
        <time>2024-10-13T13:11:18Z</time>
      </trkpt>
      <trkpt lat="45.32479" lon="4.2159">
        <ele>739.39</ele>
        <time>2024-10-13T13:11:39Z</time>
      </trkpt>
      <trkpt lat="45.32479" lon="4.21545">
        <ele>739.87</ele>
        <time>2024-10-13T13:11:56Z</time>
      </trkpt>
      <trkpt lat="45.32483" lon="4.21505">
        <ele>737.47</ele>
        <time>2024-10-13T13:12:13Z</time>
      </trkpt>
      <trkpt lat="45.32486" lon="4.21466">
        <ele>736.99</ele>
        <time>2024-10-13T13:12:31Z</time>
      </trkpt>
      <trkpt lat="45.32487" lon="4.21435">
        <ele>736.99</ele>
        <time>2024-10-13T13:12:46Z</time>
      </trkpt>
      <trkpt lat="45.32491" lon="4.214">
        <ele>735.55</ele>
        <time>2024-10-13T13:13:05Z</time>
      </trkpt>
      <trkpt lat="45.32493" lon="4.21371">
        <ele>734.58</ele>
        <time>2024-10-13T13:13:22Z</time>
      </trkpt>
      <trkpt lat="45.32495" lon="4.21364">
        <ele>734.1</ele>
        <time>2024-10-13T13:13:26Z</time>
      </trkpt>
      <trkpt lat="45.32495" lon="4.21362">
        <ele>734.1</ele>
        <time>2024-10-13T13:13:27Z</time>
      </trkpt>
      <trkpt lat="45.32496" lon="4.21344">
        <ele>733.62</ele>
        <time>2024-10-13T13:13:35Z</time>
      </trkpt>
      <trkpt lat="45.32496" lon="4.21342">
        <ele>733.14</ele>
        <time>2024-10-13T13:13:36Z</time>
      </trkpt>
      <trkpt lat="45.32486" lon="4.21317">
        <ele>731.7</ele>
        <time>2024-10-13T13:13:52Z</time>
      </trkpt>
      <trkpt lat="45.32461" lon="4.21311">
        <ele>731.7</ele>
        <time>2024-10-13T13:14:09Z</time>
      </trkpt>
      <trkpt lat="45.32431" lon="4.21302">
        <ele>731.7</ele>
        <time>2024-10-13T13:14:29Z</time>
      </trkpt>
      <trkpt lat="45.32409" lon="4.21308">
        <ele>730.74</ele>
        <time>2024-10-13T13:14:45Z</time>
      </trkpt>
      <trkpt lat="45.32386" lon="4.2132">
        <ele>730.74</ele>
        <time>2024-10-13T13:15:00Z</time>
      </trkpt>
      <trkpt lat="45.32363" lon="4.21334">
        <ele>731.22</ele>
        <time>2024-10-13T13:15:18Z</time>
      </trkpt>
      <trkpt lat="45.32359" lon="4.21336">
        <ele>731.22</ele>
        <time>2024-10-13T13:15:21Z</time>
      </trkpt>
      <trkpt lat="45.32358" lon="4.21336">
        <ele>730.74</ele>
        <time>2024-10-13T13:15:22Z</time>
      </trkpt>
      <trkpt lat="45.32357" lon="4.21337">
        <ele>730.74</ele>
        <time>2024-10-13T13:15:23Z</time>
      </trkpt>
      <trkpt lat="45.32356" lon="4.21338">
        <ele>730.26</ele>
        <time>2024-10-13T13:15:24Z</time>
      </trkpt>
      <trkpt lat="45.32351" lon="4.21336">
        <ele>732.18</ele>
        <time>2024-10-13T13:15:37Z</time>
      </trkpt>
      <trkpt lat="45.32349" lon="4.21336">
        <ele>734.58</ele>
        <time>2024-10-13T13:15:49Z</time>
      </trkpt>
      <trkpt lat="45.32322" lon="4.21324">
        <ele>734.58</ele>
        <time>2024-10-13T13:16:05Z</time>
      </trkpt>
      <trkpt lat="45.32296" lon="4.21322">
        <ele>734.58</ele>
        <time>2024-10-13T13:16:24Z</time>
      </trkpt>
      <trkpt lat="45.32288" lon="4.21311">
        <ele>735.07</ele>
        <time>2024-10-13T13:16:34Z</time>
      </trkpt>
      <trkpt lat="45.32287" lon="4.21305">
        <ele>735.55</ele>
        <time>2024-10-13T13:16:47Z</time>
      </trkpt>
      <trkpt lat="45.3229" lon="4.21311">
        <ele>735.07</ele>
        <time>2024-10-13T13:16:49Z</time>
      </trkpt>
      <trkpt lat="45.32297" lon="4.2132">
        <ele>734.1</ele>
        <time>2024-10-13T13:16:55Z</time>
      </trkpt>
      <trkpt lat="45.32305" lon="4.21315">
        <ele>733.62</ele>
        <time>2024-10-13T13:17:01Z</time>
      </trkpt>
      <trkpt lat="45.32305" lon="4.21312">
        <ele>733.62</ele>
        <time>2024-10-13T13:17:02Z</time>
      </trkpt>
      <trkpt lat="45.32306" lon="4.21311">
        <ele>733.62</ele>
        <time>2024-10-13T13:17:03Z</time>
      </trkpt>
      <trkpt lat="45.32317" lon="4.21261">
        <ele>732.18</ele>
        <time>2024-10-13T13:17:25Z</time>
      </trkpt>
      <trkpt lat="45.32314" lon="4.21257">
        <ele>731.22</ele>
        <time>2024-10-13T13:17:29Z</time>
      </trkpt>
      <trkpt lat="45.32289" lon="4.21263">
        <ele>726.89</ele>
        <time>2024-10-13T13:17:45Z</time>
      </trkpt>
      <trkpt lat="45.32265" lon="4.21257">
        <ele>724.01</ele>
        <time>2024-10-13T13:18:02Z</time>
      </trkpt>
      <trkpt lat="45.3224" lon="4.21238">
        <ele>724.49</ele>
        <time>2024-10-13T13:18:19Z</time>
      </trkpt>
      <trkpt lat="45.32223" lon="4.21226">
        <ele>725.93</ele>
        <time>2024-10-13T13:18:35Z</time>
      </trkpt>
      <trkpt lat="45.32199" lon="4.2121">
        <ele>726.41</ele>
        <time>2024-10-13T13:18:54Z</time>
      </trkpt>
      <trkpt lat="45.32181" lon="4.21203">
        <ele>724.01</ele>
        <time>2024-10-13T13:19:09Z</time>
      </trkpt>
      <trkpt lat="45.32154" lon="4.21195">
        <ele>723.53</ele>
        <time>2024-10-13T13:19:27Z</time>
      </trkpt>
      <trkpt lat="45.32123" lon="4.21187">
        <ele>720.65</ele>
        <time>2024-10-13T13:19:45Z</time>
      </trkpt>
      <trkpt lat="45.321" lon="4.21184">
        <ele>718.24</ele>
        <time>2024-10-13T13:20:00Z</time>
      </trkpt>
      <trkpt lat="45.32078" lon="4.21195">
        <ele>714.88</ele>
        <time>2024-10-13T13:20:17Z</time>
      </trkpt>
      <trkpt lat="45.32061" lon="4.21211">
        <ele>709.59</ele>
        <time>2024-10-13T13:20:35Z</time>
      </trkpt>
      <trkpt lat="45.32036" lon="4.21227">
        <ele>705.26</ele>
        <time>2024-10-13T13:20:56Z</time>
      </trkpt>
      <trkpt lat="45.3201" lon="4.21242">
        <ele>704.78</ele>
        <time>2024-10-13T13:21:13Z</time>
      </trkpt>
      <trkpt lat="45.32008" lon="4.21243">
        <ele>704.3</ele>
        <time>2024-10-13T13:21:14Z</time>
      </trkpt>
      <trkpt lat="45.31984" lon="4.21256">
        <ele>698.53</ele>
        <time>2024-10-13T13:21:32Z</time>
      </trkpt>
      <trkpt lat="45.31956" lon="4.21269">
        <ele>695.65</ele>
        <time>2024-10-13T13:21:50Z</time>
      </trkpt>
      <trkpt lat="45.31943" lon="4.21277">
        <ele>693.25</ele>
        <time>2024-10-13T13:22:09Z</time>
      </trkpt>
      <trkpt lat="45.31912" lon="4.21286">
        <ele>698.53</ele>
        <time>2024-10-13T13:22:30Z</time>
      </trkpt>
      <trkpt lat="45.31902" lon="4.21291">
        <ele>697.09</ele>
        <time>2024-10-13T13:23:01Z</time>
      </trkpt>
      <trkpt lat="45.319" lon="4.21293">
        <ele>697.09</ele>
        <time>2024-10-13T13:23:32Z</time>
      </trkpt>
      <trkpt lat="45.31905" lon="4.2129">
        <ele>697.09</ele>
        <time>2024-10-13T13:23:56Z</time>
      </trkpt>
      <trkpt lat="45.31903" lon="4.21294">
        <ele>693.25</ele>
        <time>2024-10-13T13:24:32Z</time>
      </trkpt>
      <trkpt lat="45.31899" lon="4.21288">
        <ele>696.61</ele>
        <time>2024-10-13T13:24:59Z</time>
      </trkpt>
      <trkpt lat="45.31898" lon="4.21277">
        <ele>693.25</ele>
        <time>2024-10-13T13:25:17Z</time>
      </trkpt>
      <trkpt lat="45.31895" lon="4.21272">
        <ele>692.77</ele>
        <time>2024-10-13T13:25:40Z</time>
      </trkpt>
      <trkpt lat="45.31896" lon="4.21271">
        <ele>699.02</ele>
        <time>2024-10-13T13:26:07Z</time>
      </trkpt>
      <trkpt lat="45.31892" lon="4.21271">
        <ele>701.9</ele>
        <time>2024-10-13T13:26:30Z</time>
      </trkpt>
      <trkpt lat="45.31894" lon="4.21267">
        <ele>698.53</ele>
        <time>2024-10-13T13:26:58Z</time>
      </trkpt>
      <trkpt lat="45.31891" lon="4.21274">
        <ele>697.57</ele>
        <time>2024-10-13T13:27:21Z</time>
      </trkpt>
      <trkpt lat="45.31885" lon="4.21275">
        <ele>702.38</ele>
        <time>2024-10-13T13:27:44Z</time>
      </trkpt>
      <trkpt lat="45.31883" lon="4.21274">
        <ele>707.67</ele>
        <time>2024-10-13T13:28:14Z</time>
      </trkpt>
      <trkpt lat="45.31877" lon="4.21273">
        <ele>711.99</ele>
        <time>2024-10-13T13:28:34Z</time>
      </trkpt>
      <trkpt lat="45.31869" lon="4.2127">
        <ele>711.99</ele>
        <time>2024-10-13T13:28:54Z</time>
      </trkpt>
      <trkpt lat="45.31862" lon="4.21272">
        <ele>710.55</ele>
        <time>2024-10-13T13:29:14Z</time>
      </trkpt>
      <trkpt lat="45.31836" lon="4.21278">
        <ele>706.71</ele>
        <time>2024-10-13T13:29:31Z</time>
      </trkpt>
      <trkpt lat="45.3181" lon="4.2129">
        <ele>703.34</ele>
        <time>2024-10-13T13:29:49Z</time>
      </trkpt>
      <trkpt lat="45.31788" lon="4.21303">
        <ele>699.5</ele>
        <time>2024-10-13T13:30:04Z</time>
      </trkpt>
      <trkpt lat="45.31769" lon="4.21317">
        <ele>697.57</ele>
        <time>2024-10-13T13:30:20Z</time>
      </trkpt>
      <trkpt lat="45.31742" lon="4.21335">
        <ele>693.25</ele>
        <time>2024-10-13T13:30:39Z</time>
      </trkpt>
      <trkpt lat="45.31717" lon="4.21349">
        <ele>689.4</ele>
        <time>2024-10-13T13:30:56Z</time>
      </trkpt>
      <trkpt lat="45.31699" lon="4.2136">
        <ele>684.6</ele>
        <time>2024-10-13T13:31:10Z</time>
      </trkpt>
      <trkpt lat="45.31674" lon="4.2137">
        <ele>682.67</ele>
        <time>2024-10-13T13:31:25Z</time>
      </trkpt>
      <trkpt lat="45.31652" lon="4.21385">
        <ele>680.75</ele>
        <time>2024-10-13T13:31:41Z</time>
      </trkpt>
      <trkpt lat="45.31632" lon="4.21401">
        <ele>679.79</ele>
        <time>2024-10-13T13:31:56Z</time>
      </trkpt>
      <trkpt lat="45.31617" lon="4.21405">
        <ele>679.31</ele>
        <time>2024-10-13T13:32:08Z</time>
      </trkpt>
      <trkpt lat="45.31596" lon="4.21412">
        <ele>679.79</ele>
        <time>2024-10-13T13:32:24Z</time>
      </trkpt>
      <trkpt lat="45.31571" lon="4.21416">
        <ele>679.31</ele>
        <time>2024-10-13T13:32:40Z</time>
      </trkpt>
      <trkpt lat="45.31553" lon="4.21419">
        <ele>676.91</ele>
        <time>2024-10-13T13:32:54Z</time>
      </trkpt>
      <trkpt lat="45.31539" lon="4.21422">
        <ele>674.5</ele>
        <time>2024-10-13T13:33:14Z</time>
      </trkpt>
      <trkpt lat="45.31522" lon="4.21426">
        <ele>670.66</ele>
        <time>2024-10-13T13:33:28Z</time>
      </trkpt>
      <trkpt lat="45.31521" lon="4.21427">
        <ele>670.66</ele>
        <time>2024-10-13T13:33:29Z</time>
      </trkpt>
      <trkpt lat="45.31513" lon="4.21431">
        <ele>669.22</ele>
        <time>2024-10-13T13:33:45Z</time>
      </trkpt>
      <trkpt lat="45.3151" lon="4.21431">
        <ele>666.81</ele>
        <time>2024-10-13T13:34:06Z</time>
      </trkpt>
      <trkpt lat="45.31506" lon="4.21436">
        <ele>666.81</ele>
        <time>2024-10-13T13:34:31Z</time>
      </trkpt>
      <trkpt lat="45.31499" lon="4.21421">
        <ele>668.25</ele>
        <time>2024-10-13T13:34:47Z</time>
      </trkpt>
      <trkpt lat="45.31502" lon="4.21392">
        <ele>664.89</ele>
        <time>2024-10-13T13:35:05Z</time>
      </trkpt>
      <trkpt lat="45.31507" lon="4.2136">
        <ele>668.25</ele>
        <time>2024-10-13T13:35:24Z</time>
      </trkpt>
      <trkpt lat="45.3152" lon="4.21336">
        <ele>674.98</ele>
        <time>2024-10-13T13:35:37Z</time>
      </trkpt>
      <trkpt lat="45.31543" lon="4.213">
        <ele>674.5</ele>
        <time>2024-10-13T13:35:54Z</time>
      </trkpt>
      <trkpt lat="45.31549" lon="4.21279">
        <ele>671.14</ele>
        <time>2024-10-13T13:36:10Z</time>
      </trkpt>
      <trkpt lat="45.31547" lon="4.21276">
        <ele>671.14</ele>
        <time>2024-10-13T13:36:13Z</time>
      </trkpt>
      <trkpt lat="45.31537" lon="4.21252">
        <ele>674.02</ele>
        <time>2024-10-13T13:36:29Z</time>
      </trkpt>
      <trkpt lat="45.31535" lon="4.21244">
        <ele>675.46</ele>
        <time>2024-10-13T13:36:34Z</time>
      </trkpt>
      <trkpt lat="45.31533" lon="4.21226">
        <ele>677.39</ele>
        <time>2024-10-13T13:36:47Z</time>
      </trkpt>
      <trkpt lat="45.31531" lon="4.21216">
        <ele>678.35</ele>
        <time>2024-10-13T13:36:58Z</time>
      </trkpt>
      <trkpt lat="45.3154" lon="4.21194">
        <ele>680.75</ele>
        <time>2024-10-13T13:37:08Z</time>
      </trkpt>
      <trkpt lat="45.31545" lon="4.21159">
        <ele>682.19</ele>
        <time>2024-10-13T13:37:25Z</time>
      </trkpt>
      <trkpt lat="45.3156" lon="4.21131">
        <ele>686.04</ele>
        <time>2024-10-13T13:37:42Z</time>
      </trkpt>
      <trkpt lat="45.31562" lon="4.21131">
        <ele>687</ele>
        <time>2024-10-13T13:37:59Z</time>
      </trkpt>
      <trkpt lat="45.31565" lon="4.21129">
        <ele>686.04</ele>
        <time>2024-10-13T13:38:06Z</time>
      </trkpt>
      <trkpt lat="45.31569" lon="4.21125">
        <ele>686.04</ele>
        <time>2024-10-13T13:38:11Z</time>
      </trkpt>
      <trkpt lat="45.31578" lon="4.21115">
        <ele>685.08</ele>
        <time>2024-10-13T13:38:20Z</time>
      </trkpt>
      <trkpt lat="45.31582" lon="4.21101">
        <ele>683.15</ele>
        <time>2024-10-13T13:38:27Z</time>
      </trkpt>
      <trkpt lat="45.31594" lon="4.21073">
        <ele>680.27</ele>
        <time>2024-10-13T13:38:44Z</time>
      </trkpt>
      <trkpt lat="45.31599" lon="4.21047">
        <ele>682.67</ele>
        <time>2024-10-13T13:38:57Z</time>
      </trkpt>
      <trkpt lat="45.316" lon="4.21038">
        <ele>683.63</ele>
        <time>2024-10-13T13:39:03Z</time>
      </trkpt>
      <trkpt lat="45.31583" lon="4.21026">
        <ele>687.48</ele>
        <time>2024-10-13T13:39:19Z</time>
      </trkpt>
      <trkpt lat="45.31581" lon="4.21014">
        <ele>688.92</ele>
        <time>2024-10-13T13:39:24Z</time>
      </trkpt>
      <trkpt lat="45.31567" lon="4.20995">
        <ele>696.13</ele>
        <time>2024-10-13T13:39:40Z</time>
      </trkpt>
      <trkpt lat="45.31551" lon="4.20973">
        <ele>701.9</ele>
        <time>2024-10-13T13:39:55Z</time>
      </trkpt>
      <trkpt lat="45.31551" lon="4.2097">
        <ele>702.38</ele>
        <time>2024-10-13T13:39:57Z</time>
      </trkpt>
      <trkpt lat="45.31541" lon="4.20943">
        <ele>703.82</ele>
        <time>2024-10-13T13:40:14Z</time>
      </trkpt>
      <trkpt lat="45.31541" lon="4.20941">
        <ele>706.23</ele>
        <time>2024-10-13T13:40:38Z</time>
      </trkpt>
      <trkpt lat="45.31521" lon="4.20942">
        <ele>712.47</ele>
        <time>2024-10-13T13:40:55Z</time>
      </trkpt>
      <trkpt lat="45.31507" lon="4.20944">
        <ele>715.36</ele>
        <time>2024-10-13T13:41:04Z</time>
      </trkpt>
      <trkpt lat="45.31477" lon="4.20939">
        <ele>715.36</ele>
        <time>2024-10-13T13:41:23Z</time>
      </trkpt>
      <trkpt lat="45.31454" lon="4.20945">
        <ele>720.16</ele>
        <time>2024-10-13T13:41:42Z</time>
      </trkpt>
      <trkpt lat="45.31436" lon="4.20949">
        <ele>725.45</ele>
        <time>2024-10-13T13:41:56Z</time>
      </trkpt>
      <trkpt lat="45.31416" lon="4.20961">
        <ele>730.74</ele>
        <time>2024-10-13T13:42:11Z</time>
      </trkpt>
      <trkpt lat="45.31399" lon="4.20975">
        <ele>734.1</ele>
        <time>2024-10-13T13:42:24Z</time>
      </trkpt>
      <trkpt lat="45.31383" lon="4.20993">
        <ele>738.43</ele>
        <time>2024-10-13T13:42:36Z</time>
      </trkpt>
      <trkpt lat="45.31369" lon="4.21012">
        <ele>744.2</ele>
        <time>2024-10-13T13:42:52Z</time>
      </trkpt>
      <trkpt lat="45.31353" lon="4.21029">
        <ele>749.97</ele>
        <time>2024-10-13T13:43:05Z</time>
      </trkpt>
      <trkpt lat="45.31339" lon="4.21045">
        <ele>755.25</ele>
        <time>2024-10-13T13:43:22Z</time>
      </trkpt>
      <trkpt lat="45.31317" lon="4.21052">
        <ele>756.69</ele>
        <time>2024-10-13T13:43:40Z</time>
      </trkpt>
      <trkpt lat="45.3131" lon="4.2106">
        <ele>755.73</ele>
        <time>2024-10-13T13:44:06Z</time>
      </trkpt>
      <trkpt lat="45.31303" lon="4.21063">
        <ele>755.25</ele>
        <time>2024-10-13T13:44:29Z</time>
      </trkpt>
      <trkpt lat="45.3131" lon="4.2106">
        <ele>755.73</ele>
        <time>2024-10-13T13:44:54Z</time>
      </trkpt>
      <trkpt lat="45.31306" lon="4.21064">
        <ele>758.14</ele>
        <time>2024-10-13T13:45:21Z</time>
      </trkpt>
      <trkpt lat="45.31311" lon="4.2106">
        <ele>767.75</ele>
        <time>2024-10-13T13:45:54Z</time>
      </trkpt>
      <trkpt lat="45.31308" lon="4.21061">
        <ele>771.11</ele>
        <time>2024-10-13T13:46:21Z</time>
      </trkpt>
      <trkpt lat="45.31309" lon="4.21061">
        <ele>772.56</ele>
        <time>2024-10-13T13:46:48Z</time>
      </trkpt>
      <trkpt lat="45.31312" lon="4.2105">
        <ele>775.44</ele>
        <time>2024-10-13T13:47:15Z</time>
      </trkpt>
      <trkpt lat="45.31307" lon="4.21041">
        <ele>778.81</ele>
        <time>2024-10-13T13:47:43Z</time>
      </trkpt>
      <trkpt lat="45.31309" lon="4.21041">
        <ele>778.81</ele>
        <time>2024-10-13T13:48:23Z</time>
      </trkpt>
      <trkpt lat="45.31294" lon="4.21063">
        <ele>776.4</ele>
        <time>2024-10-13T13:48:41Z</time>
      </trkpt>
      <trkpt lat="45.31263" lon="4.21092">
        <ele>776.88</ele>
        <time>2024-10-13T13:49:01Z</time>
      </trkpt>
      <trkpt lat="45.31246" lon="4.2111">
        <ele>776.4</ele>
        <time>2024-10-13T13:49:18Z</time>
      </trkpt>
      <trkpt lat="45.31239" lon="4.21121">
        <ele>776.4</ele>
        <time>2024-10-13T13:49:34Z</time>
      </trkpt>
      <trkpt lat="45.31235" lon="4.21121">
        <ele>774.48</ele>
        <time>2024-10-13T13:50:01Z</time>
      </trkpt>
      <trkpt lat="45.31236" lon="4.21117">
        <ele>774</ele>
        <time>2024-10-13T13:50:26Z</time>
      </trkpt>
      <trkpt lat="45.31242" lon="4.21117">
        <ele>775.44</ele>
        <time>2024-10-13T13:50:51Z</time>
      </trkpt>
      <trkpt lat="45.31239" lon="4.21117">
        <ele>775.44</ele>
        <time>2024-10-13T13:51:11Z</time>
      </trkpt>
      <trkpt lat="45.31238" lon="4.21115">
        <ele>778.81</ele>
        <time>2024-10-13T13:51:26Z</time>
      </trkpt>
      <trkpt lat="45.31238" lon="4.21117">
        <ele>778.81</ele>
        <time>2024-10-13T13:51:52Z</time>
      </trkpt>
      <trkpt lat="45.31236" lon="4.2112">
        <ele>774.96</ele>
        <time>2024-10-13T13:52:21Z</time>
      </trkpt>
      <trkpt lat="45.31236" lon="4.2113">
        <ele>774.96</ele>
        <time>2024-10-13T13:52:41Z</time>
      </trkpt>
      <trkpt lat="45.31224" lon="4.21147">
        <ele>774.48</ele>
        <time>2024-10-13T13:52:59Z</time>
      </trkpt>
      <trkpt lat="45.31218" lon="4.21157">
        <ele>773.52</ele>
        <time>2024-10-13T13:53:15Z</time>
      </trkpt>
      <trkpt lat="45.31206" lon="4.21164">
        <ele>770.15</ele>
        <time>2024-10-13T13:53:37Z</time>
      </trkpt>
      <trkpt lat="45.31182" lon="4.21169">
        <ele>772.08</ele>
        <time>2024-10-13T13:53:56Z</time>
      </trkpt>
      <trkpt lat="45.31169" lon="4.21177">
        <ele>776.4</ele>
        <time>2024-10-13T13:54:19Z</time>
      </trkpt>
      <trkpt lat="45.31154" lon="4.21181">
        <ele>778.81</ele>
        <time>2024-10-13T13:54:33Z</time>
      </trkpt>
      <trkpt lat="45.31139" lon="4.21185">
        <ele>777.36</ele>
        <time>2024-10-13T13:54:44Z</time>
      </trkpt>
      <trkpt lat="45.31123" lon="4.21183">
        <ele>779.29</ele>
        <time>2024-10-13T13:55:02Z</time>
      </trkpt>
      <trkpt lat="45.31123" lon="4.21182">
        <ele>777.84</ele>
        <time>2024-10-13T13:55:26Z</time>
      </trkpt>
      <trkpt lat="45.31124" lon="4.21177">
        <ele>780.25</ele>
        <time>2024-10-13T13:55:49Z</time>
      </trkpt>
      <trkpt lat="45.31121" lon="4.21182">
        <ele>782.65</ele>
        <time>2024-10-13T13:56:19Z</time>
      </trkpt>
      <trkpt lat="45.31108" lon="4.21167">
        <ele>781.69</ele>
        <time>2024-10-13T13:56:34Z</time>
      </trkpt>
      <trkpt lat="45.31085" lon="4.21141">
        <ele>779.29</ele>
        <time>2024-10-13T13:56:52Z</time>
      </trkpt>
      <trkpt lat="45.31065" lon="4.21112">
        <ele>778.32</ele>
        <time>2024-10-13T13:57:08Z</time>
      </trkpt>
      <trkpt lat="45.31049" lon="4.21096">
        <ele>776.4</ele>
        <time>2024-10-13T13:57:22Z</time>
      </trkpt>
      <trkpt lat="45.3103" lon="4.21074">
        <ele>778.32</ele>
        <time>2024-10-13T13:57:38Z</time>
      </trkpt>
      <trkpt lat="45.31006" lon="4.21048">
        <ele>776.88</ele>
        <time>2024-10-13T13:57:55Z</time>
      </trkpt>
      <trkpt lat="45.30999" lon="4.21037">
        <ele>776.88</ele>
        <time>2024-10-13T13:58:02Z</time>
      </trkpt>
      <trkpt lat="45.30972" lon="4.21025">
        <ele>777.84</ele>
        <time>2024-10-13T13:58:20Z</time>
      </trkpt>
      <trkpt lat="45.30949" lon="4.21017">
        <ele>776.4</ele>
        <time>2024-10-13T13:58:37Z</time>
      </trkpt>
      <trkpt lat="45.30924" lon="4.21014">
        <ele>774.48</ele>
        <time>2024-10-13T13:58:55Z</time>
      </trkpt>
      <trkpt lat="45.30896" lon="4.21006">
        <ele>771.6</ele>
        <time>2024-10-13T13:59:11Z</time>
      </trkpt>
      <trkpt lat="45.30875" lon="4.21004">
        <ele>773.04</ele>
        <time>2024-10-13T13:59:28Z</time>
      </trkpt>
      <trkpt lat="45.30853" lon="4.2101">
        <ele>774</ele>
        <time>2024-10-13T13:59:43Z</time>
      </trkpt>
      <trkpt lat="45.30822" lon="4.20997">
        <ele>769.67</ele>
        <time>2024-10-13T13:59:59Z</time>
      </trkpt>
      <trkpt lat="45.30811" lon="4.20991">
        <ele>768.71</ele>
        <time>2024-10-13T14:00:10Z</time>
      </trkpt>
      <trkpt lat="45.30809" lon="4.20983">
        <ele>768.23</ele>
        <time>2024-10-13T14:00:14Z</time>
      </trkpt>
      <trkpt lat="45.30817" lon="4.20951">
        <ele>767.27</ele>
        <time>2024-10-13T14:00:28Z</time>
      </trkpt>
      <trkpt lat="45.30825" lon="4.20912">
        <ele>764.39</ele>
        <time>2024-10-13T14:00:46Z</time>
      </trkpt>
      <trkpt lat="45.30835" lon="4.20876">
        <ele>761.02</ele>
        <time>2024-10-13T14:01:03Z</time>
      </trkpt>
      <trkpt lat="45.30844" lon="4.20853">
        <ele>756.69</ele>
        <time>2024-10-13T14:01:16Z</time>
      </trkpt>
      <trkpt lat="45.3086" lon="4.20812">
        <ele>754.77</ele>
        <time>2024-10-13T14:01:37Z</time>
      </trkpt>
      <trkpt lat="45.30872" lon="4.20772">
        <ele>754.29</ele>
        <time>2024-10-13T14:01:57Z</time>
      </trkpt>
      <trkpt lat="45.30885" lon="4.20724">
        <ele>752.37</ele>
        <time>2024-10-13T14:02:12Z</time>
      </trkpt>
      <trkpt lat="45.30891" lon="4.20693">
        <ele>752.37</ele>
        <time>2024-10-13T14:02:25Z</time>
      </trkpt>
      <trkpt lat="45.30898" lon="4.20653">
        <ele>753.33</ele>
        <time>2024-10-13T14:02:41Z</time>
      </trkpt>
      <trkpt lat="45.30903" lon="4.20611">
        <ele>754.29</ele>
        <time>2024-10-13T14:02:58Z</time>
      </trkpt>
      <trkpt lat="45.30908" lon="4.20574">
        <ele>753.33</ele>
        <time>2024-10-13T14:03:17Z</time>
      </trkpt>
      <trkpt lat="45.30914" lon="4.20541">
        <ele>751.89</ele>
        <time>2024-10-13T14:03:33Z</time>
      </trkpt>
      <trkpt lat="45.30923" lon="4.2051">
        <ele>750.45</ele>
        <time>2024-10-13T14:03:48Z</time>
      </trkpt>
      <trkpt lat="45.30932" lon="4.2048">
        <ele>748.52</ele>
        <time>2024-10-13T14:04:01Z</time>
      </trkpt>
      <trkpt lat="45.3094" lon="4.20444">
        <ele>745.64</ele>
        <time>2024-10-13T14:04:19Z</time>
      </trkpt>
      <trkpt lat="45.30941" lon="4.20406">
        <ele>745.16</ele>
        <time>2024-10-13T14:04:35Z</time>
      </trkpt>
      <trkpt lat="45.30944" lon="4.20369">
        <ele>740.35</ele>
        <time>2024-10-13T14:04:49Z</time>
      </trkpt>
      <trkpt lat="45.30941" lon="4.20346">
        <ele>735.55</ele>
        <time>2024-10-13T14:05:03Z</time>
      </trkpt>
      <trkpt lat="45.30941" lon="4.20326">
        <ele>735.07</ele>
        <time>2024-10-13T14:05:18Z</time>
      </trkpt>
      <trkpt lat="45.3095" lon="4.20293">
        <ele>734.58</ele>
        <time>2024-10-13T14:05:39Z</time>
      </trkpt>
      <trkpt lat="45.3096" lon="4.20255">
        <ele>731.7</ele>
        <time>2024-10-13T14:05:58Z</time>
      </trkpt>
      <trkpt lat="45.30976" lon="4.20219">
        <ele>724.97</ele>
        <time>2024-10-13T14:06:18Z</time>
      </trkpt>
      <trkpt lat="45.30977" lon="4.20196">
        <ele>721.13</ele>
        <time>2024-10-13T14:06:32Z</time>
      </trkpt>
      <trkpt lat="45.30978" lon="4.2019">
        <ele>720.65</ele>
        <time>2024-10-13T14:06:36Z</time>
      </trkpt>
      <trkpt lat="45.30979" lon="4.20189">
        <ele>720.65</ele>
        <time>2024-10-13T14:06:37Z</time>
      </trkpt>
      <trkpt lat="45.3098" lon="4.20187">
        <ele>720.16</ele>
        <time>2024-10-13T14:06:38Z</time>
      </trkpt>
      <trkpt lat="45.30994" lon="4.20175">
        <ele>713.44</ele>
        <time>2024-10-13T14:06:51Z</time>
      </trkpt>
      <trkpt lat="45.31004" lon="4.20161">
        <ele>709.11</ele>
        <time>2024-10-13T14:07:06Z</time>
      </trkpt>
      <trkpt lat="45.31004" lon="4.20159">
        <ele>709.11</ele>
        <time>2024-10-13T14:07:07Z</time>
      </trkpt>
      <trkpt lat="45.31007" lon="4.20137">
        <ele>700.94</ele>
        <time>2024-10-13T14:07:23Z</time>
      </trkpt>
      <trkpt lat="45.3102" lon="4.20155">
        <ele>696.61</ele>
        <time>2024-10-13T14:07:40Z</time>
      </trkpt>
      <trkpt lat="45.31045" lon="4.20163">
        <ele>700.46</ele>
        <time>2024-10-13T14:07:58Z</time>
      </trkpt>
      <trkpt lat="45.31036" lon="4.20149">
        <ele>698.05</ele>
        <time>2024-10-13T14:08:13Z</time>
      </trkpt>
      <trkpt lat="45.3103" lon="4.20114">
        <ele>699.5</ele>
        <time>2024-10-13T14:08:28Z</time>
      </trkpt>
      <trkpt lat="45.31031" lon="4.20076">
        <ele>699.02</ele>
        <time>2024-10-13T14:08:45Z</time>
      </trkpt>
      <trkpt lat="45.31032" lon="4.2004">
        <ele>695.65</ele>
        <time>2024-10-13T14:09:01Z</time>
      </trkpt>
      <trkpt lat="45.31041" lon="4.20001">
        <ele>691.81</ele>
        <time>2024-10-13T14:09:17Z</time>
      </trkpt>
      <trkpt lat="45.31048" lon="4.19957">
        <ele>689.4</ele>
        <time>2024-10-13T14:09:38Z</time>
      </trkpt>
      <trkpt lat="45.31053" lon="4.1991">
        <ele>686.52</ele>
        <time>2024-10-13T14:09:59Z</time>
      </trkpt>
      <trkpt lat="45.3106" lon="4.19869">
        <ele>685.08</ele>
        <time>2024-10-13T14:10:18Z</time>
      </trkpt>
      <trkpt lat="45.31069" lon="4.19825">
        <ele>683.63</ele>
        <time>2024-10-13T14:10:38Z</time>
      </trkpt>
      <trkpt lat="45.31081" lon="4.19805">
        <ele>683.15</ele>
        <time>2024-10-13T14:10:51Z</time>
      </trkpt>
      <trkpt lat="45.31104" lon="4.19778">
        <ele>681.71</ele>
        <time>2024-10-13T14:11:09Z</time>
      </trkpt>
      <trkpt lat="45.31129" lon="4.1975">
        <ele>677.87</ele>
        <time>2024-10-13T14:11:30Z</time>
      </trkpt>
      <trkpt lat="45.31138" lon="4.19736">
        <ele>675.46</ele>
        <time>2024-10-13T14:11:40Z</time>
      </trkpt>
      <trkpt lat="45.31138" lon="4.19735">
        <ele>674.98</ele>
        <time>2024-10-13T14:11:41Z</time>
      </trkpt>
      <trkpt lat="45.31146" lon="4.19719">
        <ele>674.02</ele>
        <time>2024-10-13T14:12:00Z</time>
      </trkpt>
      <trkpt lat="45.31148" lon="4.19718">
        <ele>673.54</ele>
        <time>2024-10-13T14:12:03Z</time>
      </trkpt>
      <trkpt lat="45.31164" lon="4.19698">
        <ele>673.54</ele>
        <time>2024-10-13T14:12:19Z</time>
      </trkpt>
      <trkpt lat="45.31176" lon="4.19674">
        <ele>671.14</ele>
        <time>2024-10-13T14:12:37Z</time>
      </trkpt>
      <trkpt lat="45.31194" lon="4.1966">
        <ele>666.81</ele>
        <time>2024-10-13T14:12:53Z</time>
      </trkpt>
      <trkpt lat="45.31211" lon="4.19648">
        <ele>661.52</ele>
        <time>2024-10-13T14:13:10Z</time>
      </trkpt>
      <trkpt lat="45.31231" lon="4.19627">
        <ele>653.35</ele>
        <time>2024-10-13T14:13:29Z</time>
      </trkpt>
      <trkpt lat="45.31243" lon="4.19606">
        <ele>648.55</ele>
        <time>2024-10-13T14:13:44Z</time>
      </trkpt>
      <trkpt lat="45.31254" lon="4.1958">
        <ele>644.7</ele>
        <time>2024-10-13T14:14:00Z</time>
      </trkpt>
      <trkpt lat="45.31273" lon="4.1956">
        <ele>639.89</ele>
        <time>2024-10-13T14:14:17Z</time>
      </trkpt>
      <trkpt lat="45.31296" lon="4.19547">
        <ele>636.53</ele>
        <time>2024-10-13T14:14:34Z</time>
      </trkpt>
      <trkpt lat="45.31318" lon="4.19534">
        <ele>637.97</ele>
        <time>2024-10-13T14:14:52Z</time>
      </trkpt>
      <trkpt lat="45.31336" lon="4.19515">
        <ele>633.65</ele>
        <time>2024-10-13T14:15:13Z</time>
      </trkpt>
      <trkpt lat="45.31356" lon="4.19493">
        <ele>629.32</ele>
        <time>2024-10-13T14:15:34Z</time>
      </trkpt>
      <trkpt lat="45.3138" lon="4.19495">
        <ele>626.44</ele>
        <time>2024-10-13T14:15:52Z</time>
      </trkpt>
      <trkpt lat="45.31404" lon="4.19495">
        <ele>622.11</ele>
        <time>2024-10-13T14:16:10Z</time>
      </trkpt>
      <trkpt lat="45.31431" lon="4.19482">
        <ele>617.3</ele>
        <time>2024-10-13T14:16:30Z</time>
      </trkpt>
      <trkpt lat="45.31451" lon="4.19471">
        <ele>612.02</ele>
        <time>2024-10-13T14:16:45Z</time>
      </trkpt>
      <trkpt lat="45.31472" lon="4.19461">
        <ele>608.65</ele>
        <time>2024-10-13T14:17:00Z</time>
      </trkpt>
      <trkpt lat="45.31479" lon="4.19458">
        <ele>607.69</ele>
        <time>2024-10-13T14:17:07Z</time>
      </trkpt>
      <trkpt lat="45.31499" lon="4.19451">
        <ele>606.25</ele>
        <time>2024-10-13T14:17:22Z</time>
      </trkpt>
      <trkpt lat="45.31521" lon="4.19445">
        <ele>603.36</ele>
        <time>2024-10-13T14:17:39Z</time>
      </trkpt>
      <trkpt lat="45.31539" lon="4.19435">
        <ele>600.96</ele>
        <time>2024-10-13T14:17:51Z</time>
      </trkpt>
      <trkpt lat="45.3154" lon="4.19435">
        <ele>600.96</ele>
        <time>2024-10-13T14:17:52Z</time>
      </trkpt>
      <trkpt lat="45.31542" lon="4.19434">
        <ele>600.48</ele>
        <time>2024-10-13T14:17:53Z</time>
      </trkpt>
      <trkpt lat="45.31565" lon="4.19417">
        <ele>597.6</ele>
        <time>2024-10-13T14:18:09Z</time>
      </trkpt>
      <trkpt lat="45.31584" lon="4.19394">
        <ele>596.15</ele>
        <time>2024-10-13T14:18:25Z</time>
      </trkpt>
      <trkpt lat="45.31597" lon="4.19375">
        <ele>595.19</ele>
        <time>2024-10-13T14:18:39Z</time>
      </trkpt>
      <trkpt lat="45.31598" lon="4.19373">
        <ele>595.19</ele>
        <time>2024-10-13T14:18:40Z</time>
      </trkpt>
      <trkpt lat="45.31599" lon="4.19371">
        <ele>594.71</ele>
        <time>2024-10-13T14:18:41Z</time>
      </trkpt>
      <trkpt lat="45.31614" lon="4.19347">
        <ele>592.79</ele>
        <time>2024-10-13T14:18:56Z</time>
      </trkpt>
      <trkpt lat="45.31623" lon="4.19338">
        <ele>591.35</ele>
        <time>2024-10-13T14:19:04Z</time>
      </trkpt>
      <trkpt lat="45.31635" lon="4.19295">
        <ele>589.91</ele>
        <time>2024-10-13T14:19:26Z</time>
      </trkpt>
      <trkpt lat="45.31636" lon="4.19251">
        <ele>585.1</ele>
        <time>2024-10-13T14:19:46Z</time>
      </trkpt>
      <trkpt lat="45.31639" lon="4.19222">
        <ele>584.14</ele>
        <time>2024-10-13T14:20:02Z</time>
      </trkpt>
      <trkpt lat="45.31629" lon="4.19206">
        <ele>582.7</ele>
        <time>2024-10-13T14:20:17Z</time>
      </trkpt>
      <trkpt lat="45.31612" lon="4.19176">
        <ele>580.29</ele>
        <time>2024-10-13T14:20:34Z</time>
      </trkpt>
      <trkpt lat="45.31602" lon="4.19143">
        <ele>577.89</ele>
        <time>2024-10-13T14:20:51Z</time>
      </trkpt>
      <trkpt lat="45.31625" lon="4.1912">
        <ele>575.97</ele>
        <time>2024-10-13T14:21:07Z</time>
      </trkpt>
      <trkpt lat="45.3165" lon="4.19109">
        <ele>571.16</ele>
        <time>2024-10-13T14:21:25Z</time>
      </trkpt>
      <trkpt lat="45.31682" lon="4.19098">
        <ele>568.76</ele>
        <time>2024-10-13T14:21:45Z</time>
      </trkpt>
      <trkpt lat="45.31689" lon="4.19097">
        <ele>568.76</ele>
        <time>2024-10-13T14:22:01Z</time>
      </trkpt>
      <trkpt lat="45.31705" lon="4.1908">
        <ele>568.28</ele>
        <time>2024-10-13T14:22:16Z</time>
      </trkpt>
      <trkpt lat="45.31727" lon="4.19061">
        <ele>565.87</ele>
        <time>2024-10-13T14:22:33Z</time>
      </trkpt>
      <trkpt lat="45.31738" lon="4.19059">
        <ele>562.99</ele>
        <time>2024-10-13T14:22:47Z</time>
      </trkpt>
      <trkpt lat="45.31743" lon="4.1905">
        <ele>562.51</ele>
        <time>2024-10-13T14:23:03Z</time>
      </trkpt>
      <trkpt lat="45.31765" lon="4.19027">
        <ele>559.62</ele>
        <time>2024-10-13T14:23:19Z</time>
      </trkpt>
      <trkpt lat="45.31783" lon="4.19015">
        <ele>556.26</ele>
        <time>2024-10-13T14:23:35Z</time>
      </trkpt>
      <trkpt lat="45.31799" lon="4.18989">
        <ele>552.9</ele>
        <time>2024-10-13T14:23:51Z</time>
      </trkpt>
      <trkpt lat="45.31809" lon="4.18956">
        <ele>549.05</ele>
        <time>2024-10-13T14:24:07Z</time>
      </trkpt>
      <trkpt lat="45.31825" lon="4.18925">
        <ele>545.69</ele>
        <time>2024-10-13T14:24:25Z</time>
      </trkpt>
      <trkpt lat="45.31846" lon="4.18906">
        <ele>541.36</ele>
        <time>2024-10-13T14:24:43Z</time>
      </trkpt>
      <trkpt lat="45.31858" lon="4.18882">
        <ele>540.4</ele>
        <time>2024-10-13T14:25:01Z</time>
      </trkpt>
      <trkpt lat="45.31868" lon="4.18855">
        <ele>540.88</ele>
        <time>2024-10-13T14:25:17Z</time>
      </trkpt>
      <trkpt lat="45.31868" lon="4.18846">
        <ele>545.2</ele>
        <time>2024-10-13T14:25:35Z</time>
      </trkpt>
      <trkpt lat="45.31871" lon="4.18841">
        <ele>546.65</ele>
        <time>2024-10-13T14:25:48Z</time>
      </trkpt>
      <trkpt lat="45.31875" lon="4.18845">
        <ele>546.17</ele>
        <time>2024-10-13T14:26:01Z</time>
      </trkpt>
      <trkpt lat="45.31877" lon="4.18841">
        <ele>547.13</ele>
        <time>2024-10-13T14:26:27Z</time>
      </trkpt>
      <trkpt lat="45.31877" lon="4.18843">
        <ele>550.49</ele>
        <time>2024-10-13T14:26:57Z</time>
      </trkpt>
      <trkpt lat="45.31876" lon="4.18842">
        <ele>553.86</ele>
        <time>2024-10-13T14:27:33Z</time>
      </trkpt>
      <trkpt lat="45.31877" lon="4.18841">
        <ele>551.45</ele>
        <time>2024-10-13T14:27:52Z</time>
      </trkpt>
      <trkpt lat="45.31875" lon="4.1884">
        <ele>550.01</ele>
        <time>2024-10-13T14:28:20Z</time>
      </trkpt>
      <trkpt lat="45.31876" lon="4.18841">
        <ele>550.97</ele>
        <time>2024-10-13T14:28:46Z</time>
      </trkpt>
      <trkpt lat="45.31873" lon="4.18843">
        <ele>550.97</ele>
        <time>2024-10-13T14:29:05Z</time>
      </trkpt>
      <trkpt lat="45.31872" lon="4.18843">
        <ele>550.97</ele>
        <time>2024-10-13T14:29:06Z</time>
      </trkpt>
      <trkpt lat="45.3187" lon="4.18843">
        <ele>550.97</ele>
        <time>2024-10-13T14:29:07Z</time>
      </trkpt>
      <trkpt lat="45.31868" lon="4.18842">
        <ele>550.97</ele>
        <time>2024-10-13T14:29:08Z</time>
      </trkpt>
      <trkpt lat="45.31866" lon="4.18842">
        <ele>550.97</ele>
        <time>2024-10-13T14:29:09Z</time>
      </trkpt>
      <trkpt lat="45.31839" lon="4.18823">
        <ele>550.49</ele>
        <time>2024-10-13T14:29:28Z</time>
      </trkpt>
      <trkpt lat="45.31814" lon="4.18802">
        <ele>550.01</ele>
        <time>2024-10-13T14:29:49Z</time>
      </trkpt>
      <trkpt lat="45.31789" lon="4.18778">
        <ele>550.01</ele>
        <time>2024-10-13T14:30:08Z</time>
      </trkpt>
      <trkpt lat="45.31768" lon="4.18761">
        <ele>551.93</ele>
        <time>2024-10-13T14:30:26Z</time>
      </trkpt>
      <trkpt lat="45.31749" lon="4.18756">
        <ele>553.86</ele>
        <time>2024-10-13T14:30:40Z</time>
      </trkpt>
      <trkpt lat="45.31748" lon="4.18757">
        <ele>553.86</ele>
        <time>2024-10-13T14:30:41Z</time>
      </trkpt>
      <trkpt lat="45.31747" lon="4.18758">
        <ele>553.38</ele>
        <time>2024-10-13T14:30:42Z</time>
      </trkpt>
      <trkpt lat="45.31734" lon="4.18763">
        <ele>552.9</ele>
        <time>2024-10-13T14:30:56Z</time>
      </trkpt>
      <trkpt lat="45.31733" lon="4.18764">
        <ele>553.38</ele>
        <time>2024-10-13T14:31:15Z</time>
      </trkpt>
      <trkpt lat="45.31737" lon="4.18762">
        <ele>552.41</ele>
        <time>2024-10-13T14:31:30Z</time>
      </trkpt>
      <trkpt lat="45.3174" lon="4.18761">
        <ele>551.93</ele>
        <time>2024-10-13T14:31:44Z</time>
      </trkpt>
      <trkpt lat="45.31739" lon="4.1876">
        <ele>553.86</ele>
        <time>2024-10-13T14:32:04Z</time>
      </trkpt>
      <trkpt lat="45.31736" lon="4.18758">
        <ele>555.3</ele>
        <time>2024-10-13T14:32:25Z</time>
      </trkpt>
      <trkpt lat="45.31734" lon="4.18756">
        <ele>553.38</ele>
        <time>2024-10-13T14:32:44Z</time>
      </trkpt>
      <trkpt lat="45.31735" lon="4.18758">
        <ele>552.9</ele>
        <time>2024-10-13T14:33:04Z</time>
      </trkpt>
      <trkpt lat="45.31736" lon="4.18759">
        <ele>551.93</ele>
        <time>2024-10-13T14:33:20Z</time>
      </trkpt>
      <trkpt lat="45.31737" lon="4.18761">
        <ele>550.49</ele>
        <time>2024-10-13T14:33:39Z</time>
      </trkpt>
      <trkpt lat="45.31738" lon="4.18765">
        <ele>552.41</ele>
        <time>2024-10-13T14:33:56Z</time>
      </trkpt>
      <trkpt lat="45.31734" lon="4.18767">
        <ele>550.01</ele>
        <time>2024-10-13T14:34:15Z</time>
      </trkpt>
      <trkpt lat="45.31734" lon="4.1877">
        <ele>550.49</ele>
        <time>2024-10-13T14:34:32Z</time>
      </trkpt>
      <trkpt lat="45.31735" lon="4.18768">
        <ele>548.57</ele>
        <time>2024-10-13T14:34:48Z</time>
      </trkpt>
      <trkpt lat="45.31738" lon="4.18762">
        <ele>548.57</ele>
        <time>2024-10-13T14:35:03Z</time>
      </trkpt>
      <trkpt lat="45.31739" lon="4.18764">
        <ele>551.45</ele>
        <time>2024-10-13T14:35:26Z</time>
      </trkpt>
      <trkpt lat="45.31738" lon="4.18763">
        <ele>551.45</ele>
        <time>2024-10-13T14:35:39Z</time>
      </trkpt>
      <trkpt lat="45.31737" lon="4.18759">
        <ele>551.93</ele>
        <time>2024-10-13T14:35:53Z</time>
      </trkpt>
      <trkpt lat="45.31739" lon="4.18762">
        <ele>551.93</ele>
        <time>2024-10-13T14:36:06Z</time>
      </trkpt>
      <trkpt lat="45.31739" lon="4.18767">
        <ele>551.45</ele>
        <time>2024-10-13T14:36:22Z</time>
      </trkpt>
      <trkpt lat="45.31738" lon="4.18763">
        <ele>551.45</ele>
        <time>2024-10-13T14:36:37Z</time>
      </trkpt>
      <trkpt lat="45.31739" lon="4.18763">
        <ele>552.9</ele>
        <time>2024-10-13T14:36:54Z</time>
        <extensions>
          <visugpx:TrkExtension xmlns:visugpx="https://www.visugpx.com/editgpx/">
            <visugpx:node>1</visugpx:node>
            </visugpx:TrkExtension>
        </extensions>
      </trkpt>
    </trkseg>
  </trk>
</gpx>